﻿<?xml version="1.0" encoding="utf-8"?><gpx creator="Garmin Desktop App" version="1.1" xsi:schemaLocation="http://www.topografix.com/GPX/1/1 http://www.topografix.com/GPX/1/1/gpx.xsd http://www.garmin.com/xmlschemas/WaypointExtension/v1 http://www8.garmin.com/xmlschemas/WaypointExtensionv1.xsd http://www.garmin.com/xmlschemas/TrackPointExtension/v1 http://www.garmin.com/xmlschemas/TrackPointExtensionv1.xsd http://www.garmin.com/xmlschemas/GpxExtensions/v3 http://www8.garmin.com/xmlschemas/GpxExtensionsv3.xsd http://www.garmin.com/xmlschemas/ActivityExtension/v1 http://www8.garmin.com/xmlschemas/ActivityExtensionv1.xsd http://www.garmin.com/xmlschemas/AdventuresExtensions/v1 http://www8.garmin.com/xmlschemas/AdventuresExtensionv1.xsd http://www.garmin.com/xmlschemas/PressureExtension/v1 http://www.garmin.com/xmlschemas/PressureExtensionv1.xsd http://www.garmin.com/xmlschemas/TripExtensions/v1 http://www.garmin.com/xmlschemas/TripExtensionsv1.xsd http://www.garmin.com/xmlschemas/TripMetaDataExtensions/v1 http://www.garmin.com/xmlschemas/TripMetaDataExtensionsv1.xsd http://www.garmin.com/xmlschemas/ViaPointTransportationModeExtensions/v1 http://www.garmin.com/xmlschemas/ViaPointTransportationModeExtensionsv1.xsd http://www.garmin.com/xmlschemas/CreationTimeExtension/v1 http://www.garmin.com/xmlschemas/CreationTimeExtensionsv1.xsd http://www.garmin.com/xmlschemas/AccelerationExtension/v1 http://www.garmin.com/xmlschemas/AccelerationExtensionv1.xsd http://www.garmin.com/xmlschemas/PowerExtension/v1 http://www.garmin.com/xmlschemas/PowerExtensionv1.xsd http://www.garmin.com/xmlschemas/VideoExtension/v1 http://www.garmin.com/xmlschemas/VideoExtensionv1.xsd" xmlns="http://www.topografix.com/GPX/1/1" xmlns:xsi="http://www.w3.org/2001/XMLSchema-instance" xmlns:wptx1="http://www.garmin.com/xmlschemas/WaypointExtension/v1" xmlns:gpxtrx="http://www.garmin.com/xmlschemas/GpxExtensions/v3" xmlns:gpxtpx="http://www.garmin.com/xmlschemas/TrackPointExtension/v1" xmlns:gpxx="http://www.garmin.com/xmlschemas/GpxExtensions/v3" xmlns:trp="http://www.garmin.com/xmlschemas/TripExtensions/v1" xmlns:adv="http://www.garmin.com/xmlschemas/AdventuresExtensions/v1" xmlns:prs="http://www.garmin.com/xmlschemas/PressureExtension/v1" xmlns:tmd="http://www.garmin.com/xmlschemas/TripMetaDataExtensions/v1" xmlns:vptm="http://www.garmin.com/xmlschemas/ViaPointTransportationModeExtensions/v1" xmlns:ctx="http://www.garmin.com/xmlschemas/CreationTimeExtension/v1" xmlns:gpxacc="http://www.garmin.com/xmlschemas/AccelerationExtension/v1" xmlns:gpxpx="http://www.garmin.com/xmlschemas/PowerExtension/v1" xmlns:vidx1="http://www.garmin.com/xmlschemas/VideoExtension/v1">

  <metadata>
    <link href="http://www.garmin.com">
      <text>Garmin International</text>
    </link>
    <time>2021-08-22T18:36:23Z</time>
    <bounds maxlat="51.671347925439477" maxlon="5.162979438900948" minlat="51.638228679075837" minlon="5.109915118664503" />
  </metadata>

  <trk>
    <name>duinwal grote vijver klinkaert 19 km</name>
    <extensions>
      <gpxx:TrackExtension>
        <gpxx:DisplayColor>Red</gpxx:DisplayColor>
      </gpxx:TrackExtension>
    </extensions>
    <trkseg>
      <trkpt lat="51.638228679075837" lon="5.142261972650886">
        <ele>-11.630000000000001</ele>
        <time>2019-09-06T14:08:02Z</time>
      </trkpt>
      <trkpt lat="51.638264134526253" lon="5.142272030934691">
        <ele>-11.640000000000001</ele>
        <time>2019-09-06T14:07:59Z</time>
      </trkpt>
      <trkpt lat="51.638472089543939" lon="5.142245627939701">
        <ele>-11.68</ele>
        <time>2019-09-06T14:07:45Z</time>
      </trkpt>
      <trkpt lat="51.638508467003703" lon="5.142151163890958">
        <ele>-11.710000000000001</ele>
        <time>2019-09-06T14:07:39Z</time>
      </trkpt>
      <trkpt lat="51.638506874442101" lon="5.141982519999147">
        <ele>-11.76</ele>
        <time>2019-09-06T14:07:30Z</time>
      </trkpt>
      <trkpt lat="51.638517687097192" lon="5.1417276263237">
        <ele>-11.859999999999999</ele>
        <time>2019-09-06T14:07:14Z</time>
      </trkpt>
      <trkpt lat="51.638548951596022" lon="5.141380950808525">
        <ele>-12.01</ele>
        <time>2019-09-06T14:06:56Z</time>
      </trkpt>
      <trkpt lat="51.638625394552946" lon="5.141330575570464">
        <ele>-12.1</ele>
        <time>2019-09-06T14:06:47Z</time>
      </trkpt>
      <trkpt lat="51.638900069519877" lon="5.141424117609859">
        <ele>-12.27</ele>
        <time>2019-09-06T14:06:25Z</time>
      </trkpt>
      <trkpt lat="51.639118669554591" lon="5.141502404585481">
        <ele>-12.41</ele>
        <time>2019-09-06T14:06:07Z</time>
      </trkpt>
      <trkpt lat="51.639308603480458" lon="5.141539284959436">
        <ele>-12.529999999999999</ele>
        <time>2019-09-06T14:05:51Z</time>
      </trkpt>
      <trkpt lat="51.63935805670917" lon="5.141583122313023">
        <ele>-12.699999999999999</ele>
        <time>2019-09-06T14:05:30Z</time>
      </trkpt>
      <trkpt lat="51.639415137469769" lon="5.141556384041905">
        <ele>-13.640000000000001</ele>
        <time>2019-09-06T14:05:06Z</time>
      </trkpt>
      <trkpt lat="51.639474229887128" lon="5.141585385426879">
        <ele>-13.710000000000001</ele>
        <time>2019-09-06T14:04:53Z</time>
      </trkpt>
      <trkpt lat="51.639677071943879" lon="5.141658978536725">
        <ele>-13.82</ele>
        <time>2019-09-06T14:04:35Z</time>
      </trkpt>
      <trkpt lat="51.639934899285436" lon="5.141721507534385">
        <ele>-13.94</ele>
        <time>2019-09-06T14:04:15Z</time>
      </trkpt>
      <trkpt lat="51.640150984749198" lon="5.141815887764096">
        <ele>-14.02</ele>
        <time>2019-09-06T14:03:59Z</time>
      </trkpt>
      <trkpt lat="51.640366734936833" lon="5.141898365691304">
        <ele>-14.109999999999999</ele>
        <time>2019-09-06T14:03:40Z</time>
      </trkpt>
      <trkpt lat="51.640394646674395" lon="5.141914961859584">
        <ele>-14.25</ele>
        <time>2019-09-06T14:03:13Z</time>
      </trkpt>
      <trkpt lat="51.640392802655697" lon="5.141889480873942">
        <ele>-14.359999999999999</ele>
        <time>2019-09-06T14:02:49Z</time>
      </trkpt>
      <trkpt lat="51.640405710786581" lon="5.141878668218851">
        <ele>-14.5</ele>
        <time>2019-09-06T14:02:17Z</time>
      </trkpt>
      <trkpt lat="51.640403280034661" lon="5.141874812543392">
        <ele>-14.630000000000001</ele>
        <time>2019-09-06T14:01:49Z</time>
      </trkpt>
      <trkpt lat="51.640396239235997" lon="5.141870453953743">
        <ele>-14.789999999999999</ele>
        <time>2019-09-06T14:01:15Z</time>
      </trkpt>
      <trkpt lat="51.640394311398268" lon="5.14186492189765">
        <ele>-14.93</ele>
        <time>2019-09-06T14:00:46Z</time>
      </trkpt>
      <trkpt lat="51.640408057719469" lon="5.141856288537383">
        <ele>-15.07</ele>
        <time>2019-09-06T14:00:21Z</time>
      </trkpt>
      <trkpt lat="51.640423648059368" lon="5.141872214153409">
        <ele>-15.220000000000001</ele>
        <time>2019-09-06T13:59:55Z</time>
      </trkpt>
      <trkpt lat="51.640427084639668" lon="5.141875147819519">
        <ele>-17.629999999999999</ele>
        <time>2019-09-06T13:59:52Z</time>
      </trkpt>
      <trkpt lat="51.640513502061367" lon="5.142032224684954">
        <ele>-17.699999999999999</ele>
        <time>2019-09-06T13:59:36Z</time>
      </trkpt>
      <trkpt lat="51.640604864805937" lon="5.142399603500962">
        <ele>-17.73</ele>
        <time>2019-09-06T13:59:20Z</time>
      </trkpt>
      <trkpt lat="51.640607379376888" lon="5.14262180775404">
        <ele>-17.73</ele>
        <time>2019-09-06T13:59:08Z</time>
      </trkpt>
      <trkpt lat="51.640616515651345" lon="5.142935961484909">
        <ele>-17.719999999999999</ele>
        <time>2019-09-06T13:58:54Z</time>
      </trkpt>
      <trkpt lat="51.640617521479726" lon="5.143005447462201">
        <ele>-17.710000000000001</ele>
        <time>2019-09-06T13:58:51Z</time>
      </trkpt>
      <trkpt lat="51.640606625005603" lon="5.143366372212768">
        <ele>-17.66</ele>
        <time>2019-09-06T13:58:36Z</time>
      </trkpt>
      <trkpt lat="51.640586676076055" lon="5.143699804320931">
        <ele>-17.600000000000001</ele>
        <time>2019-09-06T13:58:22Z</time>
      </trkpt>
      <trkpt lat="51.64058986119926" lon="5.144068608060479">
        <ele>-17.48</ele>
        <time>2019-09-06T13:58:10Z</time>
      </trkpt>
      <trkpt lat="51.640578545629978" lon="5.144182769581676">
        <ele>-17.449999999999999</ele>
        <time>2019-09-06T13:58:06Z</time>
      </trkpt>
      <trkpt lat="51.640597237274051" lon="5.144481249153614">
        <ele>-17.359999999999999</ele>
        <time>2019-09-06T13:57:54Z</time>
      </trkpt>
      <trkpt lat="51.640556501224637" lon="5.144958849996328">
        <ele>-17.170000000000002</ele>
        <time>2019-09-06T13:57:37Z</time>
      </trkpt>
      <trkpt lat="51.640507383272052" lon="5.145261939615011">
        <ele>-16.989999999999998</ele>
        <time>2019-09-06T13:57:22Z</time>
      </trkpt>
      <trkpt lat="51.640502186492085" lon="5.14530929736793">
        <ele>-14.68</ele>
        <time>2019-09-06T13:57:20Z</time>
      </trkpt>
      <trkpt lat="51.640468491241336" lon="5.145808691158891">
        <ele>-14.44</ele>
        <time>2019-09-06T13:57:02Z</time>
      </trkpt>
      <trkpt lat="51.640279646962881" lon="5.146221416071057">
        <ele>-14.19</ele>
        <time>2019-09-06T13:56:42Z</time>
      </trkpt>
      <trkpt lat="51.640109997242689" lon="5.146557949483395">
        <ele>-13.98</ele>
        <time>2019-09-06T13:56:23Z</time>
      </trkpt>
      <trkpt lat="51.639998350292444" lon="5.146925076842308">
        <ele>-13.859999999999999</ele>
        <time>2019-09-06T13:56:06Z</time>
      </trkpt>
      <trkpt lat="51.639901036396623" lon="5.147269070148468">
        <ele>-13.69</ele>
        <time>2019-09-06T13:55:44Z</time>
      </trkpt>
      <trkpt lat="51.639798190444708" lon="5.147489849478006">
        <ele>-13.609999999999999</ele>
        <time>2019-09-06T13:55:32Z</time>
      </trkpt>
      <trkpt lat="51.6396863758564" lon="5.147877847775817">
        <ele>-13.529999999999999</ele>
        <time>2019-09-06T13:55:11Z</time>
      </trkpt>
      <trkpt lat="51.639596438035369" lon="5.148173393681645">
        <ele>-13.49</ele>
        <time>2019-09-06T13:54:51Z</time>
      </trkpt>
      <trkpt lat="51.639539441093802" lon="5.148465083912015">
        <ele>-13.48</ele>
        <time>2019-09-06T13:54:35Z</time>
      </trkpt>
      <trkpt lat="51.639550169929862" lon="5.148527277633548">
        <ele>-13.470000000000001</ele>
        <time>2019-09-06T13:54:31Z</time>
      </trkpt>
      <trkpt lat="51.639585206285119" lon="5.14856013469398">
        <ele>-13.470000000000001</ele>
        <time>2019-09-06T13:54:27Z</time>
      </trkpt>
      <trkpt lat="51.639614040032029" lon="5.148568516597152">
        <ele>-13.460000000000001</ele>
        <time>2019-09-06T13:54:25Z</time>
      </trkpt>
      <trkpt lat="51.639809506013989" lon="5.148580670356751">
        <ele>-13.44</ele>
        <time>2019-09-06T13:54:11Z</time>
      </trkpt>
      <trkpt lat="51.640063980594277" lon="5.148619897663593">
        <ele>-13.380000000000001</ele>
        <time>2019-09-06T13:53:55Z</time>
      </trkpt>
      <trkpt lat="51.640370674431324" lon="5.148683516308665">
        <ele>-13.31</ele>
        <time>2019-09-06T13:53:32Z</time>
      </trkpt>
      <trkpt lat="51.640686504542828" lon="5.14879709109664">
        <ele>-13.26</ele>
        <time>2019-09-06T13:53:09Z</time>
      </trkpt>
      <trkpt lat="51.640948355197906" lon="5.148779572919011">
        <ele>-13.18</ele>
        <time>2019-09-06T13:52:48Z</time>
      </trkpt>
      <trkpt lat="51.641259239986539" lon="5.148973865434527">
        <ele>-13.119999999999999</ele>
        <time>2019-09-06T13:52:27Z</time>
      </trkpt>
      <trkpt lat="51.64152754470706" lon="5.149043435230851">
        <ele>-13.01</ele>
        <time>2019-09-06T13:52:07Z</time>
      </trkpt>
      <trkpt lat="51.641538944095373" lon="5.149049973115325">
        <ele>-13</ele>
        <time>2019-09-06T13:52:06Z</time>
      </trkpt>
      <trkpt lat="51.641642544418573" lon="5.149085260927677">
        <ele>-16.079999999999998</ele>
        <time>2019-09-06T13:51:58Z</time>
      </trkpt>
      <trkpt lat="51.641699960455298" lon="5.149148292839527">
        <ele>-16.050000000000001</ele>
        <time>2019-09-06T13:51:53Z</time>
      </trkpt>
      <trkpt lat="51.641835747286677" lon="5.149242589250207">
        <ele>-16</ele>
        <time>2019-09-06T13:51:46Z</time>
      </trkpt>
      <trkpt lat="51.642048647627234" lon="5.149323055520654">
        <ele>-15.869999999999999</ele>
        <time>2019-09-06T13:51:31Z</time>
      </trkpt>
      <trkpt lat="51.642087958753109" lon="5.149352727457881">
        <ele>-15.859999999999999</ele>
        <time>2019-09-06T13:51:29Z</time>
      </trkpt>
      <trkpt lat="51.642343103885651" lon="5.149432271718979">
        <ele>-15.73</ele>
        <time>2019-09-06T13:51:10Z</time>
      </trkpt>
      <trkpt lat="51.642497666180134" lon="5.149538889527321">
        <ele>-15.65</ele>
        <time>2019-09-06T13:50:58Z</time>
      </trkpt>
      <trkpt lat="51.642628340050578" lon="5.149633437395096">
        <ele>-15.59</ele>
        <time>2019-09-06T13:50:48Z</time>
      </trkpt>
      <trkpt lat="51.642870409414172" lon="5.149922948330641">
        <ele>-15.460000000000001</ele>
        <time>2019-09-06T13:50:29Z</time>
      </trkpt>
      <trkpt lat="51.643060008063912" lon="5.150190079584718">
        <ele>-15.32</ele>
        <time>2019-09-06T13:50:10Z</time>
      </trkpt>
      <trkpt lat="51.643189089372754" lon="5.150301139801741">
        <ele>-15.27</ele>
        <time>2019-09-06T13:49:58Z</time>
      </trkpt>
      <trkpt lat="51.643388830125332" lon="5.150410858914256">
        <ele>-15.19</ele>
        <time>2019-09-06T13:49:43Z</time>
      </trkpt>
      <trkpt lat="51.643600473180413" lon="5.150479339063168">
        <ele>-15.09</ele>
        <time>2019-09-06T13:49:28Z</time>
      </trkpt>
      <trkpt lat="51.643728381022811" lon="5.150526780635119">
        <ele>-14.99</ele>
        <time>2019-09-06T13:49:18Z</time>
      </trkpt>
      <trkpt lat="51.64390129968524" lon="5.150624178349972">
        <ele>-14.890000000000001</ele>
        <time>2019-09-06T13:49:06Z</time>
      </trkpt>
      <trkpt lat="51.644116966053843" lon="5.150782093405724">
        <ele>-14.789999999999999</ele>
        <time>2019-09-06T13:48:53Z</time>
      </trkpt>
      <trkpt lat="51.644210759550333" lon="5.150894662365317">
        <ele>-14.73</ele>
        <time>2019-09-06T13:48:49Z</time>
      </trkpt>
      <trkpt lat="51.644254848361015" lon="5.151002621278167">
        <ele>-14.67</ele>
        <time>2019-09-06T13:48:42Z</time>
      </trkpt>
      <trkpt lat="51.644255770370364" lon="5.151020642369986">
        <ele>-14.66</ele>
        <time>2019-09-06T13:48:41Z</time>
      </trkpt>
      <trkpt lat="51.644316790625453" lon="5.151338903233409">
        <ele>-12.08</ele>
        <time>2019-09-06T13:48:26Z</time>
      </trkpt>
      <trkpt lat="51.644320730119944" lon="5.151382992044091">
        <ele>-12.050000000000001</ele>
        <time>2019-09-06T13:48:24Z</time>
      </trkpt>
      <trkpt lat="51.644398765638471" lon="5.151613913476467">
        <ele>-14.890000000000001</ele>
        <time>2019-09-06T13:48:12Z</time>
      </trkpt>
      <trkpt lat="51.644443022087216" lon="5.151733439415693">
        <ele>-14.800000000000001</ele>
        <time>2019-09-06T13:48:06Z</time>
      </trkpt>
      <trkpt lat="51.644532373175025" lon="5.152148259803653">
        <ele>-14.6</ele>
        <time>2019-09-06T13:47:52Z</time>
      </trkpt>
      <trkpt lat="51.644575959071517" lon="5.152646815404296">
        <ele>-14.279999999999999</ele>
        <time>2019-09-06T13:47:28Z</time>
      </trkpt>
      <trkpt lat="51.644688611850142" lon="5.153020480647683">
        <ele>-14</ele>
        <time>2019-09-06T13:47:06Z</time>
      </trkpt>
      <trkpt lat="51.644820626825094" lon="5.153449214994907">
        <ele>-12.74</ele>
        <time>2019-09-06T13:46:46Z</time>
      </trkpt>
      <trkpt lat="51.644961945712566" lon="5.153831178322434">
        <ele>-12.48</ele>
        <time>2019-09-06T13:46:24Z</time>
      </trkpt>
      <trkpt lat="51.64515808224678" lon="5.154242729768157">
        <ele>-12.26</ele>
        <time>2019-09-06T13:46:02Z</time>
      </trkpt>
      <trkpt lat="51.645205607637763" lon="5.1543112937361">
        <ele>-12.23</ele>
        <time>2019-09-06T13:45:58Z</time>
      </trkpt>
      <trkpt lat="51.645241901278496" lon="5.154351610690355">
        <ele>-9.83</ele>
        <time>2019-09-06T13:45:55Z</time>
      </trkpt>
      <trkpt lat="51.64533887989819" lon="5.154497288167477">
        <ele>-9.710000000000001</ele>
        <time>2019-09-06T13:45:43Z</time>
      </trkpt>
      <trkpt lat="51.645425297319889" lon="5.154803898185492">
        <ele>-9.630000000000001</ele>
        <time>2019-09-06T13:45:28Z</time>
      </trkpt>
      <trkpt lat="51.645572483539581" lon="5.15521184541285">
        <ele>-9.49</ele>
        <time>2019-09-06T13:45:06Z</time>
      </trkpt>
      <trkpt lat="51.645627804100513" lon="5.15545760281384">
        <ele>-9.43</ele>
        <time>2019-09-06T13:44:48Z</time>
      </trkpt>
      <trkpt lat="51.64577079936862" lon="5.15586462803185">
        <ele>-9.369999999999999</ele>
        <time>2019-09-06T13:44:28Z</time>
      </trkpt>
      <trkpt lat="51.645947238430381" lon="5.157104898244143">
        <ele>-9.859999999999999</ele>
        <time>2019-09-06T13:43:40Z</time>
      </trkpt>
      <trkpt lat="51.646072044968605" lon="5.157596413046122">
        <ele>-9.699999999999999</ele>
        <time>2019-09-06T13:43:19Z</time>
      </trkpt>
      <trkpt lat="51.646126108244061" lon="5.158263612538576">
        <ele>-8.75</ele>
        <time>2019-09-06T13:42:01Z</time>
      </trkpt>
      <trkpt lat="51.646260470151901" lon="5.158682204782963">
        <ele>-8.050000000000001</ele>
        <time>2019-09-06T13:41:43Z</time>
      </trkpt>
      <trkpt lat="51.646253513172269" lon="5.158765437081456">
        <ele>-7.99</ele>
        <time>2019-09-06T13:41:41Z</time>
      </trkpt>
      <trkpt lat="51.646247059106827" lon="5.158870546147227">
        <ele>-7.89</ele>
        <time>2019-09-06T13:41:38Z</time>
      </trkpt>
      <trkpt lat="51.646242281422019" lon="5.15889854170382">
        <ele>-7.84</ele>
        <time>2019-09-06T13:41:37Z</time>
      </trkpt>
      <trkpt lat="51.646303217858076" lon="5.159235829487443">
        <ele>-7.57</ele>
        <time>2019-09-06T13:41:31Z</time>
      </trkpt>
      <trkpt lat="51.646590298041701" lon="5.160114839673042">
        <ele>-6.77</ele>
        <time>2019-09-06T13:41:13Z</time>
      </trkpt>
      <trkpt lat="51.646611923351884" lon="5.160260684788227">
        <ele>-6.68</ele>
        <time>2019-09-06T13:41:11Z</time>
      </trkpt>
      <trkpt lat="51.646723737940192" lon="5.160490600392222">
        <ele>-6.37</ele>
        <time>2019-09-06T13:41:05Z</time>
      </trkpt>
      <trkpt lat="51.646849550306797" lon="5.160568384453654">
        <ele>-6.28</ele>
        <time>2019-09-06T13:41:02Z</time>
      </trkpt>
      <trkpt lat="51.646869918331504" lon="5.160571737214923">
        <ele>-6.24</ele>
        <time>2019-09-06T13:41:01Z</time>
      </trkpt>
      <trkpt lat="51.646918784826994" lon="5.160614401102066">
        <ele>-6.04</ele>
        <time>2019-09-06T13:40:57Z</time>
      </trkpt>
      <trkpt lat="51.646942170336843" lon="5.160618759691715">
        <ele>-5.98</ele>
        <time>2019-09-06T13:40:56Z</time>
      </trkpt>
      <trkpt lat="51.646980894729495" lon="5.16060040332377">
        <ele>-5.94</ele>
        <time>2019-09-06T13:40:55Z</time>
      </trkpt>
      <trkpt lat="51.647027246654034" lon="5.160567797720432">
        <ele>-5.89</ele>
        <time>2019-09-06T13:40:54Z</time>
      </trkpt>
      <trkpt lat="51.647074352949858" lon="5.160524379462004">
        <ele>-5.85</ele>
        <time>2019-09-06T13:40:53Z</time>
      </trkpt>
      <trkpt lat="51.647113244980574" lon="5.160493450239301">
        <ele>-5.83</ele>
        <time>2019-09-06T13:40:52Z</time>
      </trkpt>
      <trkpt lat="51.647156830877066" lon="5.16046361066401">
        <ele>-5.79</ele>
        <time>2019-09-06T13:40:51Z</time>
      </trkpt>
      <trkpt lat="51.647207625210285" lon="5.160429915413261">
        <ele>-5.75</ele>
        <time>2019-09-06T13:40:50Z</time>
      </trkpt>
      <trkpt lat="51.647414825856686" lon="5.160278202965856">
        <ele>-5.59</ele>
        <time>2019-09-06T13:40:46Z</time>
      </trkpt>
      <trkpt lat="51.647478528320789" lon="5.160243669524789">
        <ele>-5.55</ele>
        <time>2019-09-06T13:40:45Z</time>
      </trkpt>
      <trkpt lat="51.647651111707091" lon="5.160130094736815">
        <ele>-5.43</ele>
        <time>2019-09-06T13:40:42Z</time>
      </trkpt>
      <trkpt lat="51.647736188024282" lon="5.160062285140157">
        <ele>-5.35</ele>
        <time>2019-09-06T13:40:40Z</time>
      </trkpt>
      <trkpt lat="51.647832160815597" lon="5.159978717565537">
        <ele>-5.26</ele>
        <time>2019-09-06T13:40:38Z</time>
      </trkpt>
      <trkpt lat="51.647882619872689" lon="5.15993932262063">
        <ele>-5.23</ele>
        <time>2019-09-06T13:40:37Z</time>
      </trkpt>
      <trkpt lat="51.648157294839621" lon="5.159699181094766">
        <ele>-5.04</ele>
        <time>2019-09-06T13:40:32Z</time>
      </trkpt>
      <trkpt lat="51.648436496034265" lon="5.15954595990479">
        <ele>-4.81</ele>
        <time>2019-09-06T13:40:26Z</time>
      </trkpt>
      <trkpt lat="51.648679403588176" lon="5.159428277984262">
        <ele>-4.58</ele>
        <time>2019-09-06T13:40:21Z</time>
      </trkpt>
      <trkpt lat="51.648768670856953" lon="5.159372789785266">
        <ele>-4.48</ele>
        <time>2019-09-06T13:40:18Z</time>
      </trkpt>
      <trkpt lat="51.648806221783161" lon="5.159359546378255">
        <ele>-4.45</ele>
        <time>2019-09-06T13:40:17Z</time>
      </trkpt>
      <trkpt lat="51.648998754099011" lon="5.159303387627006">
        <ele>-5.2</ele>
        <time>2019-09-06T13:40:12Z</time>
      </trkpt>
      <trkpt lat="51.649189777672291" lon="5.159326270222664">
        <ele>-5.09</ele>
        <time>2019-09-06T13:40:07Z</time>
      </trkpt>
      <trkpt lat="51.649245349690318" lon="5.159341106191278">
        <ele>-7.42</ele>
        <time>2019-09-06T13:40:05Z</time>
      </trkpt>
      <trkpt lat="51.649655057117343" lon="5.15948343090713">
        <ele>-7.24</ele>
        <time>2019-09-06T13:39:54Z</time>
      </trkpt>
      <trkpt lat="51.649862509220839" lon="5.159533973783255">
        <ele>-7.06</ele>
        <time>2019-09-06T13:39:45Z</time>
      </trkpt>
      <trkpt lat="51.650166353210807" lon="5.15967009589076">
        <ele>-6.63</ele>
        <time>2019-09-06T13:39:24Z</time>
      </trkpt>
      <trkpt lat="51.650176495313644" lon="5.159687027335167">
        <ele>-6.61</ele>
        <time>2019-09-06T13:39:23Z</time>
      </trkpt>
      <trkpt lat="51.650189319625497" lon="5.159696247428656">
        <ele>-6.59</ele>
        <time>2019-09-06T13:39:22Z</time>
      </trkpt>
      <trkpt lat="51.650326028466225" lon="5.159897329285741">
        <ele>-6.4</ele>
        <time>2019-09-06T13:39:11Z</time>
      </trkpt>
      <trkpt lat="51.650526691228151" lon="5.160272670909762">
        <ele>-6.01</ele>
        <time>2019-09-06T13:38:49Z</time>
      </trkpt>
      <trkpt lat="51.650725426152349" lon="5.16062194481492">
        <ele>-5.64</ele>
        <time>2019-09-06T13:38:27Z</time>
      </trkpt>
      <trkpt lat="51.650732718408108" lon="5.160639211535454">
        <ele>-5.61</ele>
        <time>2019-09-06T13:38:26Z</time>
      </trkpt>
      <trkpt lat="51.65073967538774" lon="5.160656562075019">
        <ele>-5.59</ele>
        <time>2019-09-06T13:38:25Z</time>
      </trkpt>
      <trkpt lat="51.650749398395419" lon="5.160676427185535">
        <ele>-5.57</ele>
        <time>2019-09-06T13:38:24Z</time>
      </trkpt>
      <trkpt lat="51.650807484984398" lon="5.160826547071338">
        <ele>-5.45</ele>
        <time>2019-09-06T13:38:17Z</time>
      </trkpt>
      <trkpt lat="51.650863811373711" lon="5.161259640008211">
        <ele>-5.07</ele>
        <time>2019-09-06T13:37:52Z</time>
      </trkpt>
      <trkpt lat="51.650749817490578" lon="5.161680160090327">
        <ele>-4.74</ele>
        <time>2019-09-06T13:37:29Z</time>
      </trkpt>
      <trkpt lat="51.650641774758697" lon="5.161887360736728">
        <ele>-4.38</ele>
        <time>2019-09-06T13:37:09Z</time>
      </trkpt>
      <trkpt lat="51.650650156661868" lon="5.161900855600834">
        <ele>-4.41</ele>
        <time>2019-09-06T13:37:08Z</time>
      </trkpt>
      <trkpt lat="51.650649318471551" lon="5.162078635767102">
        <ele>-3.93</ele>
        <time>2019-09-06T13:36:48Z</time>
      </trkpt>
      <trkpt lat="51.650741016492248" lon="5.162211405113339">
        <ele>-3.19</ele>
        <time>2019-09-06T13:36:21Z</time>
      </trkpt>
      <trkpt lat="51.650768341496587" lon="5.162247028201819">
        <ele>-3.13</ele>
        <time>2019-09-06T13:36:18Z</time>
      </trkpt>
      <trkpt lat="51.650956347584724" lon="5.16242740675807">
        <ele>-2.64</ele>
        <time>2019-09-06T13:36:04Z</time>
      </trkpt>
      <trkpt lat="51.650981577113271" lon="5.162478117272258">
        <ele>-2.59</ele>
        <time>2019-09-06T13:36:02Z</time>
      </trkpt>
      <trkpt lat="51.650988114997745" lon="5.16250410117209">
        <ele>-2.55</ele>
        <time>2019-09-06T13:36:01Z</time>
      </trkpt>
      <trkpt lat="51.650997921824455" lon="5.162523798644543">
        <ele>-2.53</ele>
        <time>2019-09-06T13:36:00Z</time>
      </trkpt>
      <trkpt lat="51.651008231565356" lon="5.162539724260569">
        <ele>-2.49</ele>
        <time>2019-09-06T13:35:59Z</time>
      </trkpt>
      <trkpt lat="51.651028348132968" lon="5.162558583542705">
        <ele>-2.48</ele>
        <time>2019-09-06T13:35:58Z</time>
      </trkpt>
      <trkpt lat="51.651056259870529" lon="5.162579119205475">
        <ele>-2.46</ele>
        <time>2019-09-06T13:35:57Z</time>
      </trkpt>
      <trkpt lat="51.651089284569025" lon="5.162603929638863">
        <ele>-2.44</ele>
        <time>2019-09-06T13:35:56Z</time>
      </trkpt>
      <trkpt lat="51.651125242933631" lon="5.162628404796124">
        <ele>-2.43</ele>
        <time>2019-09-06T13:35:55Z</time>
      </trkpt>
      <trkpt lat="51.651165140792727" lon="5.162663608789444">
        <ele>-2.39</ele>
        <time>2019-09-06T13:35:54Z</time>
      </trkpt>
      <trkpt lat="51.651201266795397" lon="5.162706524133682">
        <ele>-2.38</ele>
        <time>2019-09-06T13:35:53Z</time>
      </trkpt>
      <trkpt lat="51.651226663962007" lon="5.16274306923151">
        <ele>-2.36</ele>
        <time>2019-09-06T13:35:52Z</time>
      </trkpt>
      <trkpt lat="51.651287600398064" lon="5.162822362035513">
        <ele>-2.26</ele>
        <time>2019-09-06T13:35:47Z</time>
      </trkpt>
      <trkpt lat="51.651655565947294" lon="5.162954963743687">
        <ele>-2.07</ele>
        <time>2019-09-06T13:35:36Z</time>
      </trkpt>
      <trkpt lat="51.651737792417407" lon="5.162950186058879">
        <ele>-2.03</ele>
        <time>2019-09-06T13:35:34Z</time>
      </trkpt>
      <trkpt lat="51.652045240625739" lon="5.162979438900948">
        <ele>-1.89</ele>
        <time>2019-09-06T13:35:22Z</time>
      </trkpt>
      <trkpt lat="51.652066530659795" lon="5.162971392273903">
        <ele>-1.88</ele>
        <time>2019-09-06T13:35:21Z</time>
      </trkpt>
      <trkpt lat="51.652156636118889" lon="5.162946581840515">
        <ele>-1.83</ele>
        <time>2019-09-06T13:35:17Z</time>
      </trkpt>
      <trkpt lat="51.652171807363629" lon="5.16294633038342">
        <ele>-1.84</ele>
        <time>2019-09-06T13:35:16Z</time>
      </trkpt>
      <trkpt lat="51.652288986369967" lon="5.162868797779083">
        <ele>-1.79</ele>
        <time>2019-09-06T13:35:08Z</time>
      </trkpt>
      <trkpt lat="51.652468778192997" lon="5.162725551053882">
        <ele>-1.68</ele>
        <time>2019-09-06T13:34:56Z</time>
      </trkpt>
      <trkpt lat="51.652505239471793" lon="5.16268783248961">
        <ele>0.61</ele>
        <time>2019-09-06T13:34:53Z</time>
      </trkpt>
      <trkpt lat="51.652514627203345" lon="5.162678863853216">
        <ele>0.59</ele>
        <time>2019-09-06T13:34:52Z</time>
      </trkpt>
      <trkpt lat="51.652577575296164" lon="5.162572246044874">
        <ele>0.63</ele>
        <time>2019-09-06T13:34:47Z</time>
      </trkpt>
      <trkpt lat="51.652692491188645" lon="5.162309221923351">
        <ele>0.7</ele>
        <time>2019-09-06T13:34:37Z</time>
      </trkpt>
      <trkpt lat="51.65270883589983" lon="5.162234790623188">
        <ele>0.71</ele>
        <time>2019-09-06T13:34:36Z</time>
      </trkpt>
      <trkpt lat="51.652722498401999" lon="5.162148959934712">
        <ele>0.71</ele>
        <time>2019-09-06T13:34:35Z</time>
      </trkpt>
      <trkpt lat="51.652722246944904" lon="5.162021974101663">
        <ele>0.75</ele>
        <time>2019-09-06T13:34:33Z</time>
      </trkpt>
      <trkpt lat="51.652709422633052" lon="5.161969503387809">
        <ele>0.78</ele>
        <time>2019-09-06T13:34:32Z</time>
      </trkpt>
      <trkpt lat="51.652696346864104" lon="5.16191778704524">
        <ele>0.8</ele>
        <time>2019-09-06T13:34:31Z</time>
      </trkpt>
      <trkpt lat="51.652690982446074" lon="5.161869758740068">
        <ele>0.82</ele>
        <time>2019-09-06T13:34:30Z</time>
      </trkpt>
      <trkpt lat="51.652690479531884" lon="5.161814605817199">
        <ele>0.82</ele>
        <time>2019-09-06T13:34:29Z</time>
      </trkpt>
      <trkpt lat="51.652694335207343" lon="5.161775881424546">
        <ele>0.82</ele>
        <time>2019-09-06T13:34:28Z</time>
      </trkpt>
      <trkpt lat="51.652868008241057" lon="5.161361480131745">
        <ele>0.91</ele>
        <time>2019-09-06T13:34:19Z</time>
      </trkpt>
      <trkpt lat="51.653019301593304" lon="5.160865942016244">
        <ele>0.98</ele>
        <time>2019-09-06T13:34:08Z</time>
      </trkpt>
      <trkpt lat="51.653147712349892" lon="5.160487415269017">
        <ele>1.06</ele>
        <time>2019-09-06T13:33:51Z</time>
      </trkpt>
      <trkpt lat="51.653314009308815" lon="5.160111822187901">
        <ele>0.37</ele>
        <time>2019-09-06T13:33:36Z</time>
      </trkpt>
      <trkpt lat="51.653452478349209" lon="5.159678645431995">
        <ele>0.44</ele>
        <time>2019-09-06T13:33:26Z</time>
      </trkpt>
      <trkpt lat="51.653637886047363" lon="5.159154692664743">
        <ele>0.53</ele>
        <time>2019-09-06T13:33:16Z</time>
      </trkpt>
      <trkpt lat="51.65369002148509" lon="5.158570054918528">
        <ele>0.66</ele>
        <time>2019-09-06T13:33:06Z</time>
      </trkpt>
      <trkpt lat="51.653756909072399" lon="5.158030008897185">
        <ele>0.83</ele>
        <time>2019-09-06T13:32:51Z</time>
      </trkpt>
      <trkpt lat="51.653790855780244" lon="5.157711999490857">
        <ele>0.92</ele>
        <time>2019-09-06T13:32:39Z</time>
      </trkpt>
      <trkpt lat="51.653897641226649" lon="5.157237751409411">
        <ele>1.14</ele>
        <time>2019-09-06T13:32:27Z</time>
      </trkpt>
      <trkpt lat="51.653991099447012" lon="5.156847154721618">
        <ele>1.21</ele>
        <time>2019-09-06T13:32:20Z</time>
      </trkpt>
      <trkpt lat="51.65402764454484" lon="5.156445745378733">
        <ele>-1.01</ele>
        <time>2019-09-06T13:32:11Z</time>
      </trkpt>
      <trkpt lat="51.654281951487064" lon="5.155807798728347">
        <ele>-0.9</ele>
        <time>2019-09-06T13:31:58Z</time>
      </trkpt>
      <trkpt lat="51.654428215697408" lon="5.155467493459582">
        <ele>-0.83</ele>
        <time>2019-09-06T13:31:48Z</time>
      </trkpt>
      <trkpt lat="51.6546047385782" lon="5.155045464634895">
        <ele>-0.67</ele>
        <time>2019-09-06T13:31:35Z</time>
      </trkpt>
      <trkpt lat="51.654634410515428" lon="5.154956113547087">
        <ele>-0.6</ele>
        <time>2019-09-06T13:31:30Z</time>
      </trkpt>
      <trkpt lat="51.654694676399231" lon="5.154764000326395">
        <ele>-0.5</ele>
        <time>2019-09-06T13:31:21Z</time>
      </trkpt>
      <trkpt lat="51.654713116586208" lon="5.154638774693012">
        <ele>-0.39</ele>
        <time>2019-09-06T13:31:13Z</time>
      </trkpt>
      <trkpt lat="51.654504742473364" lon="5.154363261535764">
        <ele>-0.13</ele>
        <time>2019-09-06T13:30:54Z</time>
      </trkpt>
      <trkpt lat="51.65419670753181" lon="5.154101410880685">
        <ele>0.32</ele>
        <time>2019-09-06T13:30:28Z</time>
      </trkpt>
      <trkpt lat="51.653943574056029" lon="5.153904352337122">
        <ele>0.56</ele>
        <time>2019-09-06T13:30:06Z</time>
      </trkpt>
      <trkpt lat="51.653751628473401" lon="5.153639735653997">
        <ele>0.87</ele>
        <time>2019-09-06T13:29:42Z</time>
      </trkpt>
      <trkpt lat="51.653581308200955" lon="5.153294820338488">
        <ele>1.1</ele>
        <time>2019-09-06T13:29:20Z</time>
      </trkpt>
      <trkpt lat="51.65335432626307" lon="5.15296557918191">
        <ele>1.33</ele>
        <time>2019-09-06T13:28:58Z</time>
      </trkpt>
      <trkpt lat="51.653270423412323" lon="5.152809843420982">
        <ele>1.38</ele>
        <time>2019-09-06T13:28:46Z</time>
      </trkpt>
      <trkpt lat="51.653260365128517" lon="5.152757037431002">
        <ele>1.39</ele>
        <time>2019-09-06T13:28:44Z</time>
      </trkpt>
      <trkpt lat="51.653279224410653" lon="5.152610773220658">
        <ele>1.41</ele>
        <time>2019-09-06T13:28:38Z</time>
      </trkpt>
      <trkpt lat="51.653361450880766" lon="5.152309946715832">
        <ele>1.48</ele>
        <time>2019-09-06T13:28:25Z</time>
      </trkpt>
      <trkpt lat="51.653383411467075" lon="5.152228306978941">
        <ele>1.51</ele>
        <time>2019-09-06T13:28:21Z</time>
      </trkpt>
      <trkpt lat="51.653398247435689" lon="5.15212269499898">
        <ele>1.52</ele>
        <time>2019-09-06T13:28:16Z</time>
      </trkpt>
      <trkpt lat="51.653401600196958" lon="5.152081539854407">
        <ele>1.53</ele>
        <time>2019-09-06T13:28:14Z</time>
      </trkpt>
      <trkpt lat="51.653537973761559" lon="5.151003627106547">
        <ele>1.67</ele>
        <time>2019-09-06T13:28:06Z</time>
      </trkpt>
      <trkpt lat="51.653780462220311" lon="5.150700369849801">
        <ele>1.68</ele>
        <time>2019-09-06T13:28:05Z</time>
      </trkpt>
      <trkpt lat="51.654739268124104" lon="5.149306291714311">
        <ele>4.7</ele>
        <time>2019-09-06T13:19:18Z</time>
      </trkpt>
      <trkpt lat="51.654714625328779" lon="5.149265639483929">
        <ele>4.74</ele>
        <time>2019-09-06T13:19:15Z</time>
      </trkpt>
      <trkpt lat="51.654706075787544" lon="5.149248540401459">
        <ele>4.75</ele>
        <time>2019-09-06T13:19:14Z</time>
      </trkpt>
      <trkpt lat="51.654671374708414" lon="5.149121135473251">
        <ele>4.86</ele>
        <time>2019-09-06T13:19:07Z</time>
      </trkpt>
      <trkpt lat="51.654585041105747" lon="5.148854339495301">
        <ele>5.04</ele>
        <time>2019-09-06T13:18:53Z</time>
      </trkpt>
      <trkpt lat="51.654538102447987" lon="5.148563990369439">
        <ele>5.22</ele>
        <time>2019-09-06T13:18:41Z</time>
      </trkpt>
      <trkpt lat="51.654529217630625" lon="5.148225696757436">
        <ele>5.48</ele>
        <time>2019-09-06T13:18:27Z</time>
      </trkpt>
      <trkpt lat="51.654531480744481" lon="5.147769134491682">
        <ele>5.82</ele>
        <time>2019-09-06T13:18:09Z</time>
      </trkpt>
      <trkpt lat="51.654517482966185" lon="5.147285163402557">
        <ele>6.22</ele>
        <time>2019-09-06T13:17:49Z</time>
      </trkpt>
      <trkpt lat="51.654523685574532" lon="5.146819883957505">
        <ele>6.67</ele>
        <time>2019-09-06T13:17:28Z</time>
      </trkpt>
      <trkpt lat="51.654517482966185" lon="5.146577479317784">
        <ele>6.94</ele>
        <time>2019-09-06T13:17:14Z</time>
      </trkpt>
      <trkpt lat="51.654527708888054" lon="5.146088898181915">
        <ele>7.29</ele>
        <time>2019-09-06T13:16:54Z</time>
      </trkpt>
      <trkpt lat="51.654558386653662" lon="5.145534351468086">
        <ele>7.67</ele>
        <time>2019-09-06T13:16:32Z</time>
      </trkpt>
      <trkpt lat="51.654565595090389" lon="5.144965639337897">
        <ele>8.01</ele>
        <time>2019-09-06T13:16:10Z</time>
      </trkpt>
      <trkpt lat="51.65457246825099" lon="5.144487284123898">
        <ele>8.26</ele>
        <time>2019-09-06T13:15:50Z</time>
      </trkpt>
      <trkpt lat="51.65454313158989" lon="5.143957044929266">
        <ele>8.52</ele>
        <time>2019-09-06T13:15:26Z</time>
      </trkpt>
      <trkpt lat="51.654510358348489" lon="5.143629228696227">
        <ele>8.699999999999999</ele>
        <time>2019-09-06T13:15:07Z</time>
      </trkpt>
      <trkpt lat="51.654490409418941" lon="5.143393278121948">
        <ele>8.789999999999999</ele>
        <time>2019-09-06T13:14:55Z</time>
      </trkpt>
      <trkpt lat="51.654495103284717" lon="5.143348434939981">
        <ele>8.810000000000001</ele>
        <time>2019-09-06T13:14:53Z</time>
      </trkpt>
      <trkpt lat="51.65450013242662" lon="5.143325049430132">
        <ele>8.810000000000001</ele>
        <time>2019-09-06T13:14:52Z</time>
      </trkpt>
      <trkpt lat="51.65453877300024" lon="5.143276937305927">
        <ele>8.85</ele>
        <time>2019-09-06T13:14:48Z</time>
      </trkpt>
      <trkpt lat="51.654752008616924" lon="5.143271740525961">
        <ele>8.98</ele>
        <time>2019-09-06T13:14:34Z</time>
      </trkpt>
      <trkpt lat="51.654928280040622" lon="5.143291354179382">
        <ele>9.08</ele>
        <time>2019-09-06T13:14:22Z</time>
      </trkpt>
      <trkpt lat="51.655104216188192" lon="5.143317254260182">
        <ele>9.17</ele>
        <time>2019-09-06T13:14:09Z</time>
      </trkpt>
      <trkpt lat="51.655267160385847" lon="5.143290180712938">
        <ele>9.279999999999999</ele>
        <time>2019-09-06T13:13:57Z</time>
      </trkpt>
      <trkpt lat="51.655282080173492" lon="5.143288420513272">
        <ele>9.26</ele>
        <time>2019-09-06T13:13:56Z</time>
      </trkpt>
      <trkpt lat="51.655297754332423" lon="5.143291857093573">
        <ele>9.27</ele>
        <time>2019-09-06T13:13:55Z</time>
      </trkpt>
      <trkpt lat="51.655350141227245" lon="5.143290935084224">
        <ele>9.300000000000001</ele>
        <time>2019-09-06T13:13:50Z</time>
      </trkpt>
      <trkpt lat="51.65561861358583" lon="5.14328196644783">
        <ele>9.41</ele>
        <time>2019-09-06T13:13:32Z</time>
      </trkpt>
      <trkpt lat="51.655666474252939" lon="5.143275260925293">
        <ele>7.17</ele>
        <time>2019-09-06T13:13:29Z</time>
      </trkpt>
      <trkpt lat="51.655848026275635" lon="5.143294036388397">
        <ele>7.22</ele>
        <time>2019-09-06T13:13:16Z</time>
      </trkpt>
      <trkpt lat="51.655861604958773" lon="5.143306190147996">
        <ele>7.22</ele>
        <time>2019-09-06T13:13:15Z</time>
      </trkpt>
      <trkpt lat="51.655883817002177" lon="5.143363522365689">
        <ele>7.22</ele>
        <time>2019-09-06T13:13:11Z</time>
      </trkpt>
      <trkpt lat="51.655985321849585" lon="5.143640460446477">
        <ele>7.29</ele>
        <time>2019-09-06T13:12:55Z</time>
      </trkpt>
      <trkpt lat="51.656007533892989" lon="5.14366359449923">
        <ele>9.619999999999999</ele>
        <time>2019-09-06T13:12:53Z</time>
      </trkpt>
      <trkpt lat="51.656018933281302" lon="5.143674993887544">
        <ele>9.630000000000001</ele>
        <time>2019-09-06T13:12:52Z</time>
      </trkpt>
      <trkpt lat="51.65604567155242" lon="5.143693685531616">
        <ele>5.48</ele>
        <time>2019-09-06T13:12:50Z</time>
      </trkpt>
      <trkpt lat="51.656209621578455" lon="5.143674910068512">
        <ele>8.539999999999999</ele>
        <time>2019-09-06T13:12:38Z</time>
      </trkpt>
      <trkpt lat="51.656413804739714" lon="5.143583295866847">
        <ele>8.560000000000001</ele>
        <time>2019-09-06T13:12:23Z</time>
      </trkpt>
      <trkpt lat="51.656605834141374" lon="5.143336281180382">
        <ele>8.59</ele>
        <time>2019-09-06T13:12:06Z</time>
      </trkpt>
      <trkpt lat="51.65659979917109" lon="5.142977451905608">
        <ele>8.630000000000001</ele>
        <time>2019-09-06T13:11:50Z</time>
      </trkpt>
      <trkpt lat="51.656550262123346" lon="5.14261401258409">
        <ele>8.67</ele>
        <time>2019-09-06T13:11:34Z</time>
      </trkpt>
      <trkpt lat="51.656510699540377" lon="5.142333973199129">
        <ele>8.699999999999999</ele>
        <time>2019-09-06T13:11:21Z</time>
      </trkpt>
      <trkpt lat="51.656502485275269" lon="5.142213609069586">
        <ele>8.710000000000001</ele>
        <time>2019-09-06T13:11:16Z</time>
      </trkpt>
      <trkpt lat="51.65645663626492" lon="5.14176819473505">
        <ele>8.76</ele>
        <time>2019-09-06T13:11:00Z</time>
      </trkpt>
      <trkpt lat="51.656455127522349" lon="5.141739612445235">
        <ele>8.75</ele>
        <time>2019-09-06T13:10:59Z</time>
      </trkpt>
      <trkpt lat="51.656454540789127" lon="5.141709018498659">
        <ele>8.75</ele>
        <time>2019-09-06T13:10:58Z</time>
      </trkpt>
      <trkpt lat="51.656452612951398" lon="5.141689656302333">
        <ele>8.76</ele>
        <time>2019-09-06T13:10:57Z</time>
      </trkpt>
      <trkpt lat="51.656453367322683" lon="5.141666941344738">
        <ele>8.76</ele>
        <time>2019-09-06T13:10:56Z</time>
      </trkpt>
      <trkpt lat="51.656409865245223" lon="5.141445491462946">
        <ele>8.789999999999999</ele>
        <time>2019-09-06T13:10:44Z</time>
      </trkpt>
      <trkpt lat="51.65636477060616" lon="5.141102755442262">
        <ele>8.82</ele>
        <time>2019-09-06T13:10:28Z</time>
      </trkpt>
      <trkpt lat="51.656332584097981" lon="5.140698412433267">
        <ele>8.859999999999999</ele>
        <time>2019-09-06T13:10:13Z</time>
      </trkpt>
      <trkpt lat="51.656269552186131" lon="5.14016842469573">
        <ele>8.94</ele>
        <time>2019-09-06T13:09:52Z</time>
      </trkpt>
      <trkpt lat="51.656264271587133" lon="5.140144620090723">
        <ele>8.94</ele>
        <time>2019-09-06T13:09:51Z</time>
      </trkpt>
      <trkpt lat="51.656238455325365" lon="5.140047892928124">
        <ele>8.960000000000001</ele>
        <time>2019-09-06T13:09:46Z</time>
      </trkpt>
      <trkpt lat="51.656203670427203" lon="5.139860305935144">
        <ele>9</ele>
        <time>2019-09-06T13:09:33Z</time>
      </trkpt>
      <trkpt lat="51.656225379556417" lon="5.139724519103766">
        <ele>9.029999999999999</ele>
        <time>2019-09-06T13:09:25Z</time>
      </trkpt>
      <trkpt lat="51.656250189989805" lon="5.139665845781565">
        <ele>9.050000000000001</ele>
        <time>2019-09-06T13:09:22Z</time>
      </trkpt>
      <trkpt lat="51.656261924654245" lon="5.139655619859695">
        <ele>9.050000000000001</ele>
        <time>2019-09-06T13:09:21Z</time>
      </trkpt>
      <trkpt lat="51.656444566324353" lon="5.139570375904441">
        <ele>9.07</ele>
        <time>2019-09-06T13:09:08Z</time>
      </trkpt>
      <trkpt lat="51.656511034816504" lon="5.139574985951185">
        <ele>9.08</ele>
        <time>2019-09-06T13:09:03Z</time>
      </trkpt>
      <trkpt lat="51.656681019812822" lon="5.139424782246351">
        <ele>9.09</ele>
        <time>2019-09-06T13:08:48Z</time>
      </trkpt>
      <trkpt lat="51.656899871304631" lon="5.139164188876748">
        <ele>9.119999999999999</ele>
        <time>2019-09-06T13:08:27Z</time>
      </trkpt>
      <trkpt lat="51.657080501317978" lon="5.139069641008973">
        <ele>9.17</ele>
        <time>2019-09-06T13:08:13Z</time>
      </trkpt>
      <trkpt lat="51.657090559601784" lon="5.139065785333514">
        <ele>9.17</ele>
        <time>2019-09-06T13:08:12Z</time>
      </trkpt>
      <trkpt lat="51.657101372256875" lon="5.139061510562897">
        <ele>9.18</ele>
        <time>2019-09-06T13:08:11Z</time>
      </trkpt>
      <trkpt lat="51.65711578913033" lon="5.139060169458389">
        <ele>9.18</ele>
        <time>2019-09-06T13:08:10Z</time>
      </trkpt>
      <trkpt lat="51.6571294516325" lon="5.139058660715818">
        <ele>9.19</ele>
        <time>2019-09-06T13:08:09Z</time>
      </trkpt>
      <trkpt lat="51.657144203782082" lon="5.139054134488106">
        <ele>9.19</ele>
        <time>2019-09-06T13:08:08Z</time>
      </trkpt>
      <trkpt lat="51.657155770808458" lon="5.139048350974917">
        <ele>9.19</ele>
        <time>2019-09-06T13:08:07Z</time>
      </trkpt>
      <trkpt lat="51.65716515854001" lon="5.139045333489776">
        <ele>9.19</ele>
        <time>2019-09-06T13:08:06Z</time>
      </trkpt>
      <trkpt lat="51.657311674207449" lon="5.139073077589274">
        <ele>9.220000000000001</ele>
        <time>2019-09-06T13:07:57Z</time>
      </trkpt>
      <trkpt lat="51.657515605911613" lon="5.139049021527171">
        <ele>9.26</ele>
        <time>2019-09-06T13:07:43Z</time>
      </trkpt>
      <trkpt lat="51.657528346404433" lon="5.139048770070076">
        <ele>9.26</ele>
        <time>2019-09-06T13:07:42Z</time>
      </trkpt>
      <trkpt lat="51.657541170716286" lon="5.139048434793949">
        <ele>9.26</ele>
        <time>2019-09-06T13:07:41Z</time>
      </trkpt>
      <trkpt lat="51.657716603949666" lon="5.138991270214319">
        <ele>9.279999999999999</ele>
        <time>2019-09-06T13:07:29Z</time>
      </trkpt>
      <trkpt lat="51.657730266451836" lon="5.138986492529512">
        <ele>9.279999999999999</ele>
        <time>2019-09-06T13:07:28Z</time>
      </trkpt>
      <trkpt lat="51.657745186239481" lon="5.138986660167575">
        <ele>9.279999999999999</ele>
        <time>2019-09-06T13:07:27Z</time>
      </trkpt>
      <trkpt lat="51.657942999154329" lon="5.138974841684103">
        <ele>9.32</ele>
        <time>2019-09-06T13:07:14Z</time>
      </trkpt>
      <trkpt lat="51.657959260046482" lon="5.138972327113152">
        <ele>9.32</ele>
        <time>2019-09-06T13:07:13Z</time>
      </trkpt>
      <trkpt lat="51.657973928377032" lon="5.138968219980598">
        <ele>9.32</ele>
        <time>2019-09-06T13:07:12Z</time>
      </trkpt>
      <trkpt lat="51.658236952498555" lon="5.138794714584947">
        <ele>9.35</ele>
        <time>2019-09-06T13:06:52Z</time>
      </trkpt>
      <trkpt lat="51.658373158425093" lon="5.138633949682117">
        <ele>9.4</ele>
        <time>2019-09-06T13:06:40Z</time>
      </trkpt>
      <trkpt lat="51.658564768731594" lon="5.138626489788294">
        <ele>9.44</ele>
        <time>2019-09-06T13:06:27Z</time>
      </trkpt>
      <trkpt lat="51.658872216939926" lon="5.13861115090549">
        <ele>9.51</ele>
        <time>2019-09-06T13:06:09Z</time>
      </trkpt>
      <trkpt lat="51.659236997365952" lon="5.138569157570601">
        <ele>7.62</ele>
        <time>2019-09-06T13:05:44Z</time>
      </trkpt>
      <trkpt lat="51.65960487909615" lon="5.138539485633373">
        <ele>7.74</ele>
        <time>2019-09-06T13:05:16Z</time>
      </trkpt>
      <trkpt lat="51.659653997048736" lon="5.138529678806663">
        <ele>10.31</ele>
        <time>2019-09-06T13:05:12Z</time>
      </trkpt>
      <trkpt lat="51.659826161339879" lon="5.138448793441057">
        <ele>9.18</ele>
        <time>2019-09-06T13:04:58Z</time>
      </trkpt>
      <trkpt lat="51.659837812185287" lon="5.138446865603328">
        <ele>9.199999999999999</ele>
        <time>2019-09-06T13:04:57Z</time>
      </trkpt>
      <trkpt lat="51.659850887954235" lon="5.138444351032376">
        <ele>9.220000000000001</ele>
        <time>2019-09-06T13:04:56Z</time>
      </trkpt>
      <trkpt lat="51.659872261807323" lon="5.138434963300824">
        <ele>9.220000000000001</ele>
        <time>2019-09-06T13:04:55Z</time>
      </trkpt>
      <trkpt lat="51.659886091947556" lon="5.138433873653412">
        <ele>9.24</ele>
        <time>2019-09-06T13:04:54Z</time>
      </trkpt>
      <trkpt lat="51.659906795248389" lon="5.138424569740892">
        <ele>9.25</ele>
        <time>2019-09-06T13:04:53Z</time>
      </trkpt>
      <trkpt lat="51.659922553226352" lon="5.138419456779957">
        <ele>9.26</ele>
        <time>2019-09-06T13:04:52Z</time>
      </trkpt>
      <trkpt lat="51.659960942342877" lon="5.138402273878455">
        <ele>9.32</ele>
        <time>2019-09-06T13:04:49Z</time>
      </trkpt>
      <trkpt lat="51.659978460520506" lon="5.138401016592979">
        <ele>9.33</ele>
        <time>2019-09-06T13:04:48Z</time>
      </trkpt>
      <trkpt lat="51.659994637593627" lon="5.138399172574282">
        <ele>9.33</ele>
        <time>2019-09-06T13:04:47Z</time>
      </trkpt>
      <trkpt lat="51.660010647028685" lon="5.138394227251411">
        <ele>9.359999999999999</ele>
        <time>2019-09-06T13:04:46Z</time>
      </trkpt>
      <trkpt lat="51.660026991739869" lon="5.138389868661761">
        <ele>9.359999999999999</ele>
        <time>2019-09-06T13:04:45Z</time>
      </trkpt>
      <trkpt lat="51.660041408613324" lon="5.138390706852078">
        <ele>9.380000000000001</ele>
        <time>2019-09-06T13:04:44Z</time>
      </trkpt>
      <trkpt lat="51.660060016438365" lon="5.138388024643064">
        <ele>9.41</ele>
        <time>2019-09-06T13:04:43Z</time>
      </trkpt>
      <trkpt lat="51.660077953711152" lon="5.138383582234383">
        <ele>9.41</ele>
        <time>2019-09-06T13:04:42Z</time>
      </trkpt>
      <trkpt lat="51.660133358091116" lon="5.138392467051745">
        <ele>9.470000000000001</ele>
        <time>2019-09-06T13:04:37Z</time>
      </trkpt>
      <trkpt lat="51.660152385011315" lon="5.138390120118856">
        <ele>9.49</ele>
        <time>2019-09-06T13:04:36Z</time>
      </trkpt>
      <trkpt lat="51.660287501290441" lon="5.13840839266777">
        <ele>9.58</ele>
        <time>2019-09-06T13:04:29Z</time>
      </trkpt>
      <trkpt lat="51.660612300038338" lon="5.138491038233042">
        <ele>9.91</ele>
        <time>2019-09-06T13:04:08Z</time>
      </trkpt>
      <trkpt lat="51.660971464589238" lon="5.138536635786295">
        <ele>10.25</ele>
        <time>2019-09-06T13:03:45Z</time>
      </trkpt>
      <trkpt lat="51.661193836480379" lon="5.138495061546564">
        <ele>10.460000000000001</ele>
        <time>2019-09-06T13:03:31Z</time>
      </trkpt>
      <trkpt lat="51.661204481497407" lon="5.138487601652741">
        <ele>10.48</ele>
        <time>2019-09-06T13:03:30Z</time>
      </trkpt>
      <trkpt lat="51.661217054352164" lon="5.138486428186297">
        <ele>10.49</ele>
        <time>2019-09-06T13:03:29Z</time>
      </trkpt>
      <trkpt lat="51.661227867007256" lon="5.138485170900822">
        <ele>10.51</ele>
        <time>2019-09-06T13:03:28Z</time>
      </trkpt>
      <trkpt lat="51.661258209496737" lon="5.138485254719853">
        <ele>10.56</ele>
        <time>2019-09-06T13:03:25Z</time>
      </trkpt>
      <trkpt lat="51.661570267751813" lon="5.13836145401001">
        <ele>10.869999999999999</ele>
        <time>2019-09-06T13:03:03Z</time>
      </trkpt>
      <trkpt lat="51.66190872900188" lon="5.138252573087812">
        <ele>11.199999999999999</ele>
        <time>2019-09-06T13:02:39Z</time>
      </trkpt>
      <trkpt lat="51.662481967359781" lon="5.138177052140236">
        <ele>11.699999999999999</ele>
        <time>2019-09-06T13:01:54Z</time>
      </trkpt>
      <trkpt lat="51.662752367556095" lon="5.138114774599671">
        <ele>11.91</ele>
        <time>2019-09-06T13:01:32Z</time>
      </trkpt>
      <trkpt lat="51.663123434409499" lon="5.138047635555267">
        <ele>11.33</ele>
        <time>2019-09-06T13:01:07Z</time>
      </trkpt>
      <trkpt lat="51.663283528760076" lon="5.138010755181313">
        <ele>11.49</ele>
        <time>2019-09-06T13:00:53Z</time>
      </trkpt>
      <trkpt lat="51.663298616185784" lon="5.138005809858441">
        <ele>11.51</ele>
        <time>2019-09-06T13:00:52Z</time>
      </trkpt>
      <trkpt lat="51.663313703611493" lon="5.138001535087824">
        <ele>11.52</ele>
        <time>2019-09-06T13:00:51Z</time>
      </trkpt>
      <trkpt lat="51.663328288123012" lon="5.137999020516872">
        <ele>11.52</ele>
        <time>2019-09-06T13:00:50Z</time>
      </trkpt>
      <trkpt lat="51.663341615349054" lon="5.137994578108192">
        <ele>11.52</ele>
        <time>2019-09-06T13:00:49Z</time>
      </trkpt>
      <trkpt lat="51.663356367498636" lon="5.137992985546589">
        <ele>11.529999999999999</ele>
        <time>2019-09-06T13:00:48Z</time>
      </trkpt>
      <trkpt lat="51.663560634478927" lon="5.137855187058449">
        <ele>11.710000000000001</ele>
        <time>2019-09-06T13:00:34Z</time>
      </trkpt>
      <trkpt lat="51.663660295307636" lon="5.137489987537265">
        <ele>-32.520000000000003</ele>
        <time>2019-09-06T11:33:09Z</time>
      </trkpt>
      <trkpt lat="51.663659624755383" lon="5.137474983930588">
        <ele>-28.850000000000001</ele>
        <time>2019-09-06T11:32:50Z</time>
      </trkpt>
      <trkpt lat="51.663657864555717" lon="5.137489819899201">
        <ele>-28.530000000000001</ele>
        <time>2019-09-06T11:32:23Z</time>
      </trkpt>
      <trkpt lat="51.663672113791108" lon="5.137407258152962">
        <ele>-28.260000000000002</ele>
        <time>2019-09-06T11:32:02Z</time>
      </trkpt>
      <trkpt lat="51.66368049569428" lon="5.137407928705216">
        <ele>-28.239999999999998</ele>
        <time>2019-09-06T11:32:01Z</time>
      </trkpt>
      <trkpt lat="51.663676304742694" lon="5.137406336143613">
        <ele>-31.789999999999999</ele>
        <time>2019-09-06T11:32:00Z</time>
      </trkpt>
      <trkpt lat="51.663672616705298" lon="5.137411365285516">
        <ele>-40.5</ele>
        <time>2019-09-06T11:31:59Z</time>
      </trkpt>
      <trkpt lat="51.663674460723996" lon="5.137410275638104">
        <ele>-37.57</ele>
        <time>2019-09-06T11:31:57Z</time>
      </trkpt>
      <trkpt lat="51.663693068549037" lon="5.13737540692091">
        <ele>-28.309999999999999</ele>
        <time>2019-09-06T11:31:33Z</time>
      </trkpt>
      <trkpt lat="51.663759285584092" lon="5.137359229847789">
        <ele>-27.379999999999999</ele>
        <time>2019-09-06T11:30:46Z</time>
      </trkpt>
      <trkpt lat="51.663777977228165" lon="5.137270130217075">
        <ele>-26.59</ele>
        <time>2019-09-06T11:30:17Z</time>
      </trkpt>
      <trkpt lat="51.663833968341351" lon="5.137187233194709">
        <ele>-25.460000000000001</ele>
        <time>2019-09-06T11:29:42Z</time>
      </trkpt>
      <trkpt lat="51.663997331634164" lon="5.136924376711249">
        <ele>-23.859999999999999</ele>
        <time>2019-09-06T11:29:01Z</time>
      </trkpt>
      <trkpt lat="51.664584735408425" lon="5.136085180565715">
        <ele>-21.609999999999999</ele>
        <time>2019-09-06T11:28:01Z</time>
      </trkpt>
      <trkpt lat="51.664632512256503" lon="5.136099010705948">
        <ele>-21.579999999999998</ele>
        <time>2019-09-06T11:28:00Z</time>
      </trkpt>
      <trkpt lat="51.664698058739305" lon="5.136123904958367">
        <ele>-21.510000000000002</ele>
        <time>2019-09-06T11:27:59Z</time>
      </trkpt>
      <trkpt lat="51.664747092872858" lon="5.136143770068884">
        <ele>-21.48</ele>
        <time>2019-09-06T11:27:58Z</time>
      </trkpt>
      <trkpt lat="51.664825296029449" lon="5.136131281033158">
        <ele>-21.370000000000001</ele>
        <time>2019-09-06T11:27:55Z</time>
      </trkpt>
      <trkpt lat="51.665119752287865" lon="5.136083671823144">
        <ele>-23.359999999999999</ele>
        <time>2019-09-06T11:27:46Z</time>
      </trkpt>
      <trkpt lat="51.665150765329599" lon="5.136071182787418">
        <ele>-23.350000000000001</ele>
        <time>2019-09-06T11:27:45Z</time>
      </trkpt>
      <trkpt lat="51.665173145011067" lon="5.136066237464547">
        <ele>-23.34</ele>
        <time>2019-09-06T11:27:44Z</time>
      </trkpt>
      <trkpt lat="51.665276577696204" lon="5.136073278263211">
        <ele>-23.18</ele>
        <time>2019-09-06T11:27:40Z</time>
      </trkpt>
      <trkpt lat="51.665497859939933" lon="5.136141674593091">
        <ele>-22.91</ele>
        <time>2019-09-06T11:27:30Z</time>
      </trkpt>
      <trkpt lat="51.665520155802369" lon="5.136156929656863">
        <ele>-22.879999999999999</ele>
        <time>2019-09-06T11:27:29Z</time>
      </trkpt>
      <trkpt lat="51.665561981499195" lon="5.136188780888915">
        <ele>-22.850000000000001</ele>
        <time>2019-09-06T11:27:28Z</time>
      </trkpt>
      <trkpt lat="51.665587881579995" lon="5.136186182498932">
        <ele>-22.82</ele>
        <time>2019-09-06T11:27:27Z</time>
      </trkpt>
      <trkpt lat="51.665774965658784" lon="5.136235635727644">
        <ele>-22.699999999999999</ele>
        <time>2019-09-06T11:27:23Z</time>
      </trkpt>
      <trkpt lat="51.666084174066782" lon="5.136401345953345">
        <ele>-22.420000000000002</ele>
        <time>2019-09-06T11:27:12Z</time>
      </trkpt>
      <trkpt lat="51.666105715557933" lon="5.136407716199756">
        <ele>-22.390000000000001</ele>
        <time>2019-09-06T11:27:11Z</time>
      </trkpt>
      <trkpt lat="51.666124491021037" lon="5.136414170265198">
        <ele>-22.359999999999999</ele>
        <time>2019-09-06T11:27:10Z</time>
      </trkpt>
      <trkpt lat="51.666239826008677" lon="5.136486338451505">
        <ele>-22.25</ele>
        <time>2019-09-06T11:27:05Z</time>
      </trkpt>
      <trkpt lat="51.666251141577959" lon="5.13648902066052">
        <ele>-22.23</ele>
        <time>2019-09-06T11:27:04Z</time>
      </trkpt>
      <trkpt lat="51.666291542351246" lon="5.136597231030464">
        <ele>-22.129999999999999</ele>
        <time>2019-09-06T11:27:01Z</time>
      </trkpt>
      <trkpt lat="51.66630981490016" lon="5.136617179960012">
        <ele>-22.09</ele>
        <time>2019-09-06T11:27:00Z</time>
      </trkpt>
      <trkpt lat="51.666323561221361" lon="5.136659927666187">
        <ele>-22.09</ele>
        <time>2019-09-06T11:26:59Z</time>
      </trkpt>
      <trkpt lat="51.666342671960592" lon="5.136697646230459">
        <ele>-22.050000000000001</ele>
        <time>2019-09-06T11:26:58Z</time>
      </trkpt>
      <trkpt lat="51.666381815448403" lon="5.136725977063179">
        <ele>-22.030000000000001</ele>
        <time>2019-09-06T11:26:57Z</time>
      </trkpt>
      <trkpt lat="51.666437722742558" lon="5.136743998154998">
        <ele>-22</ele>
        <time>2019-09-06T11:26:56Z</time>
      </trkpt>
      <trkpt lat="51.666475189849734" lon="5.136786745861173">
        <ele>-21.989999999999998</ele>
        <time>2019-09-06T11:26:55Z</time>
      </trkpt>
      <trkpt lat="51.666507460176945" lon="5.136838378384709">
        <ele>-21.969999999999999</ele>
        <time>2019-09-06T11:26:54Z</time>
      </trkpt>
      <trkpt lat="51.66654291562736" lon="5.136864362284541">
        <ele>-21.960000000000001</ele>
        <time>2019-09-06T11:26:53Z</time>
      </trkpt>
      <trkpt lat="51.666567223146558" lon="5.136897973716259">
        <ele>-21.940000000000001</ele>
        <time>2019-09-06T11:26:52Z</time>
      </trkpt>
      <trkpt lat="51.666583064943552" lon="5.136913731694222">
        <ele>-21.920000000000002</ele>
        <time>2019-09-06T11:26:51Z</time>
      </trkpt>
      <trkpt lat="51.666610138490796" lon="5.136943822726607">
        <ele>-21.890000000000001</ele>
        <time>2019-09-06T11:26:50Z</time>
      </trkpt>
      <trkpt lat="51.666691694408655" lon="5.137006770819426">
        <ele>-21.829999999999998</ele>
        <time>2019-09-06T11:26:47Z</time>
      </trkpt>
      <trkpt lat="51.667075753211975" lon="5.137085309252143">
        <ele>-21.600000000000001</ele>
        <time>2019-09-06T11:26:36Z</time>
      </trkpt>
      <trkpt lat="51.667296783998609" lon="5.137121016159654">
        <ele>-21.41</ele>
        <time>2019-09-06T11:26:25Z</time>
      </trkpt>
      <trkpt lat="51.667593838647008" lon="5.137373059988022">
        <ele>-21.27</ele>
        <time>2019-09-06T11:26:13Z</time>
      </trkpt>
      <trkpt lat="51.667617810890079" lon="5.137404492124915">
        <ele>-21.27</ele>
        <time>2019-09-06T11:26:12Z</time>
      </trkpt>
      <trkpt lat="51.667647985741496" lon="5.137420753017068">
        <ele>-21.25</ele>
        <time>2019-09-06T11:26:11Z</time>
      </trkpt>
      <trkpt lat="51.667963229119778" lon="5.137720741331577">
        <ele>-21.120000000000001</ele>
        <time>2019-09-06T11:25:59Z</time>
      </trkpt>
      <trkpt lat="51.668211668729782" lon="5.137889636680484">
        <ele>-21</ele>
        <time>2019-09-06T11:25:46Z</time>
      </trkpt>
      <trkpt lat="51.668286100029945" lon="5.137955015525222">
        <ele>-20.949999999999999</ele>
        <time>2019-09-06T11:25:40Z</time>
      </trkpt>
      <trkpt lat="51.668306300416589" lon="5.138042103499174">
        <ele>-20.890000000000001</ele>
        <time>2019-09-06T11:25:37Z</time>
      </trkpt>
      <trkpt lat="51.668308982625604" lon="5.13836832717061">
        <ele>-20.739999999999998</ele>
        <time>2019-09-06T11:25:23Z</time>
      </trkpt>
      <trkpt lat="51.668316107243299" lon="5.138461198657751">
        <ele>-20.649999999999999</ele>
        <time>2019-09-06T11:25:12Z</time>
      </trkpt>
      <trkpt lat="51.668351897969842" lon="5.13850168325007">
        <ele>-20.609999999999999</ele>
        <time>2019-09-06T11:25:09Z</time>
      </trkpt>
      <trkpt lat="51.668456252664328" lon="5.138785494491458">
        <ele>-20.5</ele>
        <time>2019-09-06T11:24:57Z</time>
      </trkpt>
      <trkpt lat="51.668474189937115" lon="5.138836288824678">
        <ele>-20.48</ele>
        <time>2019-09-06T11:24:56Z</time>
      </trkpt>
      <trkpt lat="51.668493719771504" lon="5.138913234695792">
        <ele>-20.449999999999999</ele>
        <time>2019-09-06T11:24:55Z</time>
      </trkpt>
      <trkpt lat="51.66851551271975" lon="5.138997221365571">
        <ele>-20.41</ele>
        <time>2019-09-06T11:24:54Z</time>
      </trkpt>
      <trkpt lat="51.668532192707062" lon="5.139064863324165">
        <ele>-20.399999999999999</ele>
        <time>2019-09-06T11:24:53Z</time>
      </trkpt>
      <trkpt lat="51.668541496619582" lon="5.139162847772241">
        <ele>-20.379999999999999</ele>
        <time>2019-09-06T11:24:52Z</time>
      </trkpt>
      <trkpt lat="51.668542502447963" lon="5.139242224395275">
        <ele>-20.390000000000001</ele>
        <time>2019-09-06T11:24:51Z</time>
      </trkpt>
      <trkpt lat="51.668542250990868" lon="5.13930793851614">
        <ele>-20.359999999999999</ele>
        <time>2019-09-06T11:24:50Z</time>
      </trkpt>
      <trkpt lat="51.668530432507396" lon="5.13940567150712">
        <ele>-20.329999999999998</ele>
        <time>2019-09-06T11:24:49Z</time>
      </trkpt>
      <trkpt lat="51.668520709499717" lon="5.13951413333416">
        <ele>-20.32</ele>
        <time>2019-09-06T11:24:48Z</time>
      </trkpt>
      <trkpt lat="51.66851207613945" lon="5.139632150530815">
        <ele>-20.309999999999999</ele>
        <time>2019-09-06T11:24:47Z</time>
      </trkpt>
      <trkpt lat="51.668500928208232" lon="5.13974572531879">
        <ele>-19.550000000000001</ele>
        <time>2019-09-06T11:24:46Z</time>
      </trkpt>
      <trkpt lat="51.668480476364493" lon="5.139864748343825">
        <ele>-19.52</ele>
        <time>2019-09-06T11:24:45Z</time>
      </trkpt>
      <trkpt lat="51.668462874367833" lon="5.139949740841985">
        <ele>-19.52</ele>
        <time>2019-09-06T11:24:44Z</time>
      </trkpt>
      <trkpt lat="51.668452983722091" lon="5.140149565413594">
        <ele>-19.489999999999998</ele>
        <time>2019-09-06T11:24:42Z</time>
      </trkpt>
      <trkpt lat="51.668470669537783" lon="5.140275210142136">
        <ele>-19.469999999999999</ele>
        <time>2019-09-06T11:24:41Z</time>
      </trkpt>
      <trkpt lat="51.668430101126432" lon="5.141409952193499">
        <ele>-19.379999999999999</ele>
        <time>2019-09-06T11:24:31Z</time>
      </trkpt>
      <trkpt lat="51.668421300128102" lon="5.141675574705005">
        <ele>-19.359999999999999</ele>
        <time>2019-09-06T11:24:29Z</time>
      </trkpt>
      <trkpt lat="51.66840604506433" lon="5.141783030703664">
        <ele>-19.34</ele>
        <time>2019-09-06T11:24:28Z</time>
      </trkpt>
      <trkpt lat="51.668404871597886" lon="5.142125431448221">
        <ele>-19.289999999999999</ele>
        <time>2019-09-06T11:24:25Z</time>
      </trkpt>
      <trkpt lat="51.668403279036283" lon="5.142298266291618">
        <ele>-19.260000000000002</ele>
        <time>2019-09-06T11:24:23Z</time>
      </trkpt>
      <trkpt lat="51.668400429189205" lon="5.142369009554386">
        <ele>-19.260000000000002</ele>
        <time>2019-09-06T11:24:22Z</time>
      </trkpt>
      <trkpt lat="51.668374529108405" lon="5.143169648945332">
        <ele>-19.109999999999999</ele>
        <time>2019-09-06T11:24:05Z</time>
      </trkpt>
      <trkpt lat="51.668371427804232" lon="5.143190938979387">
        <ele>-19.109999999999999</ele>
        <time>2019-09-06T11:24:04Z</time>
      </trkpt>
      <trkpt lat="51.668306048959494" lon="5.143678765743971">
        <ele>-19.02</ele>
        <time>2019-09-06T11:23:43Z</time>
      </trkpt>
      <trkpt lat="51.668265145272017" lon="5.144118899479508">
        <ele>-18.93</ele>
        <time>2019-09-06T11:23:20Z</time>
      </trkpt>
      <trkpt lat="51.668358100578189" lon="5.144646875560284">
        <ele>-16.620000000000001</ele>
        <time>2019-09-06T11:22:34Z</time>
      </trkpt>
      <trkpt lat="51.668501850217581" lon="5.144675793126226">
        <ele>-16.629999999999999</ele>
        <time>2019-09-06T11:22:20Z</time>
      </trkpt>
      <trkpt lat="51.668659094721079" lon="5.144733544439077">
        <ele>-16.649999999999999</ele>
        <time>2019-09-06T11:22:07Z</time>
      </trkpt>
      <trkpt lat="51.668955478817225" lon="5.144776878878474">
        <ele>-16.510000000000002</ele>
        <time>2019-09-06T11:21:45Z</time>
      </trkpt>
      <trkpt lat="51.669004932045937" lon="5.144813004881144">
        <ele>-16.510000000000002</ele>
        <time>2019-09-06T11:21:44Z</time>
      </trkpt>
      <trkpt lat="51.669096546247602" lon="5.144807724282146">
        <ele>-16.52</ele>
        <time>2019-09-06T11:21:39Z</time>
      </trkpt>
      <trkpt lat="51.669100234284997" lon="5.145424967631698">
        <ele>-16.449999999999999</ele>
        <time>2019-09-06T11:21:19Z</time>
      </trkpt>
      <trkpt lat="51.669115656986833" lon="5.145819503813982">
        <ele>-16.399999999999999</ele>
        <time>2019-09-06T11:21:06Z</time>
      </trkpt>
      <trkpt lat="51.669135270640254" lon="5.14621370472014">
        <ele>-16.370000000000001</ele>
        <time>2019-09-06T11:20:57Z</time>
      </trkpt>
      <trkpt lat="51.669111968949437" lon="5.146603295579553">
        <ele>-16.329999999999998</ele>
        <time>2019-09-06T11:20:46Z</time>
      </trkpt>
      <trkpt lat="51.669117584824562" lon="5.146725503727794">
        <ele>-16.300000000000001</ele>
        <time>2019-09-06T11:20:42Z</time>
      </trkpt>
      <trkpt lat="51.669110292568803" lon="5.147302346304059">
        <ele>-16.16</ele>
        <time>2019-09-06T11:20:30Z</time>
      </trkpt>
      <trkpt lat="51.669082213193178" lon="5.147897126153112">
        <ele>-16.27</ele>
        <time>2019-09-06T11:20:18Z</time>
      </trkpt>
      <trkpt lat="51.669070729985833" lon="5.148559967055917">
        <ele>-16.18</ele>
        <time>2019-09-06T11:20:05Z</time>
      </trkpt>
      <trkpt lat="51.669066036120057" lon="5.149243175983429">
        <ele>-16.18</ele>
        <time>2019-09-06T11:19:53Z</time>
      </trkpt>
      <trkpt lat="51.669064275920391" lon="5.149992266669869">
        <ele>-16.039999999999999</ele>
        <time>2019-09-06T11:19:40Z</time>
      </trkpt>
      <trkpt lat="51.669062934815884" lon="5.150111122056842">
        <ele>-18.5</ele>
        <time>2019-09-06T11:19:38Z</time>
      </trkpt>
      <trkpt lat="51.669082632288337" lon="5.150891980156303">
        <ele>-18.34</ele>
        <time>2019-09-06T11:19:25Z</time>
      </trkpt>
      <trkpt lat="51.66907056234777" lon="5.151719273999333">
        <ele>-18.280000000000001</ele>
        <time>2019-09-06T11:19:12Z</time>
      </trkpt>
      <trkpt lat="51.669081458821893" lon="5.151941226795316">
        <ele>-15.710000000000001</ele>
        <time>2019-09-06T11:19:08Z</time>
      </trkpt>
      <trkpt lat="51.669098976999521" lon="5.15274622477591">
        <ele>-15.49</ele>
        <time>2019-09-06T11:18:54Z</time>
      </trkpt>
      <trkpt lat="51.669103754684329" lon="5.152801042422652">
        <ele>-15.449999999999999</ele>
        <time>2019-09-06T11:18:53Z</time>
      </trkpt>
      <trkpt lat="51.669107107445598" lon="5.1528659183532">
        <ele>-15.460000000000001</ele>
        <time>2019-09-06T11:18:52Z</time>
      </trkpt>
      <trkpt lat="51.669103251770139" lon="5.152918891981244">
        <ele>-15.43</ele>
        <time>2019-09-06T11:18:51Z</time>
      </trkpt>
      <trkpt lat="51.669096043333411" lon="5.152961974963546">
        <ele>-15.41</ele>
        <time>2019-09-06T11:18:50Z</time>
      </trkpt>
      <trkpt lat="51.669083219021559" lon="5.153051828965545">
        <ele>-15.4</ele>
        <time>2019-09-06T11:18:49Z</time>
      </trkpt>
      <trkpt lat="51.669073076918721" lon="5.153197422623634">
        <ele>-15.359999999999999</ele>
        <time>2019-09-06T11:18:46Z</time>
      </trkpt>
      <trkpt lat="51.669070981442928" lon="5.15325634740293">
        <ele>-15.369999999999999</ele>
        <time>2019-09-06T11:18:45Z</time>
      </trkpt>
      <trkpt lat="51.669074585661292" lon="5.153324995189905">
        <ele>-15.390000000000001</ele>
        <time>2019-09-06T11:18:44Z</time>
      </trkpt>
      <trkpt lat="51.669081039726734" lon="5.153379058465362">
        <ele>-15.369999999999999</ele>
        <time>2019-09-06T11:18:43Z</time>
      </trkpt>
      <trkpt lat="51.669088751077652" lon="5.153440497815609">
        <ele>-15.31</ele>
        <time>2019-09-06T11:18:42Z</time>
      </trkpt>
      <trkpt lat="51.669082967564464" lon="5.153565220534802">
        <ele>-15.289999999999999</ele>
        <time>2019-09-06T11:18:41Z</time>
      </trkpt>
      <trkpt lat="51.669083805754781" lon="5.153640909120441">
        <ele>-15.26</ele>
        <time>2019-09-06T11:18:40Z</time>
      </trkpt>
      <trkpt lat="51.66907642967999" lon="5.153733612969518">
        <ele>-15.24</ele>
        <time>2019-09-06T11:18:39Z</time>
      </trkpt>
      <trkpt lat="51.669070646166801" lon="5.153813157230616">
        <ele>-15.220000000000001</ele>
        <time>2019-09-06T11:18:38Z</time>
      </trkpt>
      <trkpt lat="51.669065533205867" lon="5.153900496661663">
        <ele>-15.210000000000001</ele>
        <time>2019-09-06T11:18:37Z</time>
      </trkpt>
      <trkpt lat="51.669072322547436" lon="5.153982471674681">
        <ele>-15.19</ele>
        <time>2019-09-06T11:18:36Z</time>
      </trkpt>
      <trkpt lat="51.669078106060624" lon="5.154078863561153">
        <ele>-15.17</ele>
        <time>2019-09-06T11:18:34Z</time>
      </trkpt>
      <trkpt lat="51.669081291183829" lon="5.154116079211235">
        <ele>-15.140000000000001</ele>
        <time>2019-09-06T11:18:33Z</time>
      </trkpt>
      <trkpt lat="51.669083219021559" lon="5.154157066717744">
        <ele>-15.140000000000001</ele>
        <time>2019-09-06T11:18:32Z</time>
      </trkpt>
      <trkpt lat="51.669079698622227" lon="5.154203586280346">
        <ele>-15.140000000000001</ele>
        <time>2019-09-06T11:18:31Z</time>
      </trkpt>
      <trkpt lat="51.669078273698688" lon="5.154233928769827">
        <ele>-15.119999999999999</ele>
        <time>2019-09-06T11:18:30Z</time>
      </trkpt>
      <trkpt lat="51.669074334204197" lon="5.15426242724061">
        <ele>-15.1</ele>
        <time>2019-09-06T11:18:29Z</time>
      </trkpt>
      <trkpt lat="51.669065784662962" lon="5.154305174946785">
        <ele>-15.09</ele>
        <time>2019-09-06T11:18:28Z</time>
      </trkpt>
      <trkpt lat="51.669069556519389" lon="5.15433618798852">
        <ele>-15.08</ele>
        <time>2019-09-06T11:18:27Z</time>
      </trkpt>
      <trkpt lat="51.66904860176146" lon="5.15489031560719">
        <ele>-14.91</ele>
        <time>2019-09-06T11:18:16Z</time>
      </trkpt>
      <trkpt lat="51.66906176134944" lon="5.155427511781454">
        <ele>-14.76</ele>
        <time>2019-09-06T11:18:04Z</time>
      </trkpt>
      <trkpt lat="51.66902462951839" lon="5.155916344374418">
        <ele>-14.720000000000001</ele>
        <time>2019-09-06T11:17:52Z</time>
      </trkpt>
      <trkpt lat="51.66901733726263" lon="5.156372739002109">
        <ele>-14.609999999999999</ele>
        <time>2019-09-06T11:17:36Z</time>
      </trkpt>
      <trkpt lat="51.669021109119058" lon="5.15672511421144">
        <ele>-14.42</ele>
        <time>2019-09-06T11:17:19Z</time>
      </trkpt>
      <trkpt lat="51.669038627296686" lon="5.156994760036469">
        <ele>-14.26</ele>
        <time>2019-09-06T11:16:59Z</time>
      </trkpt>
      <trkpt lat="51.669055391103029" lon="5.157050164416432">
        <ele>-14.199999999999999</ele>
        <time>2019-09-06T11:16:54Z</time>
      </trkpt>
      <trkpt lat="51.669066036120057" lon="5.157047985121608">
        <ele>-14.19</ele>
        <time>2019-09-06T11:16:53Z</time>
      </trkpt>
      <trkpt lat="51.669071735814214" lon="5.157048990949988">
        <ele>-14.18</ele>
        <time>2019-09-06T11:16:52Z</time>
      </trkpt>
      <trkpt lat="51.669080201536417" lon="5.15705251134932">
        <ele>-14.17</ele>
        <time>2019-09-06T11:16:51Z</time>
      </trkpt>
      <trkpt lat="51.669090846553445" lon="5.157055864110589">
        <ele>-14.17</ele>
        <time>2019-09-06T11:16:50Z</time>
      </trkpt>
      <trkpt lat="51.669107861816883" lon="5.157065419480205">
        <ele>-14.16</ele>
        <time>2019-09-06T11:16:49Z</time>
      </trkpt>
      <trkpt lat="51.669119764119387" lon="5.157073130831122">
        <ele>-14.16</ele>
        <time>2019-09-06T11:16:48Z</time>
      </trkpt>
      <trkpt lat="51.669130828231573" lon="5.157073549926281">
        <ele>-23.079999999999998</ele>
        <time>2019-09-06T11:16:47Z</time>
      </trkpt>
      <trkpt lat="51.669306848198175" lon="5.15709551051259">
        <ele>-17.489999999999998</ele>
        <time>2019-09-06T11:16:27Z</time>
      </trkpt>
      <trkpt lat="51.669356385245919" lon="5.157209755852819">
        <ele>-18.449999999999999</ele>
        <time>2019-09-06T11:16:22Z</time>
      </trkpt>
      <trkpt lat="51.669416064396501" lon="5.157336993142963">
        <ele>-18.449999999999999</ele>
        <time>2019-09-06T11:16:14Z</time>
      </trkpt>
      <trkpt lat="51.669573225080967" lon="5.157539835199714">
        <ele>-18.43</ele>
        <time>2019-09-06T11:15:59Z</time>
      </trkpt>
      <trkpt lat="51.669746059924364" lon="5.157665899023414">
        <ele>-18.309999999999999</ele>
        <time>2019-09-06T11:15:40Z</time>
      </trkpt>
      <trkpt lat="51.670021656900644" lon="5.157782826572657">
        <ele>-19.170000000000002</ele>
        <time>2019-09-06T11:15:21Z</time>
      </trkpt>
      <trkpt lat="51.670328183099627" lon="5.157814845442772">
        <ele>-19.079999999999998</ele>
        <time>2019-09-06T11:14:56Z</time>
      </trkpt>
      <trkpt lat="51.670655999332666" lon="5.157825909554958">
        <ele>-19.219999999999999</ele>
        <time>2019-09-06T11:14:29Z</time>
      </trkpt>
      <trkpt lat="51.6708252299577" lon="5.157792465761304">
        <ele>-19.25</ele>
        <time>2019-09-06T11:14:15Z</time>
      </trkpt>
      <trkpt lat="51.670840568840504" lon="5.157791711390019">
        <ele>-19.25</ele>
        <time>2019-09-06T11:14:14Z</time>
      </trkpt>
      <trkpt lat="51.670855907723308" lon="5.157791459932923">
        <ele>-19.27</ele>
        <time>2019-09-06T11:14:13Z</time>
      </trkpt>
      <trkpt lat="51.670869570225477" lon="5.157787604257464">
        <ele>-19.27</ele>
        <time>2019-09-06T11:14:12Z</time>
      </trkpt>
      <trkpt lat="51.670881723985076" lon="5.157780731096864">
        <ele>-19.27</ele>
        <time>2019-09-06T11:14:11Z</time>
      </trkpt>
      <trkpt lat="51.67089463211596" lon="5.157774360850453">
        <ele>-19.280000000000001</ele>
        <time>2019-09-06T11:14:10Z</time>
      </trkpt>
      <trkpt lat="51.670905277132988" lon="5.157764637842774">
        <ele>-19.280000000000001</ele>
        <time>2019-09-06T11:14:09Z</time>
      </trkpt>
      <trkpt lat="51.67083160020411" lon="5.157456267625094">
        <ele>-20.920000000000002</ele>
        <time>2019-09-06T11:10:12Z</time>
      </trkpt>
      <trkpt lat="51.671061012893915" lon="5.157102718949318">
        <ele>-19.5</ele>
        <time>2019-09-06T11:08:59Z</time>
      </trkpt>
      <trkpt lat="51.671090936288238" lon="5.157060641795397">
        <ele>-19.41</ele>
        <time>2019-09-06T11:08:56Z</time>
      </trkpt>
      <trkpt lat="51.671129828318954" lon="5.157035496085882">
        <ele>-19.329999999999998</ele>
        <time>2019-09-06T11:08:54Z</time>
      </trkpt>
      <trkpt lat="51.671247342601418" lon="5.156779177486897">
        <ele>-18.289999999999999</ele>
        <time>2019-09-06T11:08:28Z</time>
      </trkpt>
      <trkpt lat="51.67127869091928" lon="5.156191606074572">
        <ele>-16.93</ele>
        <time>2019-09-06T11:08:00Z</time>
      </trkpt>
      <trkpt lat="51.67123518884182" lon="5.155831687152386">
        <ele>-16.16</ele>
        <time>2019-09-06T11:07:44Z</time>
      </trkpt>
      <trkpt lat="51.671208618208766" lon="5.155745102092624">
        <ele>-15.880000000000001</ele>
        <time>2019-09-06T11:07:38Z</time>
      </trkpt>
      <trkpt lat="51.671133767813444" lon="5.155592886731029">
        <ele>-15.27</ele>
        <time>2019-09-06T11:07:26Z</time>
      </trkpt>
      <trkpt lat="51.671093953773379" lon="5.155358277261257">
        <ele>-14.67</ele>
        <time>2019-09-06T11:07:11Z</time>
      </trkpt>
      <trkpt lat="51.67106126435101" lon="5.155224753543735">
        <ele>-14.32</ele>
        <time>2019-09-06T11:07:03Z</time>
      </trkpt>
      <trkpt lat="51.670972919091582" lon="5.15478084795177">
        <ele>-13.390000000000001</ele>
        <time>2019-09-06T11:06:41Z</time>
      </trkpt>
      <trkpt lat="51.670924387872219" lon="5.154627375304699">
        <ele>-12.98</ele>
        <time>2019-09-06T11:06:31Z</time>
      </trkpt>
      <trkpt lat="51.670952551066875" lon="5.154347503557801">
        <ele>-12.44</ele>
        <time>2019-09-06T11:06:18Z</time>
      </trkpt>
      <trkpt lat="51.671001333743334" lon="5.153980627655983">
        <ele>-11.76</ele>
        <time>2019-09-06T11:06:02Z</time>
      </trkpt>
      <trkpt lat="51.67106713168323" lon="5.153600005432963">
        <ele>-11.119999999999999</ele>
        <time>2019-09-06T11:05:48Z</time>
      </trkpt>
      <trkpt lat="51.671059587970376" lon="5.153198763728142">
        <ele>-10.42</ele>
        <time>2019-09-06T11:05:33Z</time>
      </trkpt>
      <trkpt lat="51.671044081449509" lon="5.152956694364548">
        <ele>-9.859999999999999</ele>
        <time>2019-09-06T11:05:21Z</time>
      </trkpt>
      <trkpt lat="51.671014409512281" lon="5.152686880901456">
        <ele>-9.279999999999999</ele>
        <time>2019-09-06T11:05:09Z</time>
      </trkpt>
      <trkpt lat="51.670989179983735" lon="5.152430897578597">
        <ele>-8.609999999999999</ele>
        <time>2019-09-06T11:04:55Z</time>
      </trkpt>
      <trkpt lat="51.671071574091911" lon="5.151601005345583">
        <ele>-7.48</ele>
        <time>2019-09-06T11:04:32Z</time>
      </trkpt>
      <trkpt lat="51.671102838590741" lon="5.151433954015374">
        <ele>-7.38</ele>
        <time>2019-09-06T11:04:30Z</time>
      </trkpt>
      <trkpt lat="51.671067383140326" lon="5.149201937019825">
        <ele>-5.55</ele>
        <time>2019-09-06T11:03:45Z</time>
      </trkpt>
      <trkpt lat="51.670974930748343" lon="5.148984594270587">
        <ele>-5.18</ele>
        <time>2019-09-06T11:03:34Z</time>
      </trkpt>
      <trkpt lat="51.670964453369379" lon="5.148963471874595">
        <ele>-5.15</ele>
        <time>2019-09-06T11:03:33Z</time>
      </trkpt>
      <trkpt lat="51.670956406742334" lon="5.148719474673271">
        <ele>-4.95</ele>
        <time>2019-09-06T11:03:26Z</time>
      </trkpt>
      <trkpt lat="51.670942157506943" lon="5.148601541295648">
        <ele>-4.83</ele>
        <time>2019-09-06T11:03:21Z</time>
      </trkpt>
      <trkpt lat="51.670930758118629" lon="5.148550914600492">
        <ele>-4.74</ele>
        <time>2019-09-06T11:03:18Z</time>
      </trkpt>
      <trkpt lat="51.670933105051517" lon="5.148134166374803">
        <ele>-4.42</ele>
        <time>2019-09-06T11:03:01Z</time>
      </trkpt>
      <trkpt lat="51.67093469761312" lon="5.148095609620214">
        <ele>-4.39</ele>
        <time>2019-09-06T11:02:59Z</time>
      </trkpt>
      <trkpt lat="51.670951042324305" lon="5.147940125316382">
        <ele>-4.31</ele>
        <time>2019-09-06T11:02:54Z</time>
      </trkpt>
      <trkpt lat="51.670954981818795" lon="5.147775923833251">
        <ele>-4.06</ele>
        <time>2019-09-06T11:02:41Z</time>
      </trkpt>
      <trkpt lat="51.670956155285239" lon="5.147755388170481">
        <ele>-4.04</ele>
        <time>2019-09-06T11:02:40Z</time>
      </trkpt>
      <trkpt lat="51.670970404520631" lon="5.147717585787177">
        <ele>-3.85</ele>
        <time>2019-09-06T11:02:31Z</time>
      </trkpt>
      <trkpt lat="51.67095523327589" lon="5.147570483386517">
        <ele>-3.44</ele>
        <time>2019-09-06T11:02:10Z</time>
      </trkpt>
      <trkpt lat="51.670899409800768" lon="5.147301843389869">
        <ele>-3.26</ele>
        <time>2019-09-06T11:01:59Z</time>
      </trkpt>
      <trkpt lat="51.670886082574725" lon="5.147237638011575">
        <ele>-3.24</ele>
        <time>2019-09-06T11:01:57Z</time>
      </trkpt>
      <trkpt lat="51.670881723985076" lon="5.147192794829607">
        <ele>-3.22</ele>
        <time>2019-09-06T11:01:56Z</time>
      </trkpt>
      <trkpt lat="51.6708545666188" lon="5.147088272497058">
        <ele>-3.17</ele>
        <time>2019-09-06T11:01:52Z</time>
      </trkpt>
      <trkpt lat="51.670853644609451" lon="5.14705365523696">
        <ele>-3.17</ele>
        <time>2019-09-06T11:01:51Z</time>
      </trkpt>
      <trkpt lat="51.670844592154026" lon="5.147032532840967">
        <ele>-3.15</ele>
        <time>2019-09-06T11:01:50Z</time>
      </trkpt>
      <trkpt lat="51.67083109728992" lon="5.147005710750818">
        <ele>-3.14</ele>
        <time>2019-09-06T11:01:49Z</time>
      </trkpt>
      <trkpt lat="51.670725904405117" lon="5.146784679964185">
        <ele>-3.06</ele>
        <time>2019-09-06T11:01:43Z</time>
      </trkpt>
      <trkpt lat="51.67052373290062" lon="5.146405985578895">
        <ele>-2.82</ele>
        <time>2019-09-06T11:01:24Z</time>
      </trkpt>
      <trkpt lat="51.670425748452544" lon="5.146192330867052">
        <ele>-2.7</ele>
        <time>2019-09-06T11:01:11Z</time>
      </trkpt>
      <trkpt lat="51.670326506718993" lon="5.146213956177235">
        <ele>-1.93</ele>
        <time>2019-09-06T10:58:47Z</time>
      </trkpt>
      <trkpt lat="51.670322651043534" lon="5.146230552345514">
        <ele>-1.93</ele>
        <time>2019-09-06T10:58:46Z</time>
      </trkpt>
      <trkpt lat="51.670319801196456" lon="5.146246058866382">
        <ele>-1.92</ele>
        <time>2019-09-06T10:58:45Z</time>
      </trkpt>
      <trkpt lat="51.670313514769077" lon="5.146262822672725">
        <ele>-1.92</ele>
        <time>2019-09-06T10:58:44Z</time>
      </trkpt>
      <trkpt lat="51.670304043218493" lon="5.146279837936163">
        <ele>-1.93</ele>
        <time>2019-09-06T10:58:43Z</time>
      </trkpt>
      <trkpt lat="51.670295158401132" lon="5.146294925361872">
        <ele>-1.92</ele>
        <time>2019-09-06T10:58:42Z</time>
      </trkpt>
      <trkpt lat="51.670235395431519" lon="5.146202892065048">
        <ele>-1.89</ele>
        <time>2019-09-06T10:58:34Z</time>
      </trkpt>
      <trkpt lat="51.670075049623847" lon="5.145915728062391">
        <ele>-1.75</ele>
        <time>2019-09-06T10:58:16Z</time>
      </trkpt>
      <trkpt lat="51.669926689937711" lon="5.145600400865078">
        <ele>-1.59</ele>
        <time>2019-09-06T10:58:00Z</time>
      </trkpt>
      <trkpt lat="51.669853013008833" lon="5.145359085872769">
        <ele>-2.51</ele>
        <time>2019-09-06T10:57:47Z</time>
      </trkpt>
      <trkpt lat="51.669847061857581" lon="5.14533469453454">
        <ele>-2.5</ele>
        <time>2019-09-06T10:57:46Z</time>
      </trkpt>
      <trkpt lat="51.669731894508004" lon="5.145067982375622">
        <ele>-2.76</ele>
        <time>2019-09-06T10:57:33Z</time>
      </trkpt>
      <trkpt lat="51.669696774333715" lon="5.144984498620033">
        <ele>-2.71</ele>
        <time>2019-09-06T10:57:29Z</time>
      </trkpt>
      <trkpt lat="51.669554030522704" lon="5.144823901355267">
        <ele>-2.6</ele>
        <time>2019-09-06T10:57:11Z</time>
      </trkpt>
      <trkpt lat="51.669056229293346" lon="5.144664142280817">
        <ele>0.12</ele>
        <time>2019-09-06T10:56:23Z</time>
      </trkpt>
      <trkpt lat="51.668922789394855" lon="5.144662046805024">
        <ele>0.09</ele>
        <time>2019-09-06T10:56:12Z</time>
      </trkpt>
      <trkpt lat="51.668768478557467" lon="5.144657352939248">
        <ele>0.07</ele>
        <time>2019-09-06T10:55:59Z</time>
      </trkpt>
      <trkpt lat="51.668757917359471" lon="5.144655425101519">
        <ele>0.07</ele>
        <time>2019-09-06T10:55:58Z</time>
      </trkpt>
      <trkpt lat="51.668748278170824" lon="5.144655257463455">
        <ele>0.07</ele>
        <time>2019-09-06T10:55:57Z</time>
      </trkpt>
      <trkpt lat="51.668732855468988" lon="5.144651234149933">
        <ele>0.07</ele>
        <time>2019-09-06T10:55:56Z</time>
      </trkpt>
      <trkpt lat="51.668720114976168" lon="5.144645869731903">
        <ele>-0.79</ele>
        <time>2019-09-06T10:55:55Z</time>
      </trkpt>
      <trkpt lat="51.668708045035601" lon="5.144641930237413">
        <ele>-0.8</ele>
        <time>2019-09-06T10:55:54Z</time>
      </trkpt>
      <trkpt lat="51.668695136904716" lon="5.144639248028398">
        <ele>-0.8</ele>
        <time>2019-09-06T10:55:53Z</time>
      </trkpt>
      <trkpt lat="51.668682899326086" lon="5.1446374040097">
        <ele>-0.8</ele>
        <time>2019-09-06T10:55:52Z</time>
      </trkpt>
      <trkpt lat="51.668671080842614" lon="5.144637152552605">
        <ele>-0.8</ele>
        <time>2019-09-06T10:55:51Z</time>
      </trkpt>
      <trkpt lat="51.668657418340445" lon="5.144633548334241">
        <ele>-0.8</ele>
        <time>2019-09-06T10:55:50Z</time>
      </trkpt>
      <trkpt lat="51.66864300146699" lon="5.144629860296845">
        <ele>-0.8</ele>
        <time>2019-09-06T10:55:49Z</time>
      </trkpt>
      <trkpt lat="51.668630763888359" lon="5.144626004621387">
        <ele>-0.8</ele>
        <time>2019-09-06T10:55:48Z</time>
      </trkpt>
      <trkpt lat="51.668621376156807" lon="5.144621981307864">
        <ele>-0.8</ele>
        <time>2019-09-06T10:55:47Z</time>
      </trkpt>
      <trkpt lat="51.668610312044621" lon="5.1446183770895">
        <ele>-0.8</ele>
        <time>2019-09-06T10:55:46Z</time>
      </trkpt>
      <trkpt lat="51.668596984818578" lon="5.144612761214376">
        <ele>-0.8</ele>
        <time>2019-09-06T10:55:45Z</time>
      </trkpt>
      <trkpt lat="51.668585417792201" lon="5.144607983529568">
        <ele>-0.8</ele>
        <time>2019-09-06T10:55:44Z</time>
      </trkpt>
      <trkpt lat="51.668573012575507" lon="5.144607312977314">
        <ele>-0.8</ele>
        <time>2019-09-06T10:55:43Z</time>
      </trkpt>
      <trkpt lat="51.668561277911067" lon="5.144603876397014">
        <ele>-0.81</ele>
        <time>2019-09-06T10:55:42Z</time>
      </trkpt>
      <trkpt lat="51.668539736419916" lon="5.144562134519219">
        <ele>-0.81</ele>
        <time>2019-09-06T10:55:39Z</time>
      </trkpt>
      <trkpt lat="51.668534372001886" lon="5.144440596923232">
        <ele>-0.83</ele>
        <time>2019-09-06T10:55:34Z</time>
      </trkpt>
      <trkpt lat="51.66855993680656" lon="5.14414387755096">
        <ele>-3.49</ele>
        <time>2019-09-06T10:55:21Z</time>
      </trkpt>
      <trkpt lat="51.668554404750466" lon="5.14375395141542">
        <ele>-3.6</ele>
        <time>2019-09-06T10:55:02Z</time>
      </trkpt>
      <trkpt lat="51.668552979826927" lon="5.143372071906924">
        <ele>-3.69</ele>
        <time>2019-09-06T10:54:44Z</time>
      </trkpt>
      <trkpt lat="51.668551722541451" lon="5.143348518759012">
        <ele>-3.69</ele>
        <time>2019-09-06T10:54:43Z</time>
      </trkpt>
      <trkpt lat="51.668552476912737" lon="5.143321612849832">
        <ele>-3.69</ele>
        <time>2019-09-06T10:54:42Z</time>
      </trkpt>
      <trkpt lat="51.668586255982518" lon="5.142963621765375">
        <ele>-3.75</ele>
        <time>2019-09-06T10:54:27Z</time>
      </trkpt>
      <trkpt lat="51.668589524924755" lon="5.142940236255527">
        <ele>-3.75</ele>
        <time>2019-09-06T10:54:26Z</time>
      </trkpt>
      <trkpt lat="51.66859170421958" lon="5.142917856574059">
        <ele>-3.75</ele>
        <time>2019-09-06T10:54:25Z</time>
      </trkpt>
      <trkpt lat="51.668589441105723" lon="5.142898578196764">
        <ele>-3.76</ele>
        <time>2019-09-06T10:54:24Z</time>
      </trkpt>
      <trkpt lat="51.668591536581516" lon="5.142876282334328">
        <ele>-3.77</ele>
        <time>2019-09-06T10:54:23Z</time>
      </trkpt>
      <trkpt lat="51.668604863807559" lon="5.142700932919979">
        <ele>-3.78</ele>
        <time>2019-09-06T10:54:15Z</time>
      </trkpt>
      <trkpt lat="51.66860980913043" lon="5.142503958195448">
        <ele>-3.82</ele>
        <time>2019-09-06T10:54:06Z</time>
      </trkpt>
      <trkpt lat="51.668614167720079" lon="5.142481829971075">
        <ele>-3.83</ele>
        <time>2019-09-06T10:54:05Z</time>
      </trkpt>
      <trkpt lat="51.668615844100714" lon="5.142457606270909">
        <ele>-3.84</ele>
        <time>2019-09-06T10:54:04Z</time>
      </trkpt>
      <trkpt lat="51.668617017567158" lon="5.142433885484934">
        <ele>-3.84</ele>
        <time>2019-09-06T10:54:03Z</time>
      </trkpt>
      <trkpt lat="51.668621124699712" lon="5.142267839983106">
        <ele>-3.88</ele>
        <time>2019-09-06T10:53:56Z</time>
      </trkpt>
      <trkpt lat="51.668622549623251" lon="5.142243029549718">
        <ele>-3.89</ele>
        <time>2019-09-06T10:53:55Z</time>
      </trkpt>
      <trkpt lat="51.668622381985188" lon="5.14222014695406">
        <ele>-3.89</ele>
        <time>2019-09-06T10:53:54Z</time>
      </trkpt>
      <trkpt lat="51.66862053796649" lon="5.142194582149386">
        <ele>-3.9</ele>
        <time>2019-09-06T10:53:53Z</time>
      </trkpt>
      <trkpt lat="51.668621459975839" lon="5.14216834679246">
        <ele>-3.9</ele>
        <time>2019-09-06T10:53:52Z</time>
      </trkpt>
      <trkpt lat="51.668619364500046" lon="5.142077654600143">
        <ele>-3.92</ele>
        <time>2019-09-06T10:53:47Z</time>
      </trkpt>
      <trkpt lat="51.668625650927424" lon="5.141998110339046">
        <ele>-3.93</ele>
        <time>2019-09-06T10:53:43Z</time>
      </trkpt>
      <trkpt lat="51.668658424168825" lon="5.141691165044904">
        <ele>-3.98</ele>
        <time>2019-09-06T10:53:28Z</time>
      </trkpt>
      <trkpt lat="51.668644258752465" lon="5.141399307176471">
        <ele>-4.02</ele>
        <time>2019-09-06T10:53:16Z</time>
      </trkpt>
      <trkpt lat="51.668642582371831" lon="5.141373574733734">
        <ele>-4.02</ele>
        <time>2019-09-06T10:53:15Z</time>
      </trkpt>
      <trkpt lat="51.668639816343784" lon="5.141353122889996">
        <ele>-4.03</ele>
        <time>2019-09-06T10:53:14Z</time>
      </trkpt>
      <trkpt lat="51.668642750009894" lon="5.141094038262963">
        <ele>-4.09</ele>
        <time>2019-09-06T10:53:00Z</time>
      </trkpt>
      <trkpt lat="51.668642498552799" lon="5.141074508428574">
        <ele>-4.1</ele>
        <time>2019-09-06T10:52:59Z</time>
      </trkpt>
      <trkpt lat="51.668639145791531" lon="5.140988510102034">
        <ele>-4.1</ele>
        <time>2019-09-06T10:52:55Z</time>
      </trkpt>
      <trkpt lat="51.668642666190863" lon="5.140668740496039">
        <ele>-4.17</ele>
        <time>2019-09-06T10:52:41Z</time>
      </trkpt>
      <trkpt lat="51.668639481067657" lon="5.140642002224922">
        <ele>-4.17</ele>
        <time>2019-09-06T10:52:40Z</time>
      </trkpt>
      <trkpt lat="51.66863520629704" lon="5.140616605058312">
        <ele>-4.18</ele>
        <time>2019-09-06T10:52:39Z</time>
      </trkpt>
      <trkpt lat="51.668667811900377" lon="5.140393311157823">
        <ele>-4.23</ele>
        <time>2019-09-06T10:52:29Z</time>
      </trkpt>
      <trkpt lat="51.668666638433933" lon="5.140373446047306">
        <ele>-4.24</ele>
        <time>2019-09-06T10:52:28Z</time>
      </trkpt>
      <trkpt lat="51.668663872405887" lon="5.14035115018487">
        <ele>-6.55</ele>
        <time>2019-09-06T10:52:27Z</time>
      </trkpt>
      <trkpt lat="51.668668566271663" lon="5.140312509611249">
        <ele>-6.56</ele>
        <time>2019-09-06T10:52:25Z</time>
      </trkpt>
      <trkpt lat="51.668671416118741" lon="5.14028761535883">
        <ele>-6.56</ele>
        <time>2019-09-06T10:52:24Z</time>
      </trkpt>
      <trkpt lat="51.668674098327756" lon="5.140257524326444">
        <ele>-6.56</ele>
        <time>2019-09-06T10:52:23Z</time>
      </trkpt>
      <trkpt lat="51.668675355613232" lon="5.14023145660758">
        <ele>-6.57</ele>
        <time>2019-09-06T10:52:22Z</time>
      </trkpt>
      <trkpt lat="51.668675187975168" lon="5.140211340039969">
        <ele>-6.58</ele>
        <time>2019-09-06T10:52:21Z</time>
      </trkpt>
      <trkpt lat="51.668677115812898" lon="5.140192396938801">
        <ele>-6.59</ele>
        <time>2019-09-06T10:52:20Z</time>
      </trkpt>
      <trkpt lat="51.668678373098373" lon="5.140172615647316">
        <ele>-6.59</ele>
        <time>2019-09-06T10:52:19Z</time>
      </trkpt>
      <trkpt lat="51.668679462745786" lon="5.140146715566516">
        <ele>-6.6</ele>
        <time>2019-09-06T10:52:18Z</time>
      </trkpt>
      <trkpt lat="51.668678624555469" lon="5.14011905528605">
        <ele>-6.6</ele>
        <time>2019-09-06T10:52:17Z</time>
      </trkpt>
      <trkpt lat="51.66868063621223" lon="5.140090137720108">
        <ele>-6.6</ele>
        <time>2019-09-06T10:52:16Z</time>
      </trkpt>
      <trkpt lat="51.668681222945452" lon="5.140061303973198">
        <ele>-6.61</ele>
        <time>2019-09-06T10:52:15Z</time>
      </trkpt>
      <trkpt lat="51.668687341734767" lon="5.140037415549159">
        <ele>-6.62</ele>
        <time>2019-09-06T10:52:14Z</time>
      </trkpt>
      <trkpt lat="51.668690191581845" lon="5.140000032261014">
        <ele>-6.64</ele>
        <time>2019-09-06T10:52:12Z</time>
      </trkpt>
      <trkpt lat="51.668699914589524" lon="5.139618488028646">
        <ele>-6.74</ele>
        <time>2019-09-06T10:51:54Z</time>
      </trkpt>
      <trkpt lat="51.668716594576836" lon="5.139426374807954">
        <ele>-6.78</ele>
        <time>2019-09-06T10:51:45Z</time>
      </trkpt>
      <trkpt lat="51.668719109147787" lon="5.139399385079742">
        <ele>-6.79</ele>
        <time>2019-09-06T10:51:44Z</time>
      </trkpt>
      <trkpt lat="51.668724473565817" lon="5.139210456982255">
        <ele>-6.81</ele>
        <time>2019-09-06T10:51:36Z</time>
      </trkpt>
      <trkpt lat="51.668728832155466" lon="5.13901038095355">
        <ele>-6.98</ele>
        <time>2019-09-06T10:51:11Z</time>
      </trkpt>
      <trkpt lat="51.668748529627919" lon="5.13880267739296">
        <ele>-7.09</ele>
        <time>2019-09-06T10:50:58Z</time>
      </trkpt>
      <trkpt lat="51.6687529720366" lon="5.138605367392302">
        <ele>-7.15</ele>
        <time>2019-09-06T10:50:49Z</time>
      </trkpt>
      <trkpt lat="51.668756157159805" lon="5.138583239167929">
        <ele>-7.15</ele>
        <time>2019-09-06T10:50:48Z</time>
      </trkpt>
      <trkpt lat="51.668762611225247" lon="5.138460276648402">
        <ele>-7.18</ele>
        <time>2019-09-06T10:50:43Z</time>
      </trkpt>
      <trkpt lat="51.668765544891357" lon="5.138417780399323">
        <ele>-7.2</ele>
        <time>2019-09-06T10:50:41Z</time>
      </trkpt>
      <trkpt lat="51.668750373646617" lon="5.138068925589323">
        <ele>-7.32</ele>
        <time>2019-09-06T10:50:26Z</time>
      </trkpt>
      <trkpt lat="51.668788511306047" lon="5.137812355533242">
        <ele>-7.43</ele>
        <time>2019-09-06T10:50:14Z</time>
      </trkpt>
      <trkpt lat="51.668787840753794" lon="5.13764756731689">
        <ele>-7.51</ele>
        <time>2019-09-06T10:50:04Z</time>
      </trkpt>
      <trkpt lat="51.668790522962809" lon="5.137624852359295">
        <ele>-7.5</ele>
        <time>2019-09-06T10:50:03Z</time>
      </trkpt>
      <trkpt lat="51.66879890486598" lon="5.137533489614725">
        <ele>-7.56</ele>
        <time>2019-09-06T10:49:59Z</time>
      </trkpt>
      <trkpt lat="51.668824553489685" lon="5.137144736945629">
        <ele>-7.67</ele>
        <time>2019-09-06T10:49:43Z</time>
      </trkpt>
      <trkpt lat="51.668865540996194" lon="5.13591100461781">
        <ele>-8.17</ele>
        <time>2019-09-06T10:48:47Z</time>
      </trkpt>
      <trkpt lat="51.668878700584173" lon="5.135658122599125">
        <ele>-8.23</ele>
        <time>2019-09-06T10:48:36Z</time>
      </trkpt>
      <trkpt lat="51.668904181569815" lon="5.135282529518008">
        <ele>-8.35</ele>
        <time>2019-09-06T10:48:18Z</time>
      </trkpt>
      <trkpt lat="51.668903511017561" lon="5.135263754054904">
        <ele>-8.35</ele>
        <time>2019-09-06T10:48:17Z</time>
      </trkpt>
      <trkpt lat="51.668900493532419" lon="5.135230058804154">
        <ele>-8.359999999999999</ele>
        <time>2019-09-06T10:48:15Z</time>
      </trkpt>
      <trkpt lat="51.668938379734755" lon="5.134628070518374">
        <ele>-8.449999999999999</ele>
        <time>2019-09-06T10:47:49Z</time>
      </trkpt>
      <trkpt lat="51.668941648676991" lon="5.134312324225903">
        <ele>-8.539999999999999</ele>
        <time>2019-09-06T10:47:35Z</time>
      </trkpt>
      <trkpt lat="51.668935948982835" lon="5.133899431675673">
        <ele>-8.57</ele>
        <time>2019-09-06T10:47:15Z</time>
      </trkpt>
      <trkpt lat="51.668995125219226" lon="5.132821099832654">
        <ele>-8.77</ele>
        <time>2019-09-06T10:46:27Z</time>
      </trkpt>
      <trkpt lat="51.669004177674651" lon="5.132793439552188">
        <ele>-8.77</ele>
        <time>2019-09-06T10:46:26Z</time>
      </trkpt>
      <trkpt lat="51.669020438566804" lon="5.132599985226989">
        <ele>-8.800000000000001</ele>
        <time>2019-09-06T10:46:17Z</time>
      </trkpt>
      <trkpt lat="51.669024042785168" lon="5.132561177015305">
        <ele>-8.810000000000001</ele>
        <time>2019-09-06T10:46:15Z</time>
      </trkpt>
      <trkpt lat="51.669025970622897" lon="5.132533181458712">
        <ele>-8.82</ele>
        <time>2019-09-06T10:46:14Z</time>
      </trkpt>
      <trkpt lat="51.669026808813214" lon="5.132507784292102">
        <ele>-8.83</ele>
        <time>2019-09-06T10:46:13Z</time>
      </trkpt>
      <trkpt lat="51.669052708894014" lon="5.132129173725843">
        <ele>-8.869999999999999</ele>
        <time>2019-09-06T10:45:56Z</time>
      </trkpt>
      <trkpt lat="51.669070227071643" lon="5.131876207888126">
        <ele>-8.94</ele>
        <time>2019-09-06T10:45:40Z</time>
      </trkpt>
      <trkpt lat="51.669070729985833" lon="5.131790628656745">
        <ele>-8.949999999999999</ele>
        <time>2019-09-06T10:45:35Z</time>
      </trkpt>
      <trkpt lat="51.669101156294346" lon="5.131510924547911">
        <ele>-9.02</ele>
        <time>2019-09-06T10:45:22Z</time>
      </trkpt>
      <trkpt lat="51.669113310053945" lon="5.131203811615706">
        <ele>-9.060000000000001</ele>
        <time>2019-09-06T10:45:08Z</time>
      </trkpt>
      <trkpt lat="51.669134180992842" lon="5.130829224362969">
        <ele>-9.18</ele>
        <time>2019-09-06T10:44:52Z</time>
      </trkpt>
      <trkpt lat="51.669133258983493" lon="5.130803491920233">
        <ele>-9.19</ele>
        <time>2019-09-06T10:44:51Z</time>
      </trkpt>
      <trkpt lat="51.66913409717381" lon="5.130785219371319">
        <ele>-9.18</ele>
        <time>2019-09-06T10:44:50Z</time>
      </trkpt>
      <trkpt lat="51.669130995869637" lon="5.130770215764642">
        <ele>-9.220000000000001</ele>
        <time>2019-09-06T10:44:49Z</time>
      </trkpt>
      <trkpt lat="51.669129822403193" lon="5.130748841911554">
        <ele>-9.19</ele>
        <time>2019-09-06T10:44:48Z</time>
      </trkpt>
      <trkpt lat="51.669127391651273" lon="5.130723863840103">
        <ele>-9.17</ele>
        <time>2019-09-06T10:44:47Z</time>
      </trkpt>
      <trkpt lat="51.669123535975814" lon="5.130698550492525">
        <ele>-9.19</ele>
        <time>2019-09-06T10:44:46Z</time>
      </trkpt>
      <trkpt lat="51.669122697785497" lon="5.130673907697201">
        <ele>-5.95</ele>
        <time>2019-09-06T10:44:45Z</time>
      </trkpt>
      <trkpt lat="51.669123535975814" lon="5.130648845806718">
        <ele>-5.92</ele>
        <time>2019-09-06T10:44:44Z</time>
      </trkpt>
      <trkpt lat="51.669123452156782" lon="5.130625041201711">
        <ele>-5.95</ele>
        <time>2019-09-06T10:44:43Z</time>
      </trkpt>
      <trkpt lat="51.669138791039586" lon="5.13027710840106">
        <ele>-7.6</ele>
        <time>2019-09-06T10:44:28Z</time>
      </trkpt>
      <trkpt lat="51.66916192509234" lon="5.130037218332291">
        <ele>-7.61</ele>
        <time>2019-09-06T10:44:18Z</time>
      </trkpt>
      <trkpt lat="51.669112555682659" lon="5.129593480378389">
        <ele>-7.77</ele>
        <time>2019-09-06T10:43:58Z</time>
      </trkpt>
      <trkpt lat="51.669111549854279" lon="5.129570765420795">
        <ele>-7.69</ele>
        <time>2019-09-06T10:43:57Z</time>
      </trkpt>
      <trkpt lat="51.669058492407203" lon="5.129344537854195">
        <ele>-5.33</ele>
        <time>2019-09-06T10:43:41Z</time>
      </trkpt>
      <trkpt lat="51.669050026684999" lon="5.129331545904279">
        <ele>-5.32</ele>
        <time>2019-09-06T10:43:40Z</time>
      </trkpt>
      <trkpt lat="51.669038375839591" lon="5.129296090453863">
        <ele>-5.31</ele>
        <time>2019-09-06T10:43:38Z</time>
      </trkpt>
      <trkpt lat="51.669034352526069" lon="5.129175307229161">
        <ele>-5.34</ele>
        <time>2019-09-06T10:43:20Z</time>
      </trkpt>
      <trkpt lat="51.669055726379156" lon="5.129205649718642">
        <ele>-5.28</ele>
        <time>2019-09-06T10:42:59Z</time>
      </trkpt>
      <trkpt lat="51.669086739420891" lon="5.129177486523986">
        <ele>-6.15</ele>
        <time>2019-09-06T10:42:54Z</time>
      </trkpt>
      <trkpt lat="51.669190507382154" lon="5.128907421603799">
        <ele>-9.1</ele>
        <time>2019-09-06T10:42:41Z</time>
      </trkpt>
      <trkpt lat="51.669189585372806" lon="5.128789069131017">
        <ele>-9.119999999999999</ele>
        <time>2019-09-06T10:42:36Z</time>
      </trkpt>
      <trkpt lat="51.669205678626895" lon="5.128617240116">
        <ele>-9.140000000000001</ele>
        <time>2019-09-06T10:42:29Z</time>
      </trkpt>
      <trkpt lat="51.669215736910701" lon="5.128329070284963">
        <ele>-9.130000000000001</ele>
        <time>2019-09-06T10:42:17Z</time>
      </trkpt>
      <trkpt lat="51.669265944510698" lon="5.127837052568793">
        <ele>-9.130000000000001</ele>
        <time>2019-09-06T10:41:57Z</time>
      </trkpt>
      <trkpt lat="51.669278852641582" lon="5.127730434760451">
        <ele>-9.130000000000001</ele>
        <time>2019-09-06T10:41:51Z</time>
      </trkpt>
      <trkpt lat="51.669269632548094" lon="5.127693805843592">
        <ele>-9.140000000000001</ele>
        <time>2019-09-06T10:41:49Z</time>
      </trkpt>
      <trkpt lat="51.669267537072301" lon="5.127643598243594">
        <ele>-9.130000000000001</ele>
        <time>2019-09-06T10:41:47Z</time>
      </trkpt>
      <trkpt lat="51.669270303100348" lon="5.127532538026571">
        <ele>-9.15</ele>
        <time>2019-09-06T10:41:42Z</time>
      </trkpt>
      <trkpt lat="51.669282540678978" lon="5.127434553578496">
        <ele>-9.16</ele>
        <time>2019-09-06T10:41:38Z</time>
      </trkpt>
      <trkpt lat="51.669296706095338" lon="5.127223748713732">
        <ele>-9.19</ele>
        <time>2019-09-06T10:41:29Z</time>
      </trkpt>
      <trkpt lat="51.669353954493999" lon="5.126846395432949">
        <ele>-9.210000000000001</ele>
        <time>2019-09-06T10:41:14Z</time>
      </trkpt>
      <trkpt lat="51.669351942837238" lon="5.12677900493145">
        <ele>-9.24</ele>
        <time>2019-09-06T10:41:11Z</time>
      </trkpt>
      <trkpt lat="51.669377340003848" lon="5.126520842313767">
        <ele>-9.34</ele>
        <time>2019-09-06T10:40:59Z</time>
      </trkpt>
      <trkpt lat="51.669413298368454" lon="5.126229068264365">
        <ele>-9.369999999999999</ele>
        <time>2019-09-06T10:40:47Z</time>
      </trkpt>
      <trkpt lat="51.669443305581808" lon="5.125996470451355">
        <ele>-9.42</ele>
        <time>2019-09-06T10:40:36Z</time>
      </trkpt>
      <trkpt lat="51.669447664171457" lon="5.125961853191257">
        <ele>-9.44</ele>
        <time>2019-09-06T10:40:34Z</time>
      </trkpt>
      <trkpt lat="51.669509271159768" lon="5.12569623067975">
        <ele>-9.5</ele>
        <time>2019-09-06T10:40:24Z</time>
      </trkpt>
      <trkpt lat="51.669525615870953" lon="5.125527419149876">
        <ele>-9.529999999999999</ele>
        <time>2019-09-06T10:40:17Z</time>
      </trkpt>
      <trkpt lat="51.669525364413857" lon="5.125370509922504">
        <ele>-9.560000000000001</ele>
        <time>2019-09-06T10:40:12Z</time>
      </trkpt>
      <trkpt lat="51.669527711346745" lon="5.125236064195633">
        <ele>-9.619999999999999</ele>
        <time>2019-09-06T10:40:04Z</time>
      </trkpt>
      <trkpt lat="51.669541876763105" lon="5.125143527984619">
        <ele>-9.66</ele>
        <time>2019-09-06T10:39:59Z</time>
      </trkpt>
      <trkpt lat="51.669529303908348" lon="5.125079406425357">
        <ele>-9.68</ele>
        <time>2019-09-06T10:39:55Z</time>
      </trkpt>
      <trkpt lat="51.669525951147079" lon="5.125010926276445">
        <ele>-9.699999999999999</ele>
        <time>2019-09-06T10:39:52Z</time>
      </trkpt>
      <trkpt lat="51.669512121006846" lon="5.124836498871446">
        <ele>-9.74</ele>
        <time>2019-09-06T10:39:44Z</time>
      </trkpt>
      <trkpt lat="51.669516311958432" lon="5.124694174155593">
        <ele>-9.779999999999999</ele>
        <time>2019-09-06T10:39:38Z</time>
      </trkpt>
      <trkpt lat="51.669526705518365" lon="5.124602308496833">
        <ele>-9.800000000000001</ele>
        <time>2019-09-06T10:39:35Z</time>
      </trkpt>
      <trkpt lat="51.669549671933055" lon="5.124296201393008">
        <ele>-9.869999999999999</ele>
        <time>2019-09-06T10:39:22Z</time>
      </trkpt>
      <trkpt lat="51.669559311121702" lon="5.124220512807369">
        <ele>-9.91</ele>
        <time>2019-09-06T10:39:18Z</time>
      </trkpt>
      <trkpt lat="51.669571381062269" lon="5.12407885864377">
        <ele>-9.960000000000001</ele>
        <time>2019-09-06T10:39:11Z</time>
      </trkpt>
      <trkpt lat="51.669596275314689" lon="5.123669402673841">
        <ele>-10.050000000000001</ele>
        <time>2019-09-06T10:38:55Z</time>
      </trkpt>
      <trkpt lat="51.669640112668276" lon="5.123331360518932">
        <ele>-10.17</ele>
        <time>2019-09-06T10:38:41Z</time>
      </trkpt>
      <trkpt lat="51.669641705229878" lon="5.122989043593407">
        <ele>-10.31</ele>
        <time>2019-09-06T10:38:26Z</time>
      </trkpt>
      <trkpt lat="51.669648243114352" lon="5.122843869030476">
        <ele>-10.390000000000001</ele>
        <time>2019-09-06T10:38:19Z</time>
      </trkpt>
      <trkpt lat="51.669669784605503" lon="5.122581515461206">
        <ele>-10.49</ele>
        <time>2019-09-06T10:38:09Z</time>
      </trkpt>
      <trkpt lat="51.669686632230878" lon="5.122358305379748">
        <ele>-10.51</ele>
        <time>2019-09-06T10:38:01Z</time>
      </trkpt>
      <trkpt lat="51.669707586988807" lon="5.122138364240527">
        <ele>-10.56</ele>
        <time>2019-09-06T10:37:52Z</time>
      </trkpt>
      <trkpt lat="51.669754944741726" lon="5.121871149167419">
        <ele>-10.68</ele>
        <time>2019-09-06T10:37:41Z</time>
      </trkpt>
      <trkpt lat="51.669751424342394" lon="5.121632516384125">
        <ele>-10.779999999999999</ele>
        <time>2019-09-06T10:37:30Z</time>
      </trkpt>
      <trkpt lat="51.669763745740056" lon="5.121258599683642">
        <ele>-10.890000000000001</ele>
        <time>2019-09-06T10:37:15Z</time>
      </trkpt>
      <trkpt lat="51.669778833165765" lon="5.120924832299352">
        <ele>-11.039999999999999</ele>
        <time>2019-09-06T10:36:59Z</time>
      </trkpt>
      <trkpt lat="51.669775145128369" lon="5.120831541717053">
        <ele>-11.07</ele>
        <time>2019-09-06T10:36:55Z</time>
      </trkpt>
      <trkpt lat="51.669775396585464" lon="5.120674381032586">
        <ele>-11.1</ele>
        <time>2019-09-06T10:36:48Z</time>
      </trkpt>
      <trkpt lat="51.669784532859921" lon="5.120526440441608">
        <ele>-11.140000000000001</ele>
        <time>2019-09-06T10:36:43Z</time>
      </trkpt>
      <trkpt lat="51.669788472354412" lon="5.120367268100381">
        <ele>-11.19</ele>
        <time>2019-09-06T10:36:36Z</time>
      </trkpt>
      <trkpt lat="51.669781263917685" lon="5.120282778516412">
        <ele>-11.23</ele>
        <time>2019-09-06T10:36:32Z</time>
      </trkpt>
      <trkpt lat="51.669796770438552" lon="5.120006930083036">
        <ele>-11.289999999999999</ele>
        <time>2019-09-06T10:36:20Z</time>
      </trkpt>
      <trkpt lat="51.669797357171774" lon="5.119936019182205">
        <ele>-11.32</ele>
        <time>2019-09-06T10:36:17Z</time>
      </trkpt>
      <trkpt lat="51.669818311929703" lon="5.119742564857006">
        <ele>-11.359999999999999</ele>
        <time>2019-09-06T10:36:09Z</time>
      </trkpt>
      <trkpt lat="51.669823173433542" lon="5.119662182405591">
        <ele>-11.380000000000001</ele>
        <time>2019-09-06T10:36:05Z</time>
      </trkpt>
      <trkpt lat="51.669851755723357" lon="5.119351549074054">
        <ele>-11.49</ele>
        <time>2019-09-06T10:35:51Z</time>
      </trkpt>
      <trkpt lat="51.6698650829494" lon="5.119150299578905">
        <ele>-11.52</ele>
        <time>2019-09-06T10:35:41Z</time>
      </trkpt>
      <trkpt lat="51.669892491772771" lon="5.118771186098456">
        <ele>-10.720000000000001</ele>
        <time>2019-09-06T10:35:29Z</time>
      </trkpt>
      <trkpt lat="51.669892827048898" lon="5.118759870529175">
        <ele>-8.449999999999999</ele>
        <time>2019-09-06T10:35:28Z</time>
      </trkpt>
      <trkpt lat="51.66992275044322" lon="5.118460636585951">
        <ele>-12.970000000000001</ele>
        <time>2019-09-06T10:35:11Z</time>
      </trkpt>
      <trkpt lat="51.66992811486125" lon="5.118239941075444">
        <ele>-13.06</ele>
        <time>2019-09-06T10:35:00Z</time>
      </trkpt>
      <trkpt lat="51.66994764469564" lon="5.117758652195334">
        <ele>-13.15</ele>
        <time>2019-09-06T10:34:37Z</time>
      </trkpt>
      <trkpt lat="51.669988380745053" lon="5.117266802117229">
        <ele>-13.24</ele>
        <time>2019-09-06T10:34:12Z</time>
      </trkpt>
      <trkpt lat="51.669993493705988" lon="5.117149036377668">
        <ele>-13.279999999999999</ele>
        <time>2019-09-06T10:34:07Z</time>
      </trkpt>
      <trkpt lat="51.670015538111329" lon="5.117082064971328">
        <ele>-13.289999999999999</ele>
        <time>2019-09-06T10:34:04Z</time>
      </trkpt>
      <trkpt lat="51.670040264725685" lon="5.116932950913906">
        <ele>-13.32</ele>
        <time>2019-09-06T10:33:57Z</time>
      </trkpt>
      <trkpt lat="51.670049736276269" lon="5.116743100807071">
        <ele>-13.4</ele>
        <time>2019-09-06T10:33:38Z</time>
      </trkpt>
      <trkpt lat="51.670035654678941" lon="5.116667496040463">
        <ele>-13.48</ele>
        <time>2019-09-06T10:33:13Z</time>
      </trkpt>
      <trkpt lat="51.670040180906653" lon="5.116667244583368">
        <ele>-13.52</ele>
        <time>2019-09-06T10:32:48Z</time>
      </trkpt>
      <trkpt lat="51.670065075159073" lon="5.116432048380375">
        <ele>-13.619999999999999</ele>
        <time>2019-09-06T10:32:32Z</time>
      </trkpt>
      <trkpt lat="51.670088125392795" lon="5.116314282640815">
        <ele>-13.640000000000001</ele>
        <time>2019-09-06T10:32:26Z</time>
      </trkpt>
      <trkpt lat="51.67010597884655" lon="5.116249993443489">
        <ele>-13.66</ele>
        <time>2019-09-06T10:32:22Z</time>
      </trkpt>
      <trkpt lat="51.670110672712326" lon="5.116126947104931">
        <ele>-13.74</ele>
        <time>2019-09-06T10:32:00Z</time>
      </trkpt>
      <trkpt lat="51.670136405155063" lon="5.116080343723297">
        <ele>-13.800000000000001</ele>
        <time>2019-09-06T10:31:39Z</time>
      </trkpt>
      <trkpt lat="51.670113271102309" lon="5.115971798077226">
        <ele>-13.84</ele>
        <time>2019-09-06T10:31:23Z</time>
      </trkpt>
      <trkpt lat="51.670128190889955" lon="5.115754622966051">
        <ele>-13.869999999999999</ele>
        <time>2019-09-06T10:31:14Z</time>
      </trkpt>
      <trkpt lat="51.670182337984443" lon="5.115488162264228">
        <ele>-13.890000000000001</ele>
        <time>2019-09-06T10:31:03Z</time>
      </trkpt>
      <trkpt lat="51.670237239450216" lon="5.115243745967746">
        <ele>-13.92</ele>
        <time>2019-09-06T10:30:46Z</time>
      </trkpt>
      <trkpt lat="51.67025257833302" lon="5.115186329931021">
        <ele>-13.93</ele>
        <time>2019-09-06T10:30:41Z</time>
      </trkpt>
      <trkpt lat="51.670294068753719" lon="5.115002179518342">
        <ele>-13.949999999999999</ele>
        <time>2019-09-06T10:30:25Z</time>
      </trkpt>
      <trkpt lat="51.670330949127674" lon="5.114801852032542">
        <ele>-13.960000000000001</ele>
        <time>2019-09-06T10:30:16Z</time>
      </trkpt>
      <trkpt lat="51.67043823748827" lon="5.114380409941077">
        <ele>-13.99</ele>
        <time>2019-09-06T10:30:00Z</time>
      </trkpt>
      <trkpt lat="51.670457599684596" lon="5.114263482391834">
        <ele>-14</ele>
        <time>2019-09-06T10:29:55Z</time>
      </trkpt>
      <trkpt lat="51.670461455360055" lon="5.114240599796176">
        <ele>-14.01</ele>
        <time>2019-09-06T10:29:54Z</time>
      </trkpt>
      <trkpt lat="51.670515350997448" lon="5.113984365016222">
        <ele>-14.029999999999999</ele>
        <time>2019-09-06T10:29:45Z</time>
      </trkpt>
      <trkpt lat="51.6705472022295" lon="5.113850757479668">
        <ele>-14.039999999999999</ele>
        <time>2019-09-06T10:29:38Z</time>
      </trkpt>
      <trkpt lat="51.670582992956042" lon="5.113648837432265">
        <ele>-14.07</ele>
        <time>2019-09-06T10:29:28Z</time>
      </trkpt>
      <trkpt lat="51.670620543882251" lon="5.11340232565999">
        <ele>-14.1</ele>
        <time>2019-09-06T10:29:15Z</time>
      </trkpt>
      <trkpt lat="51.670643091201782" lon="5.113347340375185">
        <ele>-14.109999999999999</ele>
        <time>2019-09-06T10:29:12Z</time>
      </trkpt>
      <trkpt lat="51.670683827251196" lon="5.113189592957497">
        <ele>-14.119999999999999</ele>
        <time>2019-09-06T10:29:05Z</time>
      </trkpt>
      <trkpt lat="51.670761359855533" lon="5.112895388156176">
        <ele>-14.15</ele>
        <time>2019-09-06T10:28:53Z</time>
      </trkpt>
      <trkpt lat="51.670847022905946" lon="5.112633118405938">
        <ele>-14.210000000000001</ele>
        <time>2019-09-06T10:28:38Z</time>
      </trkpt>
      <trkpt lat="51.670960430055857" lon="5.112293064594269">
        <ele>-14.24</ele>
        <time>2019-09-06T10:28:19Z</time>
      </trkpt>
      <trkpt lat="51.671008709818125" lon="5.112166916951537">
        <ele>-14.25</ele>
        <time>2019-09-06T10:28:12Z</time>
      </trkpt>
      <trkpt lat="51.671061012893915" lon="5.11204881593585">
        <ele>-14.26</ele>
        <time>2019-09-06T10:28:05Z</time>
      </trkpt>
      <trkpt lat="51.671147597953677" lon="5.111715635284782">
        <ele>-14.300000000000001</ele>
        <time>2019-09-06T10:27:49Z</time>
      </trkpt>
      <trkpt lat="51.671188334003091" lon="5.111578004434705">
        <ele>-14.31</ele>
        <time>2019-09-06T10:27:43Z</time>
      </trkpt>
      <trkpt lat="51.671266620978713" lon="5.111302491277456">
        <ele>-13.449999999999999</ele>
        <time>2019-09-06T10:27:29Z</time>
      </trkpt>
      <trkpt lat="51.671290006488562" lon="5.111229987815023">
        <ele>-13.460000000000001</ele>
        <time>2019-09-06T10:27:25Z</time>
      </trkpt>
      <trkpt lat="51.671341974288225" lon="5.11109889484942">
        <ele>-13.57</ele>
        <time>2019-09-06T10:27:09Z</time>
      </trkpt>
      <trkpt lat="51.671343902125955" lon="5.111083723604679">
        <ele>-13.56</ele>
        <time>2019-09-06T10:27:08Z</time>
      </trkpt>
      <trkpt lat="51.671347925439477" lon="5.111063942313194">
        <ele>-13.56</ele>
        <time>2019-09-06T10:27:07Z</time>
      </trkpt>
      <trkpt lat="51.671344069764018" lon="5.111041394993663">
        <ele>-13.58</ele>
        <time>2019-09-06T10:27:06Z</time>
      </trkpt>
      <trkpt lat="51.671339124441147" lon="5.11101683601737">
        <ele>-13.57</ele>
        <time>2019-09-06T10:27:05Z</time>
      </trkpt>
      <trkpt lat="51.671277852728963" lon="5.110883731395006">
        <ele>-12.6</ele>
        <time>2019-09-06T10:26:58Z</time>
      </trkpt>
      <trkpt lat="51.671273745596409" lon="5.110870655626059">
        <ele>-12.609999999999999</ele>
        <time>2019-09-06T10:26:57Z</time>
      </trkpt>
      <trkpt lat="51.671175006777048" lon="5.110748531296849">
        <ele>-10.960000000000001</ele>
        <time>2019-09-06T10:26:42Z</time>
      </trkpt>
      <trkpt lat="51.671156315132976" lon="5.110739814117551">
        <ele>-10.960000000000001</ele>
        <time>2019-09-06T10:26:41Z</time>
      </trkpt>
      <trkpt lat="51.671069394797087" lon="5.110753225162625">
        <ele>-13.83</ele>
        <time>2019-09-06T10:26:39Z</time>
      </trkpt>
      <trkpt lat="51.670981971547008" lon="5.110752219334245">
        <ele>-13.83</ele>
        <time>2019-09-06T10:26:32Z</time>
      </trkpt>
      <trkpt lat="51.670873928815126" lon="5.110727827996016">
        <ele>-13.800000000000001</ele>
        <time>2019-09-06T10:26:16Z</time>
      </trkpt>
      <trkpt lat="51.670823134481907" lon="5.110769653692842">
        <ele>-13.75</ele>
        <time>2019-09-06T10:26:04Z</time>
      </trkpt>
      <trkpt lat="51.670786673203111" lon="5.110792703926563">
        <ele>-13.720000000000001</ele>
        <time>2019-09-06T10:25:58Z</time>
      </trkpt>
      <trkpt lat="51.670674690976739" lon="5.110845174640417">
        <ele>-13.57</ele>
        <time>2019-09-06T10:25:29Z</time>
      </trkpt>
      <trkpt lat="51.670650215819478" lon="5.110871409997344">
        <ele>-13.529999999999999</ele>
        <time>2019-09-06T10:25:24Z</time>
      </trkpt>
      <trkpt lat="51.67033321224153" lon="5.110861686989665">
        <ele>-13.369999999999999</ele>
        <time>2019-09-06T10:25:08Z</time>
      </trkpt>
      <trkpt lat="51.670012436807156" lon="5.110848695039749">
        <ele>-13.26</ele>
        <time>2019-09-06T10:25:00Z</time>
      </trkpt>
      <trkpt lat="51.669415226206183" lon="5.110697234049439">
        <ele>-13.09</ele>
        <time>2019-09-06T10:24:49Z</time>
      </trkpt>
      <trkpt lat="51.668990012258291" lon="5.110660353675485">
        <ele>-12.98</ele>
        <time>2019-09-06T10:24:41Z</time>
      </trkpt>
      <trkpt lat="51.668891776353121" lon="5.110628753900528">
        <ele>-12.949999999999999</ele>
        <time>2019-09-06T10:24:39Z</time>
      </trkpt>
      <trkpt lat="51.668775100260973" lon="5.110615007579327">
        <ele>-12.92</ele>
        <time>2019-09-06T10:24:37Z</time>
      </trkpt>
      <trkpt lat="51.668658256530762" lon="5.110592795535922">
        <ele>-12.880000000000001</ele>
        <time>2019-09-06T10:24:35Z</time>
      </trkpt>
      <trkpt lat="51.668604109436274" lon="5.110597908496857">
        <ele>-12.859999999999999</ele>
        <time>2019-09-06T10:24:34Z</time>
      </trkpt>
      <trkpt lat="51.668554488569498" lon="5.110616181045771">
        <ele>-12.84</ele>
        <time>2019-09-06T10:24:33Z</time>
      </trkpt>
      <trkpt lat="51.668515596538782" lon="5.110627328976989">
        <ele>-12.83</ele>
        <time>2019-09-06T10:24:32Z</time>
      </trkpt>
      <trkpt lat="51.668465053662658" lon="5.110635627061129">
        <ele>-12.82</ele>
        <time>2019-09-06T10:24:31Z</time>
      </trkpt>
      <trkpt lat="51.668419288471341" lon="5.110649541020393">
        <ele>-12.800000000000001</ele>
        <time>2019-09-06T10:24:30Z</time>
      </trkpt>
      <trkpt lat="51.668359944596887" lon="5.110660018399358">
        <ele>-12.789999999999999</ele>
        <time>2019-09-06T10:24:29Z</time>
      </trkpt>
      <trkpt lat="51.668305797502398" lon="5.110659515485168">
        <ele>-12.77</ele>
        <time>2019-09-06T10:24:28Z</time>
      </trkpt>
      <trkpt lat="51.668247040361166" lon="5.110638225451112">
        <ele>-12.75</ele>
        <time>2019-09-06T10:24:27Z</time>
      </trkpt>
      <trkpt lat="51.668193899095058" lon="5.110619533807039">
        <ele>-12.73</ele>
        <time>2019-09-06T10:24:26Z</time>
      </trkpt>
      <trkpt lat="51.668124413117766" lon="5.110604865476489">
        <ele>-12.710000000000001</ele>
        <time>2019-09-06T10:24:25Z</time>
      </trkpt>
      <trkpt lat="51.668014694005251" lon="5.110612493008375">
        <ele>-12.67</ele>
        <time>2019-09-06T10:24:23Z</time>
      </trkpt>
      <trkpt lat="51.66790128685534" lon="5.11062934063375">
        <ele>-12.630000000000001</ele>
        <time>2019-09-06T10:24:21Z</time>
      </trkpt>
      <trkpt lat="51.66784412227571" lon="5.110639063641429">
        <ele>-12.6</ele>
        <time>2019-09-06T10:24:20Z</time>
      </trkpt>
      <trkpt lat="51.667602807283401" lon="5.110638560727239">
        <ele>-12.539999999999999</ele>
        <time>2019-09-06T10:24:16Z</time>
      </trkpt>
      <trkpt lat="51.667512450367212" lon="5.110633447766304">
        <ele>-12.52</ele>
        <time>2019-09-06T10:24:15Z</time>
      </trkpt>
      <trkpt lat="51.667126547545195" lon="5.110587012022734">
        <ele>-12.41</ele>
        <time>2019-09-06T10:24:09Z</time>
      </trkpt>
      <trkpt lat="51.667058067396283" lon="5.110588856041431">
        <ele>-12.390000000000001</ele>
        <time>2019-09-06T10:24:08Z</time>
      </trkpt>
      <trkpt lat="51.667006686329842" lon="5.110574187710881">
        <ele>-12.369999999999999</ele>
        <time>2019-09-06T10:24:07Z</time>
      </trkpt>
      <trkpt lat="51.666885316371918" lon="5.110553232952952">
        <ele>-12.34</ele>
        <time>2019-09-06T10:24:05Z</time>
      </trkpt>
      <trkpt lat="51.666724970564246" lon="5.110522219911218">
        <ele>-12.27</ele>
        <time>2019-09-06T10:24:02Z</time>
      </trkpt>
      <trkpt lat="51.666669650003314" lon="5.110506964847446">
        <ele>-12.25</ele>
        <time>2019-09-06T10:24:01Z</time>
      </trkpt>
      <trkpt lat="51.666524475440383" lon="5.110493553802371">
        <ele>-9.890000000000001</ele>
        <time>2019-09-06T10:23:58Z</time>
      </trkpt>
      <trkpt lat="51.666418528184295" lon="5.11048031039536">
        <ele>-9.84</ele>
        <time>2019-09-06T10:23:56Z</time>
      </trkpt>
      <trkpt lat="51.666364716365933" lon="5.110472682863474">
        <ele>-9.82</ele>
        <time>2019-09-06T10:23:55Z</time>
      </trkpt>
      <trkpt lat="51.666312329471111" lon="5.110466228798032">
        <ele>-9.800000000000001</ele>
        <time>2019-09-06T10:23:54Z</time>
      </trkpt>
      <trkpt lat="51.666268492117524" lon="5.110463881865144">
        <ele>-9.77</ele>
        <time>2019-09-06T10:23:53Z</time>
      </trkpt>
      <trkpt lat="51.666219457983971" lon="5.110466144979">
        <ele>-9.75</ele>
        <time>2019-09-06T10:23:52Z</time>
      </trkpt>
      <trkpt lat="51.665952326729894" lon="5.110438903793693">
        <ele>-9.640000000000001</ele>
        <time>2019-09-06T10:23:47Z</time>
      </trkpt>
      <trkpt lat="51.665613278746605" lon="5.110394228249788">
        <ele>-9.51</ele>
        <time>2019-09-06T10:23:41Z</time>
      </trkpt>
      <trkpt lat="51.66555535979569" lon="5.11038064956665">
        <ele>-9.48</ele>
        <time>2019-09-06T10:23:40Z</time>
      </trkpt>
      <trkpt lat="51.665438348427415" lon="5.11034837923944">
        <ele>-9.44</ele>
        <time>2019-09-06T10:23:38Z</time>
      </trkpt>
      <trkpt lat="51.664689341560006" lon="5.110206389799714">
        <ele>-9.130000000000001</ele>
        <time>2019-09-06T10:23:26Z</time>
      </trkpt>
      <trkpt lat="51.66462991386652" lon="5.110188955441117">
        <ele>-9.1</ele>
        <time>2019-09-06T10:23:25Z</time>
      </trkpt>
      <trkpt lat="51.664341827854514" lon="5.110142603516579">
        <ele>-9</ele>
        <time>2019-09-06T10:23:20Z</time>
      </trkpt>
      <trkpt lat="51.664285082370043" lon="5.110137658193708">
        <ele>-8.98</ele>
        <time>2019-09-06T10:23:19Z</time>
      </trkpt>
      <trkpt lat="51.664043515920639" lon="5.110189039260149">
        <ele>-8.83</ele>
        <time>2019-09-06T10:23:14Z</time>
      </trkpt>
      <trkpt lat="51.663853833451867" lon="5.110170850530267">
        <ele>-8.73</ele>
        <time>2019-09-06T10:23:10Z</time>
      </trkpt>
      <trkpt lat="51.663795914500952" lon="5.11014805175364">
        <ele>-8.69</ele>
        <time>2019-09-06T10:23:09Z</time>
      </trkpt>
      <trkpt lat="51.663747048005462" lon="5.11015048250556">
        <ele>-8.66</ele>
        <time>2019-09-06T10:23:08Z</time>
      </trkpt>
      <trkpt lat="51.663617799058557" lon="5.110128270462155">
        <ele>-8.630000000000001</ele>
        <time>2019-09-06T10:23:06Z</time>
      </trkpt>
      <trkpt lat="51.663544960319996" lon="5.110087785869837">
        <ele>-8.619999999999999</ele>
        <time>2019-09-06T10:23:05Z</time>
      </trkpt>
      <trkpt lat="51.663472875952721" lon="5.110057527199388">
        <ele>-8.58</ele>
        <time>2019-09-06T10:23:04Z</time>
      </trkpt>
      <trkpt lat="51.66326567530632" lon="5.110043697059155">
        <ele>-8.449999999999999</ele>
        <time>2019-09-06T10:23:00Z</time>
      </trkpt>
      <trkpt lat="51.663220832124352" lon="5.110050570219755">
        <ele>-8.42</ele>
        <time>2019-09-06T10:22:59Z</time>
      </trkpt>
      <trkpt lat="51.66281171143055" lon="5.109979910776019">
        <ele>-8.199999999999999</ele>
        <time>2019-09-06T10:22:50Z</time>
      </trkpt>
      <trkpt lat="51.662526139989495" lon="5.109958788380027">
        <ele>-8.050000000000001</ele>
        <time>2019-09-06T10:22:45Z</time>
      </trkpt>
      <trkpt lat="51.662467382848263" lon="5.109956525266171">
        <ele>-8.01</ele>
        <time>2019-09-06T10:22:44Z</time>
      </trkpt>
      <trkpt lat="51.662402339279652" lon="5.109934648498893">
        <ele>-7.99</ele>
        <time>2019-09-06T10:22:43Z</time>
      </trkpt>
      <trkpt lat="51.662340732291341" lon="5.10992132127285">
        <ele>-7.96</ele>
        <time>2019-09-06T10:22:42Z</time>
      </trkpt>
      <trkpt lat="51.66227568872273" lon="5.109915118664503">
        <ele>-7.92</ele>
        <time>2019-09-06T10:22:41Z</time>
      </trkpt>
      <trkpt lat="51.662195725366473" lon="5.109919393435121">
        <ele>-7.89</ele>
        <time>2019-09-06T10:22:40Z</time>
      </trkpt>
      <trkpt lat="51.661996822804213" lon="5.109930960461497">
        <ele>-7.75</ele>
        <time>2019-09-06T10:22:36Z</time>
      </trkpt>
      <trkpt lat="51.661842931061983" lon="5.109978569671512">
        <ele>-7.67</ele>
        <time>2019-09-06T10:22:34Z</time>
      </trkpt>
      <trkpt lat="51.661590468138456" lon="5.11005911976099">
        <ele>-7.47</ele>
        <time>2019-09-06T10:22:29Z</time>
      </trkpt>
      <trkpt lat="51.661316463723779" lon="5.110126342624426">
        <ele>-7.08</ele>
        <time>2019-09-06T10:22:19Z</time>
      </trkpt>
      <trkpt lat="51.661382680758834" lon="5.1102848444134">
        <ele>-6.79</ele>
        <time>2019-09-06T10:22:12Z</time>
      </trkpt>
      <trkpt lat="51.661388715729117" lon="5.110367825254798">
        <ele>-6.76</ele>
        <time>2019-09-06T10:22:11Z</time>
      </trkpt>
      <trkpt lat="51.661379747092724" lon="5.110434461385012">
        <ele>-6.71</ele>
        <time>2019-09-06T10:22:10Z</time>
      </trkpt>
      <trkpt lat="51.66137907654047" lon="5.110477125272155">
        <ele>-6.67</ele>
        <time>2019-09-06T10:22:09Z</time>
      </trkpt>
      <trkpt lat="51.661382596939802" lon="5.110523980110884">
        <ele>-6.64</ele>
        <time>2019-09-06T10:22:08Z</time>
      </trkpt>
      <trkpt lat="51.661381339654326" lon="5.110577289015055">
        <ele>-6.6</ele>
        <time>2019-09-06T10:22:07Z</time>
      </trkpt>
      <trkpt lat="51.661380920559168" lon="5.110631603747606">
        <ele>-6.56</ele>
        <time>2019-09-06T10:22:06Z</time>
      </trkpt>
      <trkpt lat="51.6613810043782" lon="5.110685415565968">
        <ele>-6.52</ele>
        <time>2019-09-06T10:22:05Z</time>
      </trkpt>
      <trkpt lat="51.661396510899067" lon="5.110730258747935">
        <ele>-6.48</ele>
        <time>2019-09-06T10:22:04Z</time>
      </trkpt>
      <trkpt lat="51.661405311897397" lon="5.111070396378636">
        <ele>-6.24</ele>
        <time>2019-09-06T10:21:58Z</time>
      </trkpt>
      <trkpt lat="51.661383267492056" lon="5.111694680526853">
        <ele>-5.85</ele>
        <time>2019-09-06T10:21:47Z</time>
      </trkpt>
      <trkpt lat="51.661380501464009" lon="5.111734578385949">
        <ele>-5.81</ele>
        <time>2019-09-06T10:21:46Z</time>
      </trkpt>
      <trkpt lat="51.661363989114761" lon="5.111786713823676">
        <ele>-5.78</ele>
        <time>2019-09-06T10:21:45Z</time>
      </trkpt>
      <trkpt lat="51.661363150924444" lon="5.111817810684443">
        <ele>-5.74</ele>
        <time>2019-09-06T10:21:44Z</time>
      </trkpt>
      <trkpt lat="51.661355188116431" lon="5.111858379095793">
        <ele>-5.71</ele>
        <time>2019-09-06T10:21:43Z</time>
      </trkpt>
      <trkpt lat="51.66135367937386" lon="5.111898612231016">
        <ele>-5.67</ele>
        <time>2019-09-06T10:21:42Z</time>
      </trkpt>
      <trkpt lat="51.661353092640638" lon="5.111929206177592">
        <ele>-5.64</ele>
        <time>2019-09-06T10:21:41Z</time>
      </trkpt>
      <trkpt lat="51.661350829526782" lon="5.111957285553217">
        <ele>-5.6</ele>
        <time>2019-09-06T10:21:40Z</time>
      </trkpt>
      <trkpt lat="51.661334652453661" lon="5.11199894361198">
        <ele>-5.57</ele>
        <time>2019-09-06T10:21:39Z</time>
      </trkpt>
      <trkpt lat="51.661335742101073" lon="5.11204051785171">
        <ele>-5.55</ele>
        <time>2019-09-06T10:21:38Z</time>
      </trkpt>
      <trkpt lat="51.661334317177534" lon="5.112134395167232">
        <ele>-5.48</ele>
        <time>2019-09-06T10:21:36Z</time>
      </trkpt>
      <trkpt lat="51.661346554756165" lon="5.112471682950854">
        <ele>-5.27</ele>
        <time>2019-09-06T10:21:30Z</time>
      </trkpt>
      <trkpt lat="51.661360301077366" lon="5.112523064017296">
        <ele>-5.23</ele>
        <time>2019-09-06T10:21:29Z</time>
      </trkpt>
      <trkpt lat="51.661373963579535" lon="5.11258534155786">
        <ele>-5.2</ele>
        <time>2019-09-06T10:21:28Z</time>
      </trkpt>
      <trkpt lat="51.661388212814927" lon="5.11263906955719">
        <ele>-5.16</ele>
        <time>2019-09-06T10:21:27Z</time>
      </trkpt>
      <trkpt lat="51.661398354917765" lon="5.112693216651678">
        <ele>-5.13</ele>
        <time>2019-09-06T10:21:26Z</time>
      </trkpt>
      <trkpt lat="51.661419225856662" lon="5.112751051783562">
        <ele>-5.1</ele>
        <time>2019-09-06T10:21:25Z</time>
      </trkpt>
      <trkpt lat="51.661434564739466" lon="5.112817268818617">
        <ele>-5.06</ele>
        <time>2019-09-06T10:21:24Z</time>
      </trkpt>
      <trkpt lat="51.661429367959499" lon="5.11286630295217">
        <ele>-5.03</ele>
        <time>2019-09-06T10:21:23Z</time>
      </trkpt>
      <trkpt lat="51.661422159522772" lon="5.112916845828295">
        <ele>-4.99</ele>
        <time>2019-09-06T10:21:22Z</time>
      </trkpt>
      <trkpt lat="51.661385279148817" lon="5.113185066729784">
        <ele>-4.81</ele>
        <time>2019-09-06T10:21:17Z</time>
      </trkpt>
      <trkpt lat="51.661378908902407" lon="5.113235944882035">
        <ele>-4.77</ele>
        <time>2019-09-06T10:21:16Z</time>
      </trkpt>
      <trkpt lat="51.661382596939802" lon="5.113272573798895">
        <ele>-4.73</ele>
        <time>2019-09-06T10:21:15Z</time>
      </trkpt>
      <trkpt lat="51.661375304684043" lon="5.113299731165171">
        <ele>-4.7</ele>
        <time>2019-09-06T10:21:14Z</time>
      </trkpt>
      <trkpt lat="51.66137371212244" lon="5.113341137766838">
        <ele>-4.67</ele>
        <time>2019-09-06T10:21:13Z</time>
      </trkpt>
      <trkpt lat="51.661371616646647" lon="5.113370474427939">
        <ele>-4.63</ele>
        <time>2019-09-06T10:21:12Z</time>
      </trkpt>
      <trkpt lat="51.661325180903077" lon="5.113523192703724">
        <ele>-4.5</ele>
        <time>2019-09-06T10:21:08Z</time>
      </trkpt>
      <trkpt lat="51.661295173689723" lon="5.114091904833913">
        <ele>-4.16</ele>
        <time>2019-09-06T10:20:57Z</time>
      </trkpt>
      <trkpt lat="51.661284193396568" lon="5.114142615348101">
        <ele>-4.13</ele>
        <time>2019-09-06T10:20:56Z</time>
      </trkpt>
      <trkpt lat="51.661273632198572" lon="5.114201959222555">
        <ele>-4.11</ele>
        <time>2019-09-06T10:20:55Z</time>
      </trkpt>
      <trkpt lat="51.661264076828957" lon="5.114268679171801">
        <ele>-4.08</ele>
        <time>2019-09-06T10:20:54Z</time>
      </trkpt>
      <trkpt lat="51.661258209496737" lon="5.114340176805854">
        <ele>-4.05</ele>
        <time>2019-09-06T10:20:53Z</time>
      </trkpt>
      <trkpt lat="51.66126474738121" lon="5.114391809329391">
        <ele>-4.02</ele>
        <time>2019-09-06T10:20:52Z</time>
      </trkpt>
      <trkpt lat="51.661248486489058" lon="5.11445333249867">
        <ele>-4</ele>
        <time>2019-09-06T10:20:51Z</time>
      </trkpt>
      <trkpt lat="51.661255192011595" lon="5.114503875374794">
        <ele>-3.97</ele>
        <time>2019-09-06T10:20:50Z</time>
      </trkpt>
      <trkpt lat="51.661250665783882" lon="5.114561878144741">
        <ele>-3.94</ele>
        <time>2019-09-06T10:20:49Z</time>
      </trkpt>
      <trkpt lat="51.661262568086386" lon="5.114608062431216">
        <ele>-3.92</ele>
        <time>2019-09-06T10:20:48Z</time>
      </trkpt>
      <trkpt lat="51.661247564479709" lon="5.114663802087307">
        <ele>-3.89</ele>
        <time>2019-09-06T10:20:47Z</time>
      </trkpt>
      <trkpt lat="51.661238009110093" lon="5.114709734916687">
        <ele>-3.86</ele>
        <time>2019-09-06T10:20:46Z</time>
      </trkpt>
      <trkpt lat="51.661230968311429" lon="5.114766061306">
        <ele>-3.84</ele>
        <time>2019-09-06T10:20:45Z</time>
      </trkpt>
      <trkpt lat="51.661220574751496" lon="5.114815346896648">
        <ele>-3.81</ele>
        <time>2019-09-06T10:20:44Z</time>
      </trkpt>
      <trkpt lat="51.661220155656338" lon="5.11485742405057">
        <ele>-3.78</ele>
        <time>2019-09-06T10:20:43Z</time>
      </trkpt>
      <trkpt lat="51.661178832873702" lon="5.115065798163414">
        <ele>-3.67</ele>
        <time>2019-09-06T10:20:39Z</time>
      </trkpt>
      <trkpt lat="51.661178413778543" lon="5.115283811464906">
        <ele>-3.57</ele>
        <time>2019-09-06T10:20:35Z</time>
      </trkpt>
      <trkpt lat="51.661065341904759" lon="5.115823773667216">
        <ele>-3.3</ele>
        <time>2019-09-06T10:20:23Z</time>
      </trkpt>
      <trkpt lat="51.661057127639651" lon="5.115863000974059">
        <ele>-3.29</ele>
        <time>2019-09-06T10:20:22Z</time>
      </trkpt>
      <trkpt lat="51.661030305549502" lon="5.116239935159683">
        <ele>-3.16</ele>
        <time>2019-09-06T10:20:13Z</time>
      </trkpt>
      <trkpt lat="51.661025863140821" lon="5.116280922666192">
        <ele>-3.14</ele>
        <time>2019-09-06T10:20:12Z</time>
      </trkpt>
      <trkpt lat="51.661024522036314" lon="5.116329621523619">
        <ele>-3.13</ele>
        <time>2019-09-06T10:20:11Z</time>
      </trkpt>
      <trkpt lat="51.661039777100086" lon="5.116469599306583">
        <ele>-3.08</ele>
        <time>2019-09-06T10:20:07Z</time>
      </trkpt>
      <trkpt lat="51.661041788756847" lon="5.11650019325316">
        <ele>-3.06</ele>
        <time>2019-09-06T10:20:06Z</time>
      </trkpt>
      <trkpt lat="51.661042710766196" lon="5.116530284285545">
        <ele>-3.06</ele>
        <time>2019-09-06T10:20:05Z</time>
      </trkpt>
      <trkpt lat="51.661044890061021" lon="5.116627430543304">
        <ele>-3.02</ele>
        <time>2019-09-06T10:20:02Z</time>
      </trkpt>
      <trkpt lat="51.661053607240319" lon="5.116666322574019">
        <ele>-3.01</ele>
        <time>2019-09-06T10:20:01Z</time>
      </trkpt>
      <trkpt lat="51.66098085232079" lon="5.117106456309557">
        <ele>-2.79</ele>
        <time>2019-09-06T10:19:41Z</time>
      </trkpt>
      <trkpt lat="51.660955958068371" lon="5.117267640307546">
        <ele>-2.72</ele>
        <time>2019-09-06T10:19:35Z</time>
      </trkpt>
      <trkpt lat="51.660843305289745" lon="5.117714563384652">
        <ele>-2.55</ele>
        <time>2019-09-06T10:19:12Z</time>
      </trkpt>
      <trkpt lat="51.660676253959537" lon="5.117795867845416">
        <ele>-2.47</ele>
        <time>2019-09-06T10:18:57Z</time>
      </trkpt>
      <trkpt lat="51.660358160734177" lon="5.117858313024044">
        <ele>-2.43</ele>
        <time>2019-09-06T10:18:45Z</time>
      </trkpt>
      <trkpt lat="51.660339636728168" lon="5.117857055738568">
        <ele>-2.44</ele>
        <time>2019-09-06T10:18:44Z</time>
      </trkpt>
      <trkpt lat="51.660307869315147" lon="5.117869377136231">
        <ele>-2.43</ele>
        <time>2019-09-06T10:18:43Z</time>
      </trkpt>
      <trkpt lat="51.660291356965899" lon="5.11786350980401">
        <ele>-2.43</ele>
        <time>2019-09-06T10:18:42Z</time>
      </trkpt>
      <trkpt lat="51.660257494077086" lon="5.117867197841406">
        <ele>-2.42</ele>
        <time>2019-09-06T10:18:41Z</time>
      </trkpt>
      <trkpt lat="51.660238802433014" lon="5.117866108193994">
        <ele>-2.41</ele>
        <time>2019-09-06T10:18:40Z</time>
      </trkpt>
      <trkpt lat="51.660229414701462" lon="5.117869628593326">
        <ele>-2.41</ele>
        <time>2019-09-06T10:18:39Z</time>
      </trkpt>
      <trkpt lat="51.66021172888577" lon="5.117876417934895">
        <ele>-2.41</ele>
        <time>2019-09-06T10:18:38Z</time>
      </trkpt>
      <trkpt lat="51.660110810771585" lon="5.117964847013354">
        <ele>-2.36</ele>
        <time>2019-09-06T10:18:30Z</time>
      </trkpt>
      <trkpt lat="51.659588450565934" lon="5.118049588054419">
        <ele>-2.2</ele>
        <time>2019-09-06T10:18:17Z</time>
      </trkpt>
      <trkpt lat="51.659047733992338" lon="5.117935258895159">
        <ele>-1.91</ele>
        <time>2019-09-06T10:18:02Z</time>
      </trkpt>
      <trkpt lat="51.658448595553637" lon="5.117744654417038">
        <ele>-1.56</ele>
        <time>2019-09-06T10:17:47Z</time>
      </trkpt>
      <trkpt lat="51.657932605594397" lon="5.117673743516207">
        <ele>-1.27</ele>
        <time>2019-09-06T10:17:36Z</time>
      </trkpt>
      <trkpt lat="51.657589031383395" lon="5.117691429331899">
        <ele>-1.07</ele>
        <time>2019-09-06T10:17:26Z</time>
      </trkpt>
      <trkpt lat="51.6573366522789" lon="5.117682460695505">
        <ele>-0.91</ele>
        <time>2019-09-06T10:17:16Z</time>
      </trkpt>
      <trkpt lat="51.657308740541339" lon="5.117669049650431">
        <ele>-0.89</ele>
        <time>2019-09-06T10:17:15Z</time>
      </trkpt>
      <trkpt lat="51.657269261777401" lon="5.117654129862785">
        <ele>-0.88</ele>
        <time>2019-09-06T10:17:14Z</time>
      </trkpt>
      <trkpt lat="51.657251240685582" lon="5.117639293894172">
        <ele>-0.86</ele>
        <time>2019-09-06T10:17:13Z</time>
      </trkpt>
      <trkpt lat="51.657227938994765" lon="5.117636024951935">
        <ele>-0.85</ele>
        <time>2019-09-06T10:17:12Z</time>
      </trkpt>
      <trkpt lat="51.657203463837504" lon="5.117638790979981">
        <ele>-0.84</ele>
        <time>2019-09-06T10:17:11Z</time>
      </trkpt>
      <trkpt lat="51.657174797728658" lon="5.117635270580649">
        <ele>-0.82</ele>
        <time>2019-09-06T10:17:10Z</time>
      </trkpt>
      <trkpt lat="51.656994670629501" lon="5.117543991655111">
        <ele>-0.69</ele>
        <time>2019-09-06T10:17:00Z</time>
      </trkpt>
      <trkpt lat="51.656923927366734" lon="5.117540890350938">
        <ele>-0.65</ele>
        <time>2019-09-06T10:16:56Z</time>
      </trkpt>
      <trkpt lat="51.656719073653221" lon="5.117495376616716">
        <ele>-0.51</ele>
        <time>2019-09-06T10:16:45Z</time>
      </trkpt>
      <trkpt lat="51.656693508848548" lon="5.117497304454446">
        <ele>-0.5</ele>
        <time>2019-09-06T10:16:44Z</time>
      </trkpt>
      <trkpt lat="51.656375331804156" lon="5.117559246718884">
        <ele>-0.23</ele>
        <time>2019-09-06T10:16:27Z</time>
      </trkpt>
      <trkpt lat="51.656128065660596" lon="5.117546757683158">
        <ele>-2.87</ele>
        <time>2019-09-06T10:16:10Z</time>
      </trkpt>
      <trkpt lat="51.656094873324037" lon="5.117542399093509">
        <ele>0.4</ele>
        <time>2019-09-06T10:16:08Z</time>
      </trkpt>
      <trkpt lat="51.656075762584805" lon="5.117548434063792">
        <ele>0.4</ele>
        <time>2019-09-06T10:16:07Z</time>
      </trkpt>
      <trkpt lat="51.656063860282302" lon="5.117546003311873">
        <ele>0.44</ele>
        <time>2019-09-06T10:16:06Z</time>
      </trkpt>
      <trkpt lat="51.656008036807179" lon="5.117512727156282">
        <ele>-2.2</ele>
        <time>2019-09-06T10:16:00Z</time>
      </trkpt>
      <trkpt lat="51.655887002125382" lon="5.117496801540256">
        <ele>0.73</ele>
        <time>2019-09-06T10:15:50Z</time>
      </trkpt>
      <trkpt lat="51.655776277184486" lon="5.117503926157951">
        <ele>-0.81</ele>
        <time>2019-09-06T10:15:40Z</time>
      </trkpt>
      <trkpt lat="51.655769320204854" lon="5.11751800775528">
        <ele>-0.8</ele>
        <time>2019-09-06T10:15:39Z</time>
      </trkpt>
      <trkpt lat="51.655755992978811" lon="5.117537872865796">
        <ele>-0.78</ele>
        <time>2019-09-06T10:15:38Z</time>
      </trkpt>
      <trkpt lat="51.655573854222894" lon="5.117777930572629">
        <ele>-0.59</ele>
        <time>2019-09-06T10:15:27Z</time>
      </trkpt>
      <trkpt lat="51.655563628301024" lon="5.117795448750258">
        <ele>-0.55</ele>
        <time>2019-09-06T10:15:26Z</time>
      </trkpt>
      <trkpt lat="51.655526161193848" lon="5.117845237255096">
        <ele>-0.51</ele>
        <time>2019-09-06T10:15:23Z</time>
      </trkpt>
      <trkpt lat="51.655229944735765" lon="5.118232984095812">
        <ele>-0.12</ele>
        <time>2019-09-06T10:15:04Z</time>
      </trkpt>
      <trkpt lat="51.655040346086025" lon="5.11839953251183">
        <ele>2.82</ele>
        <time>2019-09-06T10:14:55Z</time>
      </trkpt>
      <trkpt lat="51.655026348307729" lon="5.118416715413332">
        <ele>2.85</ele>
        <time>2019-09-06T10:14:54Z</time>
      </trkpt>
      <trkpt lat="51.654981337487698" lon="5.118488548323512">
        <ele>-1.55</ele>
        <time>2019-09-06T10:14:50Z</time>
      </trkpt>
      <trkpt lat="51.654855357483029" lon="5.118630034849048">
        <ele>1.37</ele>
        <time>2019-09-06T10:14:37Z</time>
      </trkpt>
      <trkpt lat="51.654842365533113" lon="5.118646379560232">
        <ele>1.4</ele>
        <time>2019-09-06T10:14:35Z</time>
      </trkpt>
      <trkpt lat="51.654821578413248" lon="5.118647050112486">
        <ele>3.78</ele>
        <time>2019-09-06T10:14:31Z</time>
      </trkpt>
      <trkpt lat="51.654718481004238" lon="5.118615198880434">
        <ele>3.92</ele>
        <time>2019-09-06T10:14:27Z</time>
      </trkpt>
      <trkpt lat="51.654509184882045" lon="5.118596255779266">
        <ele>4.27</ele>
        <time>2019-09-06T10:14:15Z</time>
      </trkpt>
      <trkpt lat="51.654246663674712" lon="5.118468683212996">
        <ele>4.57</ele>
        <time>2019-09-06T10:14:06Z</time>
      </trkpt>
      <trkpt lat="51.653826143592596" lon="5.118417553603649">
        <ele>3.04</ele>
        <time>2019-09-06T10:13:57Z</time>
      </trkpt>
      <trkpt lat="51.653443928807974" lon="5.118283946067095">
        <ele>3.14</ele>
        <time>2019-09-06T10:13:47Z</time>
      </trkpt>
      <trkpt lat="51.653079986572266" lon="5.118273720145226">
        <ele>3.21</ele>
        <time>2019-09-06T10:13:38Z</time>
      </trkpt>
      <trkpt lat="51.653037155047059" lon="5.118264751508832">
        <ele>3.23</ele>
        <time>2019-09-06T10:13:37Z</time>
      </trkpt>
      <trkpt lat="51.652886113151908" lon="5.11824069544673">
        <ele>3.25</ele>
        <time>2019-09-06T10:13:34Z</time>
      </trkpt>
      <trkpt lat="51.652604397386312" lon="5.118242874741554">
        <ele>3.28</ele>
        <time>2019-09-06T10:13:28Z</time>
      </trkpt>
      <trkpt lat="51.652432400733232" lon="5.118245640769601">
        <ele>0.99</ele>
        <time>2019-09-06T10:13:24Z</time>
      </trkpt>
      <trkpt lat="51.652116822078824" lon="5.118188643828034">
        <ele>0.99</ele>
        <time>2019-09-06T10:13:14Z</time>
      </trkpt>
      <trkpt lat="51.652026632800698" lon="5.11817280203104">
        <ele>1.04</ele>
        <time>2019-09-06T10:13:00Z</time>
      </trkpt>
      <trkpt lat="51.6520472522825" lon="5.118279084563255">
        <ele>2.92</ele>
        <time>2019-09-06T10:12:43Z</time>
      </trkpt>
      <trkpt lat="51.651949770748615" lon="5.118450662121177">
        <ele>2.92</ele>
        <time>2019-09-06T10:12:32Z</time>
      </trkpt>
      <trkpt lat="51.651947675272822" lon="5.118466420099139">
        <ele>2.92</ele>
        <time>2019-09-06T10:12:31Z</time>
      </trkpt>
      <trkpt lat="51.651973491534591" lon="5.118713770061731">
        <ele>5.27</ele>
        <time>2019-09-06T10:12:17Z</time>
      </trkpt>
      <trkpt lat="51.651976425200701" lon="5.118812927976251">
        <ele>5.3</ele>
        <time>2019-09-06T10:12:10Z</time>
      </trkpt>
      <trkpt lat="51.651944406330585" lon="5.118924910202622">
        <ele>4.51</ele>
        <time>2019-09-06T10:12:03Z</time>
      </trkpt>
      <trkpt lat="51.651919763535261" lon="5.118959276005626">
        <ele>4.52</ele>
        <time>2019-09-06T10:12:00Z</time>
      </trkpt>
      <trkpt lat="51.65190065279603" lon="5.118986768648028">
        <ele>2.26</ele>
        <time>2019-09-06T10:11:58Z</time>
      </trkpt>
      <trkpt lat="51.651708204299212" lon="5.119219869375229">
        <ele>2.23</ele>
        <time>2019-09-06T10:11:42Z</time>
      </trkpt>
      <trkpt lat="51.651625474914908" lon="5.119017027318478">
        <ele>2.2</ele>
        <time>2019-09-06T10:11:28Z</time>
      </trkpt>
      <trkpt lat="51.651492537930608" lon="5.118740759789944">
        <ele>2.15</ele>
        <time>2019-09-06T10:11:12Z</time>
      </trkpt>
      <trkpt lat="51.651366725564003" lon="5.118531882762909">
        <ele>4.4</ele>
        <time>2019-09-06T10:10:59Z</time>
      </trkpt>
      <trkpt lat="51.651176540181041" lon="5.118299787864089">
        <ele>4.42</ele>
        <time>2019-09-06T10:10:42Z</time>
      </trkpt>
      <trkpt lat="51.651019044220448" lon="5.118052689358592">
        <ele>3.59</ele>
        <time>2019-09-06T10:10:25Z</time>
      </trkpt>
      <trkpt lat="51.650824751704931" lon="5.117850517854095">
        <ele>3.58</ele>
        <time>2019-09-06T10:10:07Z</time>
      </trkpt>
      <trkpt lat="51.650581173598766" lon="5.117562180384994">
        <ele>3.52</ele>
        <time>2019-09-06T10:09:44Z</time>
      </trkpt>
      <trkpt lat="51.650309013202786" lon="5.11742421425879">
        <ele>3.53</ele>
        <time>2019-09-06T10:09:20Z</time>
      </trkpt>
      <trkpt lat="51.650045569986105" lon="5.11749948374927">
        <ele>3.51</ele>
        <time>2019-09-06T10:08:59Z</time>
      </trkpt>
      <trkpt lat="51.649827724322677" lon="5.117518343031406">
        <ele>3.47</ele>
        <time>2019-09-06T10:08:42Z</time>
      </trkpt>
      <trkpt lat="51.64956696331501" lon="5.117528149858117">
        <ele>3.36</ele>
        <time>2019-09-06T10:08:21Z</time>
      </trkpt>
      <trkpt lat="51.649425560608506" lon="5.11742178350687">
        <ele>3.48</ele>
        <time>2019-09-06T10:08:09Z</time>
      </trkpt>
      <trkpt lat="51.649257335811853" lon="5.117246266454458">
        <ele>3.41</ele>
        <time>2019-09-06T10:07:52Z</time>
      </trkpt>
      <trkpt lat="51.649182820692658" lon="5.117028504610062">
        <ele>3.42</ele>
        <time>2019-09-06T10:07:40Z</time>
      </trkpt>
      <trkpt lat="51.649088943377137" lon="5.116899842396379">
        <ele>0.98</ele>
        <time>2019-09-06T10:07:31Z</time>
      </trkpt>
      <trkpt lat="51.648867996409535" lon="5.11670789681375">
        <ele>0.91</ele>
        <time>2019-09-06T10:07:12Z</time>
      </trkpt>
      <trkpt lat="51.648644199594855" lon="5.11651829816401">
        <ele>0.96</ele>
        <time>2019-09-06T10:06:51Z</time>
      </trkpt>
      <trkpt lat="51.648464826866984" lon="5.116317132487893">
        <ele>0.95</ele>
        <time>2019-09-06T10:06:35Z</time>
      </trkpt>
      <trkpt lat="51.648303726688027" lon="5.116096772253513">
        <ele>0.88</ele>
        <time>2019-09-06T10:06:19Z</time>
      </trkpt>
      <trkpt lat="51.648118821904063" lon="5.115945981815457">
        <ele>0.87</ele>
        <time>2019-09-06T10:06:03Z</time>
      </trkpt>
      <trkpt lat="51.647926708683372" lon="5.115900216624141">
        <ele>0.79</ele>
        <time>2019-09-06T10:05:48Z</time>
      </trkpt>
      <trkpt lat="51.647741552442312" lon="5.115908933803439">
        <ele>0.79</ele>
        <time>2019-09-06T10:05:34Z</time>
      </trkpt>
      <trkpt lat="51.647504512220621" lon="5.116007588803768">
        <ele>0.74</ele>
        <time>2019-09-06T10:05:15Z</time>
      </trkpt>
      <trkpt lat="51.647278117015958" lon="5.116043630987406">
        <ele>0.72</ele>
        <time>2019-09-06T10:04:59Z</time>
      </trkpt>
      <trkpt lat="51.647024815902114" lon="5.116053186357021">
        <ele>0.67</ele>
        <time>2019-09-06T10:04:42Z</time>
      </trkpt>
      <trkpt lat="51.646865056827664" lon="5.11621680110693">
        <ele>0.62</ele>
        <time>2019-09-06T10:04:27Z</time>
      </trkpt>
      <trkpt lat="51.646766988560557" lon="5.116548556834459">
        <ele>0.63</ele>
        <time>2019-09-06T10:04:10Z</time>
      </trkpt>
      <trkpt lat="51.646638326346874" lon="5.116820801049471">
        <ele>0.58</ele>
        <time>2019-09-06T10:03:54Z</time>
      </trkpt>
      <trkpt lat="51.646471861749887" lon="5.11698005720973">
        <ele>1.35</ele>
        <time>2019-09-06T10:03:39Z</time>
      </trkpt>
      <trkpt lat="51.646257871761918" lon="5.116848880425096">
        <ele>1.33</ele>
        <time>2019-09-06T10:03:22Z</time>
      </trkpt>
      <trkpt lat="51.646083863452077" lon="5.116765396669507">
        <ele>1.25</ele>
        <time>2019-09-06T10:03:07Z</time>
      </trkpt>
      <trkpt lat="51.645907675847411" lon="5.11658719740808">
        <ele>1.28</ele>
        <time>2019-09-06T10:02:52Z</time>
      </trkpt>
      <trkpt lat="51.645665690302849" lon="5.116455685347319">
        <ele>1.26</ele>
        <time>2019-09-06T10:02:33Z</time>
      </trkpt>
      <trkpt lat="51.645569298416376" lon="5.116423666477203">
        <ele>3.5</ele>
        <time>2019-09-06T10:02:26Z</time>
      </trkpt>
      <trkpt lat="51.645357152447104" lon="5.116277653723955">
        <ele>3.49</ele>
        <time>2019-09-06T10:02:08Z</time>
      </trkpt>
      <trkpt lat="51.645171074196696" lon="5.116107081994414">
        <ele>3.49</ele>
        <time>2019-09-06T10:01:51Z</time>
      </trkpt>
      <trkpt lat="51.644928921014071" lon="5.116099957376719">
        <ele>3.45</ele>
        <time>2019-09-06T10:01:33Z</time>
      </trkpt>
      <trkpt lat="51.64460395462811" lon="5.116130551323295">
        <ele>3.4</ele>
        <time>2019-09-06T10:01:09Z</time>
      </trkpt>
      <trkpt lat="51.644335146993399" lon="5.116221997886896">
        <ele>3.33</ele>
        <time>2019-09-06T10:00:50Z</time>
      </trkpt>
      <trkpt lat="51.644089138135314" lon="5.116217220202088">
        <ele>3.37</ele>
        <time>2019-09-06T10:00:31Z</time>
      </trkpt>
      <trkpt lat="51.643826114013791" lon="5.116225769743323">
        <ele>3.4</ele>
        <time>2019-09-06T10:00:12Z</time>
      </trkpt>
      <trkpt lat="51.643590331077576" lon="5.116409249603748">
        <ele>2.6</ele>
        <time>2019-09-06T09:59:54Z</time>
      </trkpt>
      <trkpt lat="51.643553366884589" lon="5.11642986908555">
        <ele>2.56</ele>
        <time>2019-09-06T09:59:51Z</time>
      </trkpt>
      <trkpt lat="51.643543979153037" lon="5.116439172998071">
        <ele>2.55</ele>
        <time>2019-09-06T09:59:50Z</time>
      </trkpt>
      <trkpt lat="51.643524281680584" lon="5.116445627063513">
        <ele>0.26</ele>
        <time>2019-09-06T09:59:35Z</time>
      </trkpt>
      <trkpt lat="51.643487652763724" lon="5.116444202139974">
        <ele>0.24</ele>
        <time>2019-09-06T09:59:02Z</time>
      </trkpt>
      <trkpt lat="51.643454460427165" lon="5.116670429706574">
        <ele>0.22</ele>
        <time>2019-09-06T09:58:47Z</time>
      </trkpt>
      <trkpt lat="51.643436523154378" lon="5.117160687223077">
        <ele>0.24</ele>
        <time>2019-09-06T09:58:27Z</time>
      </trkpt>
      <trkpt lat="51.643426464870572" lon="5.117671061307192">
        <ele>0.23</ele>
        <time>2019-09-06T09:58:15Z</time>
      </trkpt>
      <trkpt lat="51.643477762117982" lon="5.118329292163253">
        <ele>0.3</ele>
        <time>2019-09-06T09:58:01Z</time>
      </trkpt>
      <trkpt lat="51.643551355227828" lon="5.119030270725489">
        <ele>0.15</ele>
        <time>2019-09-06T09:57:49Z</time>
      </trkpt>
      <trkpt lat="51.64366090670228" lon="5.119673330336809">
        <ele>0.18</ele>
        <time>2019-09-06T09:57:35Z</time>
      </trkpt>
      <trkpt lat="51.643747072666883" lon="5.120061077177525">
        <ele>0.18</ele>
        <time>2019-09-06T09:57:20Z</time>
      </trkpt>
      <trkpt lat="51.643813960254192" lon="5.12053532525897">
        <ele>0.83</ele>
        <time>2019-09-06T09:57:02Z</time>
      </trkpt>
      <trkpt lat="51.643891828134656" lon="5.121008986607194">
        <ele>2.56</ele>
        <time>2019-09-06T09:56:43Z</time>
      </trkpt>
      <trkpt lat="51.643906831741333" lon="5.121175199747086">
        <ele>4.88</ele>
        <time>2019-09-06T09:56:36Z</time>
      </trkpt>
      <trkpt lat="51.643906328827143" lon="5.121199423447251">
        <ele>4.9</ele>
        <time>2019-09-06T09:56:35Z</time>
      </trkpt>
      <trkpt lat="51.643905322998762" lon="5.121223898604512">
        <ele>0.56</ele>
        <time>2019-09-06T09:56:34Z</time>
      </trkpt>
      <trkpt lat="51.643902724608779" lon="5.121247870847583">
        <ele>0.61</ele>
        <time>2019-09-06T09:56:33Z</time>
      </trkpt>
      <trkpt lat="51.643901886418462" lon="5.121269663795829">
        <ele>4.39</ele>
        <time>2019-09-06T09:56:32Z</time>
      </trkpt>
      <trkpt lat="51.643825192004442" lon="5.121670821681619">
        <ele>4.41</ele>
        <time>2019-09-06T09:56:13Z</time>
      </trkpt>
      <trkpt lat="51.643741456791759" lon="5.121987825259566">
        <ele>2.65</ele>
        <time>2019-09-06T09:55:58Z</time>
      </trkpt>
      <trkpt lat="51.643731566146016" lon="5.122056724503636">
        <ele>0.22</ele>
        <time>2019-09-06T09:55:55Z</time>
      </trkpt>
      <trkpt lat="51.643674150109291" lon="5.122466431930661">
        <ele>0.15</ele>
        <time>2019-09-06T09:55:41Z</time>
      </trkpt>
      <trkpt lat="51.643648585304618" lon="5.122585957869887">
        <ele>2.48</ele>
        <time>2019-09-06T09:55:35Z</time>
      </trkpt>
      <trkpt lat="51.643546912819147" lon="5.123011004179716">
        <ele>2.55</ele>
        <time>2019-09-06T09:55:16Z</time>
      </trkpt>
      <trkpt lat="51.643518665805459" lon="5.123144360259175">
        <ele>0.07</ele>
        <time>2019-09-06T09:55:10Z</time>
      </trkpt>
      <trkpt lat="51.643457897007465" lon="5.123455496504903">
        <ele>0.05</ele>
        <time>2019-09-06T09:54:57Z</time>
      </trkpt>
      <trkpt lat="51.643497459590435" lon="5.123943574726582">
        <ele>0</ele>
        <time>2019-09-06T09:54:38Z</time>
      </trkpt>
      <trkpt lat="51.643609525635839" lon="5.124349007382989">
        <ele>2.55</ele>
        <time>2019-09-06T09:54:20Z</time>
      </trkpt>
      <trkpt lat="51.64371270686388" lon="5.124729881063104">
        <ele>2.59</ele>
        <time>2019-09-06T09:54:02Z</time>
      </trkpt>
      <trkpt lat="51.643769703805447" lon="5.124857872724533">
        <ele>1.23</ele>
        <time>2019-09-06T09:53:55Z</time>
      </trkpt>
      <trkpt lat="51.643777498975396" lon="5.124876145273447">
        <ele>-2.03</ele>
        <time>2019-09-06T09:53:54Z</time>
      </trkpt>
      <trkpt lat="51.643885793164372" lon="5.125219970941544">
        <ele>1.48</ele>
        <time>2019-09-06T09:53:37Z</time>
      </trkpt>
      <trkpt lat="51.644039684906602" lon="5.125576956197619">
        <ele>1.46</ele>
        <time>2019-09-06T09:53:20Z</time>
      </trkpt>
      <trkpt lat="51.644158372655511" lon="5.125941904261708">
        <ele>1.49</ele>
        <time>2019-09-06T09:53:03Z</time>
      </trkpt>
      <trkpt lat="51.644296003505588" lon="5.126308193430305">
        <ele>1.52</ele>
        <time>2019-09-06T09:52:45Z</time>
      </trkpt>
      <trkpt lat="51.644339505583048" lon="5.126371895894408">
        <ele>1.5</ele>
        <time>2019-09-06T09:52:41Z</time>
      </trkpt>
      <trkpt lat="51.644521309062839" lon="5.126470634713769">
        <ele>1.57</ele>
        <time>2019-09-06T09:52:29Z</time>
      </trkpt>
      <trkpt lat="51.644548047333956" lon="5.126491757109761">
        <ele>-0.77</ele>
        <time>2019-09-06T09:52:27Z</time>
      </trkpt>
      <trkpt lat="51.644697496667504" lon="5.126518327742815">
        <ele>-0.82</ele>
        <time>2019-09-06T09:52:16Z</time>
      </trkpt>
      <trkpt lat="51.644931100308895" lon="5.126528218388557">
        <ele>0.34</ele>
        <time>2019-09-06T09:52:00Z</time>
      </trkpt>
      <trkpt lat="51.64516294375062" lon="5.126521345227957">
        <ele>0.35</ele>
        <time>2019-09-06T09:51:42Z</time>
      </trkpt>
      <trkpt lat="51.645176941528916" lon="5.12651857919991">
        <ele>0.35</ele>
        <time>2019-09-06T09:51:41Z</time>
      </trkpt>
      <trkpt lat="51.645457148551941" lon="5.126590831205249">
        <ele>2.79</ele>
        <time>2019-09-06T09:51:21Z</time>
      </trkpt>
      <trkpt lat="51.645715143531561" lon="5.126627460122109">
        <ele>2.84</ele>
        <time>2019-09-06T09:51:02Z</time>
      </trkpt>
      <trkpt lat="51.646036002784967" lon="5.126570546999574">
        <ele>2.86</ele>
        <time>2019-09-06T09:50:39Z</time>
      </trkpt>
      <trkpt lat="51.646078499034047" lon="5.126575492322445">
        <ele>0.04</ele>
        <time>2019-09-06T09:50:36Z</time>
      </trkpt>
      <trkpt lat="51.646315287798643" lon="5.12659233994782">
        <ele>0.01</ele>
        <time>2019-09-06T09:50:21Z</time>
      </trkpt>
      <trkpt lat="51.646525925025344" lon="5.126585382968187">
        <ele>-0.06</ele>
        <time>2019-09-06T09:50:08Z</time>
      </trkpt>
      <trkpt lat="51.646577641367912" lon="5.126666352152824">
        <ele>2.36</ele>
        <time>2019-09-06T09:50:03Z</time>
      </trkpt>
      <trkpt lat="51.646577473729849" lon="5.126820160076022">
        <ele>2.37</ele>
        <time>2019-09-06T09:49:56Z</time>
      </trkpt>
      <trkpt lat="51.646578311920166" lon="5.127182006835938">
        <ele>2.34</ele>
        <time>2019-09-06T09:49:39Z</time>
      </trkpt>
      <trkpt lat="51.646551657468081" lon="5.12751292437315">
        <ele>2.39</ele>
        <time>2019-09-06T09:49:23Z</time>
      </trkpt>
      <trkpt lat="51.64649591781199" lon="5.127821043133736">
        <ele>0.69</ele>
        <time>2019-09-06T09:49:10Z</time>
      </trkpt>
      <trkpt lat="51.64645979180932" lon="5.128264781087637">
        <ele>-1.67</ele>
        <time>2019-09-06T09:48:51Z</time>
      </trkpt>
      <trkpt lat="51.646431880071759" lon="5.128660909831524">
        <ele>-1.69</ele>
        <time>2019-09-06T09:48:34Z</time>
      </trkpt>
      <trkpt lat="51.646407153457403" lon="5.129020242020488">
        <ele>-1.72</ele>
        <time>2019-09-06T09:48:19Z</time>
      </trkpt>
      <trkpt lat="51.64640111848712" lon="5.129444031044841">
        <ele>-1.75</ele>
        <time>2019-09-06T09:48:00Z</time>
      </trkpt>
      <trkpt lat="51.64644805714488" lon="5.129819791764021">
        <ele>0.68</ele>
        <time>2019-09-06T09:47:41Z</time>
      </trkpt>
      <trkpt lat="51.646354682743549" lon="5.130235115066171">
        <ele>0.66</ele>
        <time>2019-09-06T09:47:19Z</time>
      </trkpt>
      <trkpt lat="51.646211687475443" lon="5.130606265738607">
        <ele>0.67</ele>
        <time>2019-09-06T09:46:58Z</time>
      </trkpt>
      <trkpt lat="51.646063243970275" lon="5.130978506058455">
        <ele>0.66</ele>
        <time>2019-09-06T09:46:36Z</time>
      </trkpt>
      <trkpt lat="51.646032650023699" lon="5.131048243492842">
        <ele>-1.57</ele>
        <time>2019-09-06T09:46:32Z</time>
      </trkpt>
      <trkpt lat="51.645864509046078" lon="5.131509667262435">
        <ele>-1.63</ele>
        <time>2019-09-06T09:46:08Z</time>
      </trkpt>
      <trkpt lat="51.645775241777301" lon="5.131932115182281">
        <ele>-1.66</ele>
        <time>2019-09-06T09:45:48Z</time>
      </trkpt>
      <trkpt lat="51.64576786570251" lon="5.132329501211643">
        <ele>-1.67</ele>
        <time>2019-09-06T09:45:29Z</time>
      </trkpt>
      <trkpt lat="51.645793095231056" lon="5.13268263079226">
        <ele>-1.66</ele>
        <time>2019-09-06T09:45:11Z</time>
      </trkpt>
      <trkpt lat="51.64584900252521" lon="5.133046070113778">
        <ele>-1.68</ele>
        <time>2019-09-06T09:44:53Z</time>
      </trkpt>
      <trkpt lat="51.645910022780299" lon="5.133524844422936">
        <ele>-1.68</ele>
        <time>2019-09-06T09:44:31Z</time>
      </trkpt>
      <trkpt lat="51.645944220945239" lon="5.133859449997544">
        <ele>-1.7</ele>
        <time>2019-09-06T09:44:16Z</time>
      </trkpt>
      <trkpt lat="51.6458426322788" lon="5.134043181315064">
        <ele>-1.67</ele>
        <time>2019-09-06T09:44:02Z</time>
      </trkpt>
      <trkpt lat="51.645666528493166" lon="5.134065812453628">
        <ele>-1.7</ele>
        <time>2019-09-06T09:43:47Z</time>
      </trkpt>
      <trkpt lat="51.645445246249437" lon="5.134014347568154">
        <ele>-1.71</ele>
        <time>2019-09-06T09:43:29Z</time>
      </trkpt>
      <trkpt lat="51.645244583487511" lon="5.133891385048628">
        <ele>-1.76</ele>
        <time>2019-09-06T09:43:12Z</time>
      </trkpt>
      <trkpt lat="51.645052889361978" lon="5.133775882422924">
        <ele>-0.88</ele>
        <time>2019-09-06T09:42:57Z</time>
      </trkpt>
      <trkpt lat="51.644873013719916" lon="5.133786108344793">
        <ele>1.59</ele>
        <time>2019-09-06T09:42:40Z</time>
      </trkpt>
      <trkpt lat="51.644818782806396" lon="5.133786275982857">
        <ele>1.57</ele>
        <time>2019-09-06T09:42:21Z</time>
      </trkpt>
      <trkpt lat="51.644815430045128" lon="5.133798765018582">
        <ele>1.55</ele>
        <time>2019-09-06T09:41:58Z</time>
      </trkpt>
      <trkpt lat="51.644825488328934" lon="5.133815445005894">
        <ele>2.3</ele>
        <time>2019-09-06T09:41:42Z</time>
      </trkpt>
      <trkpt lat="51.644760863855481" lon="5.133855091407895">
        <ele>3.2</ele>
        <time>2019-09-06T09:41:35Z</time>
      </trkpt>
      <trkpt lat="51.644734125584364" lon="5.133867915719748">
        <ele>5.47</ele>
        <time>2019-09-06T09:41:33Z</time>
      </trkpt>
      <trkpt lat="51.644722642377019" lon="5.133874537423253">
        <ele>5.48</ele>
        <time>2019-09-06T09:41:32Z</time>
      </trkpt>
      <trkpt lat="51.644650222733617" lon="5.133868921548128">
        <ele>5.51</ele>
        <time>2019-09-06T09:41:14Z</time>
      </trkpt>
      <trkpt lat="51.644468000158668" lon="5.133717628195882">
        <ele>4.74</ele>
        <time>2019-09-06T09:40:58Z</time>
      </trkpt>
      <trkpt lat="51.644332632422447" lon="5.133701451122761">
        <ele>2.37</ele>
        <time>2019-09-06T09:40:47Z</time>
      </trkpt>
      <trkpt lat="51.644103387370706" lon="5.133635066449642">
        <ele>2.31</ele>
        <time>2019-09-06T09:40:30Z</time>
      </trkpt>
      <trkpt lat="51.64382653310895" lon="5.133467763662338">
        <ele>4.12</ele>
        <time>2019-09-06T09:40:07Z</time>
      </trkpt>
      <trkpt lat="51.643707593902946" lon="5.133374640718103">
        <ele>2.36</ele>
        <time>2019-09-06T09:39:44Z</time>
      </trkpt>
      <trkpt lat="51.643567364662886" lon="5.133265927433968">
        <ele>0.69</ele>
        <time>2019-09-06T09:39:34Z</time>
      </trkpt>
      <trkpt lat="51.643338119611144" lon="5.13320985250175">
        <ele>-0.97</ele>
        <time>2019-09-06T09:39:19Z</time>
      </trkpt>
      <trkpt lat="51.643088925629854" lon="5.133164925500751">
        <ele>-2.82</ele>
        <time>2019-09-06T09:38:59Z</time>
      </trkpt>
      <trkpt lat="51.642875019460917" lon="5.13315612450242">
        <ele>-2.82</ele>
        <time>2019-09-06T09:38:41Z</time>
      </trkpt>
      <trkpt lat="51.642713248729706" lon="5.133108180016279">
        <ele>-2.85</ele>
        <time>2019-09-06T09:38:28Z</time>
      </trkpt>
      <trkpt lat="51.642532534897327" lon="5.132877007126808">
        <ele>-2.84</ele>
        <time>2019-09-06T09:38:10Z</time>
      </trkpt>
      <trkpt lat="51.642380487173796" lon="5.132656814530492">
        <ele>-2.88</ele>
        <time>2019-09-06T09:37:55Z</time>
      </trkpt>
      <trkpt lat="51.642198348417878" lon="5.132407788187265">
        <ele>-2.98</ele>
        <time>2019-09-06T09:37:37Z</time>
      </trkpt>
      <trkpt lat="51.642009587958455" lon="5.132105704396963">
        <ele>-4.64</ele>
        <time>2019-09-06T09:37:18Z</time>
      </trkpt>
      <trkpt lat="51.641837423667312" lon="5.131859527900815">
        <ele>-6.75</ele>
        <time>2019-09-06T09:37:01Z</time>
      </trkpt>
      <trkpt lat="51.641755448654294" lon="5.13174201361835">
        <ele>-8.08</ele>
        <time>2019-09-06T09:36:53Z</time>
      </trkpt>
      <trkpt lat="51.641725273802876" lon="5.131621733307838">
        <ele>-9.26</ele>
        <time>2019-09-06T09:36:47Z</time>
      </trkpt>
      <trkpt lat="51.641590408980846" lon="5.131408497691155">
        <ele>-12.4</ele>
        <time>2019-09-06T09:36:34Z</time>
      </trkpt>
      <trkpt lat="51.641546068713069" lon="5.131390057504177">
        <ele>-11.08</ele>
        <time>2019-09-06T09:36:31Z</time>
      </trkpt>
      <trkpt lat="51.641475912183523" lon="5.13137404806912">
        <ele>-14.210000000000001</ele>
        <time>2019-09-06T09:36:26Z</time>
      </trkpt>
      <trkpt lat="51.641356386244297" lon="5.131358876824379">
        <ele>-17.350000000000001</ele>
        <time>2019-09-06T09:36:17Z</time>
      </trkpt>
      <trkpt lat="51.641276339069009" lon="5.13137798756361">
        <ele>-20.809999999999999</ele>
        <time>2019-09-06T09:36:10Z</time>
      </trkpt>
      <trkpt lat="51.641195369884372" lon="5.131382010877132">
        <ele>-24.449999999999999</ele>
        <time>2019-09-06T09:36:03Z</time>
      </trkpt>
      <trkpt lat="51.641161255538464" lon="5.131350494921207">
        <ele>-27.66</ele>
        <time>2019-09-06T09:36:00Z</time>
      </trkpt>
      <trkpt lat="51.641149604693055" lon="5.131349740549922">
        <ele>-27.66</ele>
        <time>2019-09-06T09:35:59Z</time>
      </trkpt>
      <trkpt lat="51.641111047938466" lon="5.131356446072459">
        <ele>-31.300000000000001</ele>
        <time>2019-09-06T09:35:56Z</time>
      </trkpt>
      <trkpt lat="51.641086572781205" lon="5.131368599832058">
        <ele>-35.289999999999999</ele>
        <time>2019-09-06T09:35:54Z</time>
      </trkpt>
      <trkpt lat="51.641058744862676" lon="5.131396343931556">
        <ele>-39.609999999999999</ele>
        <time>2019-09-06T09:35:51Z</time>
      </trkpt>
      <trkpt lat="51.641053967177868" lon="5.131395924836397">
        <ele>-43.780000000000001</ele>
        <time>2019-09-06T09:35:49Z</time>
      </trkpt>
      <trkpt lat="51.641028067097068" lon="5.131404222920537">
        <ele>-47.170000000000002</ele>
        <time>2019-09-06T09:35:47Z</time>
      </trkpt>
      <trkpt lat="51.641001664102077" lon="5.131412353366613">
        <ele>-50.859999999999999</ele>
        <time>2019-09-06T09:35:45Z</time>
      </trkpt>
      <trkpt lat="51.640975261107087" lon="5.131424255669117">
        <ele>-54.920000000000002</ele>
        <time>2019-09-06T09:35:43Z</time>
      </trkpt>
      <trkpt lat="51.640963777899742" lon="5.1314268540591">
        <ele>-60.079999999999998</ele>
        <time>2019-09-06T09:35:42Z</time>
      </trkpt>
      <trkpt lat="51.640938883647323" lon="5.131436325609684">
        <ele>-61.079999999999998</ele>
        <time>2019-09-06T09:35:40Z</time>
      </trkpt>
      <trkpt lat="51.640926646068692" lon="5.13144152238965">
        <ele>-64.209999999999994</ele>
        <time>2019-09-06T09:35:39Z</time>
      </trkpt>
      <trkpt lat="51.640902422368526" lon="5.131459794938564">
        <ele>-69.099999999999994</ele>
        <time>2019-09-06T09:35:37Z</time>
      </trkpt>
      <trkpt lat="51.640879372134805" lon="5.13147815130651">
        <ele>-74.379999999999995</ele>
        <time>2019-09-06T09:35:35Z</time>
      </trkpt>
      <trkpt lat="51.640781387686729" lon="5.131733799353242">
        <ele>-80.049999999999997</ele>
        <time>2019-09-06T09:35:30Z</time>
      </trkpt>
      <trkpt lat="51.64078583009541" lon="5.131766740232706">
        <ele>14.484375</ele>
      </trkpt>
      <trkpt lat="51.640773173421621" lon="5.131756598129869">
        <ele>14.5</ele>
      </trkpt>
      <trkpt lat="51.640773173421621" lon="5.131746539846063">
        <ele>14.484375</ele>
      </trkpt>
      <trkpt lat="51.640801504254341" lon="5.131644867360592">
        <ele>-80.069999999999993</ele>
        <time>2019-09-06T09:35:29Z</time>
      </trkpt>
      <trkpt lat="51.640118630602956" lon="5.133435912430286">
        <ele>14.28125</ele>
      </trkpt>
      <trkpt lat="51.63954371586442" lon="5.134100262075663">
        <ele>12.20703125</ele>
      </trkpt>
      <trkpt lat="51.640100693330169" lon="5.137190753594041">
        <ele>10.46875</ele>
      </trkpt>
      <trkpt lat="51.640388108789921" lon="5.140627920627594">
        <ele>9.98828125</ele>
      </trkpt>
      <trkpt lat="51.64040612988174" lon="5.14155219309032">
        <ele>9.49609375</ele>
      </trkpt>
      <trkpt lat="51.638591531664133" lon="5.141061181202531">
        <ele>6.6796875</ele>
      </trkpt>
    </trkseg>
  </trk>

</gpx>